<?xml version="1.0" encoding="UTF-8" standalone="no" ?>
<gpx xmlns="http://www.topografix.com/GPX/1/1" xmlns:xsi="http://www.w3.org/2001/XMLSchema-instance" xsi:schemaLocation="http://www.topografix.com/GPX/1/1 http://www.topografix.com/GPX/1/1/gpx.xsd" version="1.1" creator="VisuGPX - https://www.visugpx.com">
  <metadata>
    <name>Croix du trou de la Mouche</name>
  </metadata>
  <trk>
    <name><![CDATA[20190508123921-jp6CF]]></name>
    <trkseg>
      <trkpt lat="45.92228" lon="6.48448">
        <ele>1450.29</ele>
        <time>2019-04-25T08:03:01Z</time>
      </trkpt>
      <trkpt lat="45.92227" lon="6.48449">
        <ele>1507</ele>
        <time>2019-04-25T08:03:02Z</time>
      </trkpt>
      <trkpt lat="45.92226" lon="6.4845">
        <ele>1507</ele>
        <time>2019-04-25T08:03:03Z</time>
      </trkpt>
      <trkpt lat="45.92225" lon="6.48451">
        <ele>1507</ele>
        <time>2019-04-25T08:03:04Z</time>
      </trkpt>
      <trkpt lat="45.92225" lon="6.48452">
        <ele>1507</ele>
        <time>2019-04-25T08:03:05Z</time>
      </trkpt>
      <trkpt lat="45.92223" lon="6.48453">
        <ele>1450.77</ele>
        <time>2019-04-25T08:03:06Z</time>
      </trkpt>
      <trkpt lat="45.92222" lon="6.48454">
        <ele>1450.77</ele>
        <time>2019-04-25T08:03:07Z</time>
      </trkpt>
      <trkpt lat="45.92202" lon="6.48481">
        <ele>1454.13</ele>
        <time>2019-04-25T08:03:28Z</time>
      </trkpt>
      <trkpt lat="45.92198" lon="6.48488">
        <ele>1455.57</ele>
        <time>2019-04-25T08:03:33Z</time>
      </trkpt>
      <trkpt lat="45.92197" lon="6.48489">
        <ele>1455.09</ele>
        <time>2019-04-25T08:03:34Z</time>
      </trkpt>
      <trkpt lat="45.92195" lon="6.48492">
        <ele>1455.57</ele>
        <time>2019-04-25T08:03:36Z</time>
      </trkpt>
      <trkpt lat="45.92183" lon="6.48517">
        <ele>1458.94</ele>
        <time>2019-04-25T08:03:52Z</time>
      </trkpt>
      <trkpt lat="45.92181" lon="6.4852">
        <ele>1459.42</ele>
        <time>2019-04-25T08:03:54Z</time>
      </trkpt>
      <trkpt lat="45.92175" lon="6.48531">
        <ele>1459.42</ele>
        <time>2019-04-25T08:04:02Z</time>
      </trkpt>
      <trkpt lat="45.92175" lon="6.48532">
        <ele>1459.42</ele>
        <time>2019-04-25T08:04:03Z</time>
      </trkpt>
      <trkpt lat="45.92173" lon="6.48535">
        <ele>1459.9</ele>
        <time>2019-04-25T08:04:05Z</time>
      </trkpt>
      <trkpt lat="45.92173" lon="6.48536">
        <ele>1459.9</ele>
        <time>2019-04-25T08:04:06Z</time>
      </trkpt>
      <trkpt lat="45.92168" lon="6.48546">
        <ele>1462.3</ele>
        <time>2019-04-25T08:04:13Z</time>
      </trkpt>
      <trkpt lat="45.92167" lon="6.48548">
        <ele>1462.3</ele>
        <time>2019-04-25T08:04:14Z</time>
      </trkpt>
      <trkpt lat="45.92166" lon="6.48549">
        <ele>1462.78</ele>
        <time>2019-04-25T08:04:15Z</time>
      </trkpt>
      <trkpt lat="45.92166" lon="6.48551">
        <ele>1462.78</ele>
        <time>2019-04-25T08:04:16Z</time>
      </trkpt>
      <trkpt lat="45.92165" lon="6.48552">
        <ele>1462.3</ele>
        <time>2019-04-25T08:04:17Z</time>
      </trkpt>
      <trkpt lat="45.92164" lon="6.48553">
        <ele>1462.3</ele>
        <time>2019-04-25T08:04:18Z</time>
      </trkpt>
      <trkpt lat="45.92163" lon="6.48555">
        <ele>1462.78</ele>
        <time>2019-04-25T08:04:19Z</time>
      </trkpt>
      <trkpt lat="45.92163" lon="6.48556">
        <ele>1462.3</ele>
        <time>2019-04-25T08:04:20Z</time>
      </trkpt>
      <trkpt lat="45.92162" lon="6.48558">
        <ele>1462.3</ele>
        <time>2019-04-25T08:04:21Z</time>
      </trkpt>
      <trkpt lat="45.9215" lon="6.48591">
        <ele>1465.67</ele>
        <time>2019-04-25T08:04:43Z</time>
      </trkpt>
      <trkpt lat="45.92146" lon="6.48598">
        <ele>1467.59</ele>
        <time>2019-04-25T08:04:48Z</time>
      </trkpt>
      <trkpt lat="45.92144" lon="6.48602">
        <ele>1465.67</ele>
        <time>2019-04-25T08:04:50Z</time>
      </trkpt>
      <trkpt lat="45.92138" lon="6.48613">
        <ele>1465.19</ele>
        <time>2019-04-25T08:04:58Z</time>
      </trkpt>
      <trkpt lat="45.92134" lon="6.48622">
        <ele>1469.03</ele>
        <time>2019-04-25T08:05:04Z</time>
      </trkpt>
      <trkpt lat="45.92133" lon="6.48624">
        <ele>1469.03</ele>
        <time>2019-04-25T08:05:05Z</time>
      </trkpt>
      <trkpt lat="45.92127" lon="6.48637">
        <ele>1467.59</ele>
        <time>2019-04-25T08:05:14Z</time>
      </trkpt>
      <trkpt lat="45.92126" lon="6.48639">
        <ele>1466.63</ele>
        <time>2019-04-25T08:05:15Z</time>
      </trkpt>
      <trkpt lat="45.92125" lon="6.48641">
        <ele>1467.11</ele>
        <time>2019-04-25T08:05:16Z</time>
      </trkpt>
      <trkpt lat="45.92124" lon="6.48643">
        <ele>1467.11</ele>
        <time>2019-04-25T08:05:17Z</time>
      </trkpt>
      <trkpt lat="45.92123" lon="6.48644">
        <ele>1467.11</ele>
        <time>2019-04-25T08:05:18Z</time>
      </trkpt>
      <trkpt lat="45.92121" lon="6.48649">
        <ele>1467.59</ele>
        <time>2019-04-25T08:05:21Z</time>
      </trkpt>
      <trkpt lat="45.92137" lon="6.48693">
        <ele>1470.47</ele>
        <time>2019-04-25T08:05:47Z</time>
      </trkpt>
      <trkpt lat="45.92138" lon="6.48695">
        <ele>1469.51</ele>
        <time>2019-04-25T08:05:48Z</time>
      </trkpt>
      <trkpt lat="45.92141" lon="6.48698">
        <ele>1468.07</ele>
        <time>2019-04-25T08:05:50Z</time>
      </trkpt>
      <trkpt lat="45.92158" lon="6.48723">
        <ele>1467.11</ele>
        <time>2019-04-25T08:06:06Z</time>
      </trkpt>
      <trkpt lat="45.92159" lon="6.48725">
        <ele>1467.11</ele>
        <time>2019-04-25T08:06:07Z</time>
      </trkpt>
      <trkpt lat="45.92174" lon="6.48773">
        <ele>1464.23</ele>
        <time>2019-04-25T08:06:27Z</time>
      </trkpt>
      <trkpt lat="45.92163" lon="6.48837">
        <ele>1460.86</ele>
        <time>2019-04-25T08:06:56Z</time>
      </trkpt>
      <trkpt lat="45.92157" lon="6.48847">
        <ele>1459.9</ele>
        <time>2019-04-25T08:07:01Z</time>
      </trkpt>
      <trkpt lat="45.92156" lon="6.48848">
        <ele>1459.9</ele>
        <time>2019-04-25T08:07:02Z</time>
      </trkpt>
      <trkpt lat="45.92155" lon="6.48849">
        <ele>1459.9</ele>
        <time>2019-04-25T08:07:03Z</time>
      </trkpt>
      <trkpt lat="45.92153" lon="6.4885">
        <ele>1459.9</ele>
        <time>2019-04-25T08:07:04Z</time>
      </trkpt>
      <trkpt lat="45.92152" lon="6.48852">
        <ele>1459.9</ele>
        <time>2019-04-25T08:07:05Z</time>
      </trkpt>
      <trkpt lat="45.92151" lon="6.48853">
        <ele>1459.9</ele>
        <time>2019-04-25T08:07:06Z</time>
      </trkpt>
      <trkpt lat="45.92151" lon="6.48855">
        <ele>1459.9</ele>
        <time>2019-04-25T08:07:07Z</time>
      </trkpt>
      <trkpt lat="45.92147" lon="6.48865">
        <ele>1460.38</ele>
        <time>2019-04-25T08:07:13Z</time>
      </trkpt>
      <trkpt lat="45.92142" lon="6.48875">
        <ele>1461.82</ele>
        <time>2019-04-25T08:07:20Z</time>
      </trkpt>
      <trkpt lat="45.92141" lon="6.48876">
        <ele>1461.82</ele>
        <time>2019-04-25T08:07:21Z</time>
      </trkpt>
      <trkpt lat="45.92141" lon="6.48878">
        <ele>1461.82</ele>
        <time>2019-04-25T08:07:22Z</time>
      </trkpt>
      <trkpt lat="45.9214" lon="6.4888">
        <ele>1461.82</ele>
        <time>2019-04-25T08:07:23Z</time>
      </trkpt>
      <trkpt lat="45.92139" lon="6.48882">
        <ele>1461.82</ele>
        <time>2019-04-25T08:07:24Z</time>
      </trkpt>
      <trkpt lat="45.92139" lon="6.48883">
        <ele>1462.3</ele>
        <time>2019-04-25T08:07:25Z</time>
      </trkpt>
      <trkpt lat="45.92139" lon="6.48885">
        <ele>1462.3</ele>
        <time>2019-04-25T08:07:26Z</time>
      </trkpt>
      <trkpt lat="45.92138" lon="6.48887">
        <ele>1462.3</ele>
        <time>2019-04-25T08:07:27Z</time>
      </trkpt>
      <trkpt lat="45.92138" lon="6.48888">
        <ele>1461.82</ele>
        <time>2019-04-25T08:07:28Z</time>
      </trkpt>
      <trkpt lat="45.92137" lon="6.48891">
        <ele>1461.82</ele>
        <time>2019-04-25T08:07:29Z</time>
      </trkpt>
      <trkpt lat="45.92136" lon="6.48893">
        <ele>1461.82</ele>
        <time>2019-04-25T08:07:30Z</time>
      </trkpt>
      <trkpt lat="45.92133" lon="6.489">
        <ele>1461.82</ele>
        <time>2019-04-25T08:07:34Z</time>
      </trkpt>
      <trkpt lat="45.92133" lon="6.48902">
        <ele>1461.82</ele>
        <time>2019-04-25T08:07:35Z</time>
      </trkpt>
      <trkpt lat="45.92133" lon="6.48904">
        <ele>1462.3</ele>
        <time>2019-04-25T08:07:36Z</time>
      </trkpt>
      <trkpt lat="45.92133" lon="6.48906">
        <ele>1462.3</ele>
        <time>2019-04-25T08:07:37Z</time>
      </trkpt>
      <trkpt lat="45.92132" lon="6.48907">
        <ele>1462.3</ele>
        <time>2019-04-25T08:07:38Z</time>
      </trkpt>
      <trkpt lat="45.92132" lon="6.48909">
        <ele>1462.3</ele>
        <time>2019-04-25T08:07:39Z</time>
      </trkpt>
      <trkpt lat="45.92131" lon="6.48911">
        <ele>1462.78</ele>
        <time>2019-04-25T08:07:40Z</time>
      </trkpt>
      <trkpt lat="45.92131" lon="6.48913">
        <ele>1462.78</ele>
        <time>2019-04-25T08:07:41Z</time>
      </trkpt>
      <trkpt lat="45.92131" lon="6.48915">
        <ele>1462.78</ele>
        <time>2019-04-25T08:07:42Z</time>
      </trkpt>
      <trkpt lat="45.9213" lon="6.48917">
        <ele>1462.78</ele>
        <time>2019-04-25T08:07:43Z</time>
      </trkpt>
      <trkpt lat="45.9213" lon="6.48918">
        <ele>1462.78</ele>
        <time>2019-04-25T08:07:44Z</time>
      </trkpt>
      <trkpt lat="45.92129" lon="6.4892">
        <ele>1462.78</ele>
        <time>2019-04-25T08:07:45Z</time>
      </trkpt>
      <trkpt lat="45.92129" lon="6.48922">
        <ele>1462.78</ele>
        <time>2019-04-25T08:07:46Z</time>
      </trkpt>
      <trkpt lat="45.92127" lon="6.4893">
        <ele>1464.23</ele>
        <time>2019-04-25T08:07:52Z</time>
      </trkpt>
      <trkpt lat="45.92127" lon="6.48932">
        <ele>1464.23</ele>
        <time>2019-04-25T08:07:53Z</time>
      </trkpt>
      <trkpt lat="45.92127" lon="6.48934">
        <ele>1464.23</ele>
        <time>2019-04-25T08:07:54Z</time>
      </trkpt>
      <trkpt lat="45.92114" lon="6.48965">
        <ele>1467.59</ele>
        <time>2019-04-25T08:08:15Z</time>
      </trkpt>
      <trkpt lat="45.92111" lon="6.48969">
        <ele>1467.59</ele>
        <time>2019-04-25T08:08:18Z</time>
      </trkpt>
      <trkpt lat="45.9211" lon="6.48971">
        <ele>1467.59</ele>
        <time>2019-04-25T08:08:19Z</time>
      </trkpt>
      <trkpt lat="45.9211" lon="6.48972">
        <ele>1467.59</ele>
        <time>2019-04-25T08:08:20Z</time>
      </trkpt>
      <trkpt lat="45.92106" lon="6.48971">
        <ele>1469.51</ele>
        <time>2019-04-25T08:08:52Z</time>
      </trkpt>
      <trkpt lat="45.92104" lon="6.48969">
        <ele>1470.47</ele>
        <time>2019-04-25T08:09:13Z</time>
      </trkpt>
      <trkpt lat="45.92107" lon="6.48982">
        <ele>1470.47</ele>
        <time>2019-04-25T08:09:30Z</time>
      </trkpt>
      <trkpt lat="45.92107" lon="6.48984">
        <ele>1470.47</ele>
        <time>2019-04-25T08:09:31Z</time>
      </trkpt>
      <trkpt lat="45.92102" lon="6.49014">
        <ele>1473.36</ele>
        <time>2019-04-25T08:09:50Z</time>
      </trkpt>
      <trkpt lat="45.92102" lon="6.49015">
        <ele>1473.84</ele>
        <time>2019-04-25T08:09:51Z</time>
      </trkpt>
      <trkpt lat="45.92102" lon="6.49017">
        <ele>1473.84</ele>
        <time>2019-04-25T08:09:52Z</time>
      </trkpt>
      <trkpt lat="45.92101" lon="6.49019">
        <ele>1474.32</ele>
        <time>2019-04-25T08:09:53Z</time>
      </trkpt>
      <trkpt lat="45.92101" lon="6.49021">
        <ele>1474.32</ele>
        <time>2019-04-25T08:09:54Z</time>
      </trkpt>
      <trkpt lat="45.92101" lon="6.49022">
        <ele>1474.8</ele>
        <time>2019-04-25T08:09:55Z</time>
      </trkpt>
      <trkpt lat="45.92101" lon="6.49024">
        <ele>1474.8</ele>
        <time>2019-04-25T08:09:56Z</time>
      </trkpt>
      <trkpt lat="45.92101" lon="6.49026">
        <ele>1474.8</ele>
        <time>2019-04-25T08:09:57Z</time>
      </trkpt>
      <trkpt lat="45.92101" lon="6.49028">
        <ele>1474.8</ele>
        <time>2019-04-25T08:09:58Z</time>
      </trkpt>
      <trkpt lat="45.92101" lon="6.49036">
        <ele>1475.76</ele>
        <time>2019-04-25T08:10:03Z</time>
      </trkpt>
      <trkpt lat="45.92101" lon="6.49037">
        <ele>1476.24</ele>
        <time>2019-04-25T08:10:04Z</time>
      </trkpt>
      <trkpt lat="45.92101" lon="6.49056">
        <ele>1479.61</ele>
        <time>2019-04-25T08:10:16Z</time>
      </trkpt>
      <trkpt lat="45.92102" lon="6.49063">
        <ele>1479.61</ele>
        <time>2019-04-25T08:10:20Z</time>
      </trkpt>
      <trkpt lat="45.92102" lon="6.49065">
        <ele>1480.09</ele>
        <time>2019-04-25T08:10:21Z</time>
      </trkpt>
      <trkpt lat="45.92104" lon="6.49072">
        <ele>1481.05</ele>
        <time>2019-04-25T08:10:26Z</time>
      </trkpt>
      <trkpt lat="45.92105" lon="6.49074">
        <ele>1481.53</ele>
        <time>2019-04-25T08:10:27Z</time>
      </trkpt>
      <trkpt lat="45.92105" lon="6.49075">
        <ele>1482.01</ele>
        <time>2019-04-25T08:10:28Z</time>
      </trkpt>
      <trkpt lat="45.92106" lon="6.49077">
        <ele>1482.01</ele>
        <time>2019-04-25T08:10:29Z</time>
      </trkpt>
      <trkpt lat="45.92106" lon="6.49078">
        <ele>1482.01</ele>
        <time>2019-04-25T08:10:30Z</time>
      </trkpt>
      <trkpt lat="45.92106" lon="6.4908">
        <ele>1482.49</ele>
        <time>2019-04-25T08:10:31Z</time>
      </trkpt>
      <trkpt lat="45.92111" lon="6.49093">
        <ele>1483.93</ele>
        <time>2019-04-25T08:10:39Z</time>
      </trkpt>
      <trkpt lat="45.92117" lon="6.49107">
        <ele>1486.82</ele>
        <time>2019-04-25T08:10:50Z</time>
      </trkpt>
      <trkpt lat="45.9212" lon="6.49121">
        <ele>1490.18</ele>
        <time>2019-04-25T08:11:02Z</time>
      </trkpt>
      <trkpt lat="45.92122" lon="6.49133">
        <ele>1493.55</ele>
        <time>2019-04-25T08:11:14Z</time>
      </trkpt>
      <trkpt lat="45.92123" lon="6.49134">
        <ele>1494.03</ele>
        <time>2019-04-25T08:11:15Z</time>
      </trkpt>
      <trkpt lat="45.92123" lon="6.49135">
        <ele>1494.03</ele>
        <time>2019-04-25T08:11:16Z</time>
      </trkpt>
      <trkpt lat="45.92124" lon="6.49136">
        <ele>1494.03</ele>
        <time>2019-04-25T08:11:17Z</time>
      </trkpt>
      <trkpt lat="45.92129" lon="6.4915">
        <ele>1495.95</ele>
        <time>2019-04-25T08:11:27Z</time>
      </trkpt>
      <trkpt lat="45.92134" lon="6.4916">
        <ele>1497.39</ele>
        <time>2019-04-25T08:11:36Z</time>
      </trkpt>
      <trkpt lat="45.92135" lon="6.49162">
        <ele>1497.39</ele>
        <time>2019-04-25T08:11:37Z</time>
      </trkpt>
      <trkpt lat="45.92143" lon="6.49179">
        <ele>1500.76</ele>
        <time>2019-04-25T08:11:53Z</time>
      </trkpt>
      <trkpt lat="45.92146" lon="6.49186">
        <ele>1502.2</ele>
        <time>2019-04-25T08:12:00Z</time>
      </trkpt>
      <trkpt lat="45.92147" lon="6.49187">
        <ele>1502.2</ele>
        <time>2019-04-25T08:12:01Z</time>
      </trkpt>
      <trkpt lat="45.92147" lon="6.49188">
        <ele>1502.68</ele>
        <time>2019-04-25T08:12:02Z</time>
      </trkpt>
      <trkpt lat="45.92148" lon="6.4919">
        <ele>1502.68</ele>
        <time>2019-04-25T08:12:03Z</time>
      </trkpt>
      <trkpt lat="45.9215" lon="6.49201">
        <ele>1505.08</ele>
        <time>2019-04-25T08:12:13Z</time>
      </trkpt>
      <trkpt lat="45.92146" lon="6.49215">
        <ele>1507.97</ele>
        <time>2019-04-25T08:12:25Z</time>
      </trkpt>
      <trkpt lat="45.92145" lon="6.49229">
        <ele>1511.33</ele>
        <time>2019-04-25T08:12:40Z</time>
      </trkpt>
      <trkpt lat="45.92146" lon="6.49231">
        <ele>1511.81</ele>
        <time>2019-04-25T08:12:41Z</time>
      </trkpt>
      <trkpt lat="45.92154" lon="6.49242">
        <ele>1512.77</ele>
        <time>2019-04-25T08:12:52Z</time>
      </trkpt>
      <trkpt lat="45.92156" lon="6.49244">
        <ele>1512.77</ele>
        <time>2019-04-25T08:12:54Z</time>
      </trkpt>
      <trkpt lat="45.92157" lon="6.49245">
        <ele>1512.77</ele>
        <time>2019-04-25T08:12:55Z</time>
      </trkpt>
      <trkpt lat="45.9216" lon="6.4925">
        <ele>1514.21</ele>
        <time>2019-04-25T08:13:00Z</time>
      </trkpt>
      <trkpt lat="45.9216" lon="6.49251">
        <ele>1514.69</ele>
        <time>2019-04-25T08:13:01Z</time>
      </trkpt>
      <trkpt lat="45.92161" lon="6.49252">
        <ele>1515.18</ele>
        <time>2019-04-25T08:13:02Z</time>
      </trkpt>
      <trkpt lat="45.92162" lon="6.49253">
        <ele>1515.18</ele>
        <time>2019-04-25T08:13:03Z</time>
      </trkpt>
      <trkpt lat="45.92162" lon="6.49255">
        <ele>1515.18</ele>
        <time>2019-04-25T08:13:04Z</time>
      </trkpt>
      <trkpt lat="45.92162" lon="6.49256">
        <ele>1515.66</ele>
        <time>2019-04-25T08:13:05Z</time>
      </trkpt>
      <trkpt lat="45.92157" lon="6.49271">
        <ele>1519.02</ele>
        <time>2019-04-25T08:13:16Z</time>
      </trkpt>
      <trkpt lat="45.92156" lon="6.49272">
        <ele>1519.02</ele>
        <time>2019-04-25T08:13:17Z</time>
      </trkpt>
      <trkpt lat="45.92147" lon="6.49279">
        <ele>1521.9</ele>
        <time>2019-04-25T08:13:30Z</time>
      </trkpt>
      <trkpt lat="45.92147" lon="6.49281">
        <ele>1521.9</ele>
        <time>2019-04-25T08:13:31Z</time>
      </trkpt>
      <trkpt lat="45.92149" lon="6.49283">
        <ele>1521.9</ele>
        <time>2019-04-25T08:13:33Z</time>
      </trkpt>
      <trkpt lat="45.9215" lon="6.49286">
        <ele>1522.39</ele>
        <time>2019-04-25T08:13:36Z</time>
      </trkpt>
      <trkpt lat="45.92152" lon="6.49288">
        <ele>1522.87</ele>
        <time>2019-04-25T08:13:38Z</time>
      </trkpt>
      <trkpt lat="45.92153" lon="6.49288">
        <ele>1522.87</ele>
        <time>2019-04-25T08:13:39Z</time>
      </trkpt>
      <trkpt lat="45.92154" lon="6.49289">
        <ele>1522.87</ele>
        <time>2019-04-25T08:13:40Z</time>
      </trkpt>
      <trkpt lat="45.92165" lon="6.49306">
        <ele>1526.23</ele>
        <time>2019-04-25T08:13:57Z</time>
      </trkpt>
      <trkpt lat="45.9218" lon="6.49315">
        <ele>1529.11</ele>
        <time>2019-04-25T08:14:16Z</time>
      </trkpt>
      <trkpt lat="45.92181" lon="6.49317">
        <ele>1530.08</ele>
        <time>2019-04-25T08:14:18Z</time>
      </trkpt>
      <trkpt lat="45.92189" lon="6.49338">
        <ele>1532</ele>
        <time>2019-04-25T08:14:38Z</time>
      </trkpt>
      <trkpt lat="45.92189" lon="6.4934">
        <ele>1532.48</ele>
        <time>2019-04-25T08:14:39Z</time>
      </trkpt>
      <trkpt lat="45.92191" lon="6.49345">
        <ele>1532.48</ele>
        <time>2019-04-25T08:14:42Z</time>
      </trkpt>
      <trkpt lat="45.92192" lon="6.49346">
        <ele>1532.96</ele>
        <time>2019-04-25T08:14:43Z</time>
      </trkpt>
      <trkpt lat="45.92193" lon="6.49347">
        <ele>1533.44</ele>
        <time>2019-04-25T08:14:45Z</time>
      </trkpt>
      <trkpt lat="45.92194" lon="6.49348">
        <ele>1533.44</ele>
        <time>2019-04-25T08:14:46Z</time>
      </trkpt>
      <trkpt lat="45.92198" lon="6.49353">
        <ele>1534.4</ele>
        <time>2019-04-25T08:14:51Z</time>
      </trkpt>
      <trkpt lat="45.92202" lon="6.49363">
        <ele>1535.84</ele>
        <time>2019-04-25T08:15:00Z</time>
      </trkpt>
      <trkpt lat="45.92203" lon="6.49364">
        <ele>1536.32</ele>
        <time>2019-04-25T08:15:01Z</time>
      </trkpt>
      <trkpt lat="45.92204" lon="6.49365">
        <ele>1536.32</ele>
        <time>2019-04-25T08:15:02Z</time>
      </trkpt>
      <trkpt lat="45.92205" lon="6.49366">
        <ele>1536.32</ele>
        <time>2019-04-25T08:15:03Z</time>
      </trkpt>
      <trkpt lat="45.92206" lon="6.49367">
        <ele>1536.8</ele>
        <time>2019-04-25T08:15:04Z</time>
      </trkpt>
      <trkpt lat="45.92207" lon="6.49368">
        <ele>1536.8</ele>
        <time>2019-04-25T08:15:05Z</time>
      </trkpt>
      <trkpt lat="45.92208" lon="6.49369">
        <ele>1536.8</ele>
        <time>2019-04-25T08:15:06Z</time>
      </trkpt>
      <trkpt lat="45.92209" lon="6.4937">
        <ele>1536.8</ele>
        <time>2019-04-25T08:15:07Z</time>
      </trkpt>
      <trkpt lat="45.92209" lon="6.49371">
        <ele>1537.29</ele>
        <time>2019-04-25T08:15:08Z</time>
      </trkpt>
      <trkpt lat="45.9221" lon="6.49372">
        <ele>1536.8</ele>
        <time>2019-04-25T08:15:09Z</time>
      </trkpt>
      <trkpt lat="45.92211" lon="6.49373">
        <ele>1536.8</ele>
        <time>2019-04-25T08:15:10Z</time>
      </trkpt>
      <trkpt lat="45.92212" lon="6.49374">
        <ele>1536.8</ele>
        <time>2019-04-25T08:15:11Z</time>
      </trkpt>
      <trkpt lat="45.92213" lon="6.49375">
        <ele>1536.8</ele>
        <time>2019-04-25T08:15:12Z</time>
      </trkpt>
      <trkpt lat="45.92214" lon="6.49377">
        <ele>1537.29</ele>
        <time>2019-04-25T08:15:14Z</time>
      </trkpt>
      <trkpt lat="45.92214" lon="6.49378">
        <ele>1537.77</ele>
        <time>2019-04-25T08:15:15Z</time>
      </trkpt>
      <trkpt lat="45.92215" lon="6.49379">
        <ele>1537.77</ele>
        <time>2019-04-25T08:15:16Z</time>
      </trkpt>
      <trkpt lat="45.92215" lon="6.4938">
        <ele>1537.77</ele>
        <time>2019-04-25T08:15:17Z</time>
      </trkpt>
      <trkpt lat="45.92216" lon="6.49381">
        <ele>1538.25</ele>
        <time>2019-04-25T08:15:18Z</time>
      </trkpt>
      <trkpt lat="45.92216" lon="6.49382">
        <ele>1538.25</ele>
        <time>2019-04-25T08:15:19Z</time>
      </trkpt>
      <trkpt lat="45.92217" lon="6.49384">
        <ele>1538.73</ele>
        <time>2019-04-25T08:15:20Z</time>
      </trkpt>
      <trkpt lat="45.92217" lon="6.49385">
        <ele>1538.73</ele>
        <time>2019-04-25T08:15:21Z</time>
      </trkpt>
      <trkpt lat="45.92218" lon="6.49386">
        <ele>1539.21</ele>
        <time>2019-04-25T08:15:22Z</time>
      </trkpt>
      <trkpt lat="45.92226" lon="6.494">
        <ele>1542.09</ele>
        <time>2019-04-25T08:15:36Z</time>
      </trkpt>
      <trkpt lat="45.92233" lon="6.49412">
        <ele>1544.98</ele>
        <time>2019-04-25T08:15:49Z</time>
      </trkpt>
      <trkpt lat="45.92234" lon="6.49413">
        <ele>1544.98</ele>
        <time>2019-04-25T08:15:50Z</time>
      </trkpt>
      <trkpt lat="45.92235" lon="6.49414">
        <ele>1545.46</ele>
        <time>2019-04-25T08:15:51Z</time>
      </trkpt>
      <trkpt lat="45.92243" lon="6.49423">
        <ele>1548.82</ele>
        <time>2019-04-25T08:16:05Z</time>
      </trkpt>
      <trkpt lat="45.92253" lon="6.49436">
        <ele>1551.71</ele>
        <time>2019-04-25T08:16:20Z</time>
      </trkpt>
      <trkpt lat="45.92261" lon="6.49453">
        <ele>1555.07</ele>
        <time>2019-04-25T08:16:36Z</time>
      </trkpt>
      <trkpt lat="45.92263" lon="6.4946">
        <ele>1557.95</ele>
        <time>2019-04-25T08:16:44Z</time>
      </trkpt>
      <trkpt lat="45.92263" lon="6.49461">
        <ele>1557.95</ele>
        <time>2019-04-25T08:16:45Z</time>
      </trkpt>
      <trkpt lat="45.92263" lon="6.49462">
        <ele>1557.95</ele>
        <time>2019-04-25T08:16:46Z</time>
      </trkpt>
      <trkpt lat="45.92265" lon="6.49465">
        <ele>1559.4</ele>
        <time>2019-04-25T08:16:50Z</time>
      </trkpt>
      <trkpt lat="45.92265" lon="6.49468">
        <ele>1559.4</ele>
        <time>2019-04-25T08:16:51Z</time>
      </trkpt>
      <trkpt lat="45.92266" lon="6.49469">
        <ele>1559.88</ele>
        <time>2019-04-25T08:16:52Z</time>
      </trkpt>
      <trkpt lat="45.92266" lon="6.4947">
        <ele>1559.88</ele>
        <time>2019-04-25T08:16:53Z</time>
      </trkpt>
      <trkpt lat="45.92266" lon="6.49471">
        <ele>1560.36</ele>
        <time>2019-04-25T08:16:54Z</time>
      </trkpt>
      <trkpt lat="45.92263" lon="6.49479">
        <ele>1563.72</ele>
        <time>2019-04-25T08:17:04Z</time>
      </trkpt>
      <trkpt lat="45.92262" lon="6.49481">
        <ele>1564.2</ele>
        <time>2019-04-25T08:17:06Z</time>
      </trkpt>
      <trkpt lat="45.9226" lon="6.4948">
        <ele>1564.68</ele>
        <time>2019-04-25T08:17:07Z</time>
      </trkpt>
      <trkpt lat="45.9225" lon="6.49489">
        <ele>1567.57</ele>
        <time>2019-04-25T08:17:20Z</time>
      </trkpt>
      <trkpt lat="45.92248" lon="6.4949">
        <ele>1568.05</ele>
        <time>2019-04-25T08:17:21Z</time>
      </trkpt>
      <trkpt lat="45.92239" lon="6.49499">
        <ele>1571.41</ele>
        <time>2019-04-25T08:17:35Z</time>
      </trkpt>
      <trkpt lat="45.92236" lon="6.49509">
        <ele>1574.3</ele>
        <time>2019-04-25T08:17:45Z</time>
      </trkpt>
      <trkpt lat="45.9223" lon="6.49517">
        <ele>1576.22</ele>
        <time>2019-04-25T08:17:57Z</time>
      </trkpt>
      <trkpt lat="45.92235" lon="6.4952">
        <ele>1577.18</ele>
        <time>2019-04-25T08:18:10Z</time>
      </trkpt>
      <trkpt lat="45.92247" lon="6.4953">
        <ele>1580.54</ele>
        <time>2019-04-25T08:18:29Z</time>
      </trkpt>
      <trkpt lat="45.92262" lon="6.49544">
        <ele>1583.43</ele>
        <time>2019-04-25T08:18:49Z</time>
      </trkpt>
      <trkpt lat="45.92263" lon="6.49551">
        <ele>1584.87</ele>
        <time>2019-04-25T08:18:59Z</time>
      </trkpt>
      <trkpt lat="45.92262" lon="6.49553">
        <ele>1585.35</ele>
        <time>2019-04-25T08:19:01Z</time>
      </trkpt>
      <trkpt lat="45.92262" lon="6.49554">
        <ele>1585.35</ele>
        <time>2019-04-25T08:19:02Z</time>
      </trkpt>
      <trkpt lat="45.92261" lon="6.49556">
        <ele>1585.83</ele>
        <time>2019-04-25T08:19:03Z</time>
      </trkpt>
      <trkpt lat="45.92258" lon="6.49565">
        <ele>1588.24</ele>
        <time>2019-04-25T08:19:19Z</time>
      </trkpt>
      <trkpt lat="45.92259" lon="6.49566">
        <ele>1588.24</ele>
        <time>2019-04-25T08:19:21Z</time>
      </trkpt>
      <trkpt lat="45.9227" lon="6.49574">
        <ele>1591.6</ele>
        <time>2019-04-25T08:19:38Z</time>
      </trkpt>
      <trkpt lat="45.9228" lon="6.49585">
        <ele>1594.96</ele>
        <time>2019-04-25T08:19:55Z</time>
      </trkpt>
      <trkpt lat="45.92277" lon="6.49591">
        <ele>1595.93</ele>
        <time>2019-04-25T08:20:01Z</time>
      </trkpt>
      <trkpt lat="45.92276" lon="6.49592">
        <ele>1596.41</ele>
        <time>2019-04-25T08:20:03Z</time>
      </trkpt>
      <trkpt lat="45.92268" lon="6.49601">
        <ele>1599.29</ele>
        <time>2019-04-25T08:20:16Z</time>
      </trkpt>
      <trkpt lat="45.92259" lon="6.49606">
        <ele>1602.66</ele>
        <time>2019-04-25T08:20:30Z</time>
      </trkpt>
      <trkpt lat="45.92251" lon="6.49614">
        <ele>1605.54</ele>
        <time>2019-04-25T08:20:44Z</time>
      </trkpt>
      <trkpt lat="45.92248" lon="6.49613">
        <ele>1606.02</ele>
        <time>2019-04-25T08:20:46Z</time>
      </trkpt>
      <trkpt lat="45.92248" lon="6.49614">
        <ele>1606.02</ele>
        <time>2019-04-25T08:20:47Z</time>
      </trkpt>
      <trkpt lat="45.92238" lon="6.49616">
        <ele>1609.38</ele>
        <time>2019-04-25T08:21:00Z</time>
      </trkpt>
      <trkpt lat="45.92235" lon="6.49616">
        <ele>1610.35</ele>
        <time>2019-04-25T08:21:04Z</time>
      </trkpt>
      <trkpt lat="45.92235" lon="6.49616">
        <ele>1610.35</ele>
        <time>2019-04-25T08:21:05Z</time>
      </trkpt>
      <trkpt lat="45.92225" lon="6.49619">
        <ele>1613.23</ele>
        <time>2019-04-25T08:21:20Z</time>
      </trkpt>
      <trkpt lat="45.92226" lon="6.49621">
        <ele>1613.71</ele>
        <time>2019-04-25T08:21:23Z</time>
      </trkpt>
      <trkpt lat="45.92226" lon="6.49621">
        <ele>1613.71</ele>
        <time>2019-04-25T08:21:25Z</time>
      </trkpt>
      <trkpt lat="45.9223" lon="6.49628">
        <ele>1616.11</ele>
        <time>2019-04-25T08:21:34Z</time>
      </trkpt>
      <trkpt lat="45.92239" lon="6.49647">
        <ele>1619.48</ele>
        <time>2019-04-25T08:21:52Z</time>
      </trkpt>
      <trkpt lat="45.92248" lon="6.49656">
        <ele>1622.36</ele>
        <time>2019-04-25T08:22:10Z</time>
      </trkpt>
      <trkpt lat="45.92244" lon="6.49662">
        <ele>1624.77</ele>
        <time>2019-04-25T08:22:26Z</time>
      </trkpt>
      <trkpt lat="45.92231" lon="6.49665">
        <ele>1628.13</ele>
        <time>2019-04-25T08:22:42Z</time>
      </trkpt>
      <trkpt lat="45.92222" lon="6.49666">
        <ele>1631.49</ele>
        <time>2019-04-25T08:22:55Z</time>
      </trkpt>
      <trkpt lat="45.92216" lon="6.49666">
        <ele>1633.9</ele>
        <time>2019-04-25T08:23:02Z</time>
      </trkpt>
      <trkpt lat="45.92207" lon="6.49667">
        <ele>1637.74</ele>
        <time>2019-04-25T08:23:16Z</time>
      </trkpt>
      <trkpt lat="45.92205" lon="6.49667">
        <ele>1638.22</ele>
        <time>2019-04-25T08:23:18Z</time>
      </trkpt>
      <trkpt lat="45.92198" lon="6.49665">
        <ele>1639.67</ele>
        <time>2019-04-25T08:23:30Z</time>
      </trkpt>
      <trkpt lat="45.92194" lon="6.49665">
        <ele>1643.03</ele>
        <time>2019-04-25T08:23:36Z</time>
      </trkpt>
      <trkpt lat="45.92193" lon="6.49665">
        <ele>1643.03</ele>
        <time>2019-04-25T08:23:37Z</time>
      </trkpt>
      <trkpt lat="45.9219" lon="6.49665">
        <ele>1644.47</ele>
        <time>2019-04-25T08:23:41Z</time>
      </trkpt>
      <trkpt lat="45.92181" lon="6.49665">
        <ele>1648.32</ele>
        <time>2019-04-25T08:23:51Z</time>
      </trkpt>
      <trkpt lat="45.92178" lon="6.49667">
        <ele>1648.8</ele>
        <time>2019-04-25T08:24:02Z</time>
      </trkpt>
      <trkpt lat="45.9218" lon="6.49684">
        <ele>1651.68</ele>
        <time>2019-04-25T08:24:27Z</time>
      </trkpt>
      <trkpt lat="45.92187" lon="6.49708">
        <ele>1653.12</ele>
        <time>2019-04-25T08:24:44Z</time>
      </trkpt>
      <trkpt lat="45.92187" lon="6.49709">
        <ele>1653.6</ele>
        <time>2019-04-25T08:24:45Z</time>
      </trkpt>
      <trkpt lat="45.92193" lon="6.49726">
        <ele>1656.49</ele>
        <time>2019-04-25T08:25:03Z</time>
      </trkpt>
      <trkpt lat="45.92199" lon="6.49749">
        <ele>1659.37</ele>
        <time>2019-04-25T08:25:26Z</time>
      </trkpt>
      <trkpt lat="45.92197" lon="6.4975">
        <ele>1660.33</ele>
        <time>2019-04-25T08:25:28Z</time>
      </trkpt>
      <trkpt lat="45.92197" lon="6.4975">
        <ele>1660.81</ele>
        <time>2019-04-25T08:25:29Z</time>
      </trkpt>
      <trkpt lat="45.92185" lon="6.49752">
        <ele>1663.7</ele>
        <time>2019-04-25T08:25:45Z</time>
      </trkpt>
      <trkpt lat="45.92183" lon="6.4975">
        <ele>1664.18</ele>
        <time>2019-04-25T08:25:46Z</time>
      </trkpt>
      <trkpt lat="45.92182" lon="6.4975">
        <ele>1664.18</ele>
        <time>2019-04-25T08:25:47Z</time>
      </trkpt>
      <trkpt lat="45.92169" lon="6.49749">
        <ele>1667.54</ele>
        <time>2019-04-25T08:26:03Z</time>
      </trkpt>
      <trkpt lat="45.9216" lon="6.49748">
        <ele>1670.43</ele>
        <time>2019-04-25T08:26:14Z</time>
      </trkpt>
      <trkpt lat="45.92158" lon="6.49749">
        <ele>1672.35</ele>
        <time>2019-04-25T08:26:18Z</time>
      </trkpt>
      <trkpt lat="45.92155" lon="6.49748">
        <ele>1673.31</ele>
        <time>2019-04-25T08:26:21Z</time>
      </trkpt>
      <trkpt lat="45.92154" lon="6.49748">
        <ele>1673.31</ele>
        <time>2019-04-25T08:26:22Z</time>
      </trkpt>
      <trkpt lat="45.92141" lon="6.49749">
        <ele>1676.68</ele>
        <time>2019-04-25T08:26:37Z</time>
      </trkpt>
      <trkpt lat="45.92136" lon="6.49749">
        <ele>1679.56</ele>
        <time>2019-04-25T08:26:46Z</time>
      </trkpt>
      <trkpt lat="45.92133" lon="6.4975">
        <ele>1681</ele>
        <time>2019-04-25T08:26:49Z</time>
      </trkpt>
      <trkpt lat="45.92124" lon="6.49752">
        <ele>1683.89</ele>
        <time>2019-04-25T08:27:01Z</time>
      </trkpt>
      <trkpt lat="45.92118" lon="6.49752">
        <ele>1686.77</ele>
        <time>2019-04-25T08:27:08Z</time>
      </trkpt>
      <trkpt lat="45.92115" lon="6.49753">
        <ele>1686.29</ele>
        <time>2019-04-25T08:27:19Z</time>
      </trkpt>
      <trkpt lat="45.92117" lon="6.49765">
        <ele>1688.21</ele>
        <time>2019-04-25T08:27:30Z</time>
      </trkpt>
      <trkpt lat="45.92116" lon="6.49778">
        <ele>1691.58</ele>
        <time>2019-04-25T08:27:45Z</time>
      </trkpt>
      <trkpt lat="45.92117" lon="6.49793">
        <ele>1693.02</ele>
        <time>2019-04-25T08:27:59Z</time>
      </trkpt>
      <trkpt lat="45.92114" lon="6.49801">
        <ele>1696.38</ele>
        <time>2019-04-25T08:28:08Z</time>
      </trkpt>
      <trkpt lat="45.92113" lon="6.49803">
        <ele>1696.86</ele>
        <time>2019-04-25T08:28:10Z</time>
      </trkpt>
      <trkpt lat="45.9211" lon="6.49822">
        <ele>1700.23</ele>
        <time>2019-04-25T08:28:26Z</time>
      </trkpt>
      <trkpt lat="45.92108" lon="6.49845">
        <ele>1703.11</ele>
        <time>2019-04-25T08:28:44Z</time>
      </trkpt>
      <trkpt lat="45.9211" lon="6.49865">
        <ele>1706</ele>
        <time>2019-04-25T08:29:00Z</time>
      </trkpt>
      <trkpt lat="45.92105" lon="6.49868">
        <ele>1708.88</ele>
        <time>2019-04-25T08:29:12Z</time>
      </trkpt>
      <trkpt lat="45.921" lon="6.49866">
        <ele>1709.84</ele>
        <time>2019-04-25T08:29:17Z</time>
      </trkpt>
      <trkpt lat="45.92084" lon="6.49861">
        <ele>1713.21</ele>
        <time>2019-04-25T08:29:36Z</time>
      </trkpt>
      <trkpt lat="45.92074" lon="6.49854">
        <ele>1716.09</ele>
        <time>2019-04-25T08:29:51Z</time>
      </trkpt>
      <trkpt lat="45.92066" lon="6.49847">
        <ele>1718.97</ele>
        <time>2019-04-25T08:30:00Z</time>
      </trkpt>
      <trkpt lat="45.9206" lon="6.49843">
        <ele>1721.38</ele>
        <time>2019-04-25T08:30:08Z</time>
      </trkpt>
      <trkpt lat="45.9205" lon="6.49839">
        <ele>1724.74</ele>
        <time>2019-04-25T08:30:25Z</time>
      </trkpt>
      <trkpt lat="45.92041" lon="6.49836">
        <ele>1727.63</ele>
        <time>2019-04-25T08:30:41Z</time>
      </trkpt>
      <trkpt lat="45.92035" lon="6.49842">
        <ele>1730.99</ele>
        <time>2019-04-25T08:30:58Z</time>
      </trkpt>
      <trkpt lat="45.92035" lon="6.49846">
        <ele>1732.91</ele>
        <time>2019-04-25T08:31:02Z</time>
      </trkpt>
      <trkpt lat="45.92037" lon="6.49853">
        <ele>1733.39</ele>
        <time>2019-04-25T08:31:06Z</time>
      </trkpt>
      <trkpt lat="45.92037" lon="6.49854">
        <ele>1733.39</ele>
        <time>2019-04-25T08:31:07Z</time>
      </trkpt>
      <trkpt lat="45.92034" lon="6.49875">
        <ele>1736.28</ele>
        <time>2019-04-25T08:31:31Z</time>
      </trkpt>
      <trkpt lat="45.92034" lon="6.49887">
        <ele>1739.16</ele>
        <time>2019-04-25T08:31:42Z</time>
      </trkpt>
      <trkpt lat="45.92035" lon="6.49903">
        <ele>1742.53</ele>
        <time>2019-04-25T08:31:54Z</time>
      </trkpt>
      <trkpt lat="45.92035" lon="6.49906">
        <ele>1743.01</ele>
        <time>2019-04-25T08:31:56Z</time>
      </trkpt>
      <trkpt lat="45.92037" lon="6.49918">
        <ele>1746.37</ele>
        <time>2019-04-25T08:32:08Z</time>
      </trkpt>
      <trkpt lat="45.9202" lon="6.4991">
        <ele>1749.26</ele>
        <time>2019-04-25T08:32:33Z</time>
      </trkpt>
      <trkpt lat="45.92012" lon="6.49906">
        <ele>1752.62</ele>
        <time>2019-04-25T08:32:44Z</time>
      </trkpt>
      <trkpt lat="45.92004" lon="6.49899">
        <ele>1755.99</ele>
        <time>2019-04-25T08:33:02Z</time>
      </trkpt>
      <trkpt lat="45.91996" lon="6.49897">
        <ele>1758.87</ele>
        <time>2019-04-25T08:33:14Z</time>
      </trkpt>
      <trkpt lat="45.91983" lon="6.49889">
        <ele>1761.75</ele>
        <time>2019-04-25T08:33:31Z</time>
      </trkpt>
      <trkpt lat="45.9198" lon="6.49887">
        <ele>1763.68</ele>
        <time>2019-04-25T08:33:37Z</time>
      </trkpt>
      <trkpt lat="45.91976" lon="6.49887">
        <ele>1764.64</ele>
        <time>2019-04-25T08:33:42Z</time>
      </trkpt>
      <trkpt lat="45.91976" lon="6.49888">
        <ele>1764.64</ele>
        <time>2019-04-25T08:33:43Z</time>
      </trkpt>
      <trkpt lat="45.91975" lon="6.4989">
        <ele>1765.12</ele>
        <time>2019-04-25T08:33:45Z</time>
      </trkpt>
      <trkpt lat="45.91974" lon="6.49892">
        <ele>1765.6</ele>
        <time>2019-04-25T08:33:47Z</time>
      </trkpt>
      <trkpt lat="45.91974" lon="6.49893">
        <ele>1766.08</ele>
        <time>2019-04-25T08:33:50Z</time>
      </trkpt>
      <trkpt lat="45.91974" lon="6.49898">
        <ele>1766.56</ele>
        <time>2019-04-25T08:33:54Z</time>
      </trkpt>
      <trkpt lat="45.91974" lon="6.49899">
        <ele>1766.56</ele>
        <time>2019-04-25T08:33:55Z</time>
      </trkpt>
      <trkpt lat="45.91974" lon="6.499">
        <ele>1767.04</ele>
        <time>2019-04-25T08:33:56Z</time>
      </trkpt>
      <trkpt lat="45.91974" lon="6.49912">
        <ele>1769.92</ele>
        <time>2019-04-25T08:34:09Z</time>
      </trkpt>
      <trkpt lat="45.91975" lon="6.49924">
        <ele>1773.29</ele>
        <time>2019-04-25T08:34:22Z</time>
      </trkpt>
      <trkpt lat="45.91975" lon="6.49925">
        <ele>1773.77</ele>
        <time>2019-04-25T08:34:24Z</time>
      </trkpt>
      <trkpt lat="45.91976" lon="6.49941">
        <ele>1776.65</ele>
        <time>2019-04-25T08:34:40Z</time>
      </trkpt>
      <trkpt lat="45.91975" lon="6.49945">
        <ele>1777.61</ele>
        <time>2019-04-25T08:34:44Z</time>
      </trkpt>
      <trkpt lat="45.91965" lon="6.49944">
        <ele>1780.5</ele>
        <time>2019-04-25T08:35:07Z</time>
      </trkpt>
      <trkpt lat="45.91953" lon="6.49939">
        <ele>1783.38</ele>
        <time>2019-04-25T08:35:26Z</time>
      </trkpt>
      <trkpt lat="45.91953" lon="6.49946">
        <ele>1786.75</ele>
        <time>2019-04-25T08:35:39Z</time>
      </trkpt>
      <trkpt lat="45.91954" lon="6.49958">
        <ele>1789.63</ele>
        <time>2019-04-25T08:35:53Z</time>
      </trkpt>
      <trkpt lat="45.91955" lon="6.49959">
        <ele>1790.11</ele>
        <time>2019-04-25T08:35:54Z</time>
      </trkpt>
      <trkpt lat="45.91958" lon="6.49973">
        <ele>1793.48</ele>
        <time>2019-04-25T08:36:08Z</time>
      </trkpt>
      <trkpt lat="45.91955" lon="6.49984">
        <ele>1796.36</ele>
        <time>2019-04-25T08:36:27Z</time>
      </trkpt>
      <trkpt lat="45.91946" lon="6.49981">
        <ele>1799.24</ele>
        <time>2019-04-25T08:36:38Z</time>
      </trkpt>
      <trkpt lat="45.91936" lon="6.49979">
        <ele>1802.13</ele>
        <time>2019-04-25T08:36:51Z</time>
      </trkpt>
      <trkpt lat="45.91935" lon="6.49978">
        <ele>1802.61</ele>
        <time>2019-04-25T08:36:53Z</time>
      </trkpt>
      <trkpt lat="45.91926" lon="6.49972">
        <ele>1805.49</ele>
        <time>2019-04-25T08:37:09Z</time>
      </trkpt>
      <trkpt lat="45.91918" lon="6.49965">
        <ele>1808.38</ele>
        <time>2019-04-25T08:37:25Z</time>
      </trkpt>
      <trkpt lat="45.91917" lon="6.49962">
        <ele>1808.86</ele>
        <time>2019-04-25T08:37:26Z</time>
      </trkpt>
      <trkpt lat="45.91917" lon="6.49962">
        <ele>1808.86</ele>
        <time>2019-04-25T08:37:27Z</time>
      </trkpt>
      <trkpt lat="45.91911" lon="6.4995">
        <ele>1812.22</ele>
        <time>2019-04-25T08:37:42Z</time>
      </trkpt>
      <trkpt lat="45.91906" lon="6.49943">
        <ele>1815.11</ele>
        <time>2019-04-25T08:37:55Z</time>
      </trkpt>
      <trkpt lat="45.91895" lon="6.49934">
        <ele>1817.99</ele>
        <time>2019-04-25T08:38:12Z</time>
      </trkpt>
      <trkpt lat="45.91886" lon="6.49927">
        <ele>1821.35</ele>
        <time>2019-04-25T08:38:29Z</time>
      </trkpt>
      <trkpt lat="45.91876" lon="6.4992">
        <ele>1824.24</ele>
        <time>2019-04-25T08:38:47Z</time>
      </trkpt>
      <trkpt lat="45.9187" lon="6.49918">
        <ele>1827.12</ele>
        <time>2019-04-25T08:39:14Z</time>
      </trkpt>
      <trkpt lat="45.91868" lon="6.49915">
        <ele>1827.6</ele>
        <time>2019-04-25T08:39:37Z</time>
      </trkpt>
      <trkpt lat="45.91867" lon="6.49917">
        <ele>1830.97</ele>
        <time>2019-04-25T08:41:54Z</time>
      </trkpt>
      <trkpt lat="45.91866" lon="6.4992">
        <ele>1831.45</ele>
        <time>2019-04-25T08:41:57Z</time>
      </trkpt>
      <trkpt lat="45.91865" lon="6.49935">
        <ele>1834.81</ele>
        <time>2019-04-25T08:42:10Z</time>
      </trkpt>
      <trkpt lat="45.91862" lon="6.49949">
        <ele>1837.7</ele>
        <time>2019-04-25T08:42:24Z</time>
      </trkpt>
      <trkpt lat="45.91862" lon="6.49954">
        <ele>1839.14</ele>
        <time>2019-04-25T08:42:29Z</time>
      </trkpt>
      <trkpt lat="45.91859" lon="6.49961">
        <ele>1840.1</ele>
        <time>2019-04-25T08:42:36Z</time>
      </trkpt>
      <trkpt lat="45.91857" lon="6.49978">
        <ele>1843.47</ele>
        <time>2019-04-25T08:42:51Z</time>
      </trkpt>
      <trkpt lat="45.91851" lon="6.49975">
        <ele>1846.83</ele>
        <time>2019-04-25T08:43:10Z</time>
      </trkpt>
      <trkpt lat="45.91847" lon="6.4997">
        <ele>1847.79</ele>
        <time>2019-04-25T08:43:17Z</time>
      </trkpt>
      <trkpt lat="45.91843" lon="6.49966">
        <ele>1848.75</ele>
        <time>2019-04-25T08:43:23Z</time>
      </trkpt>
      <trkpt lat="45.91834" lon="6.4996">
        <ele>1851.64</ele>
        <time>2019-04-25T08:43:39Z</time>
      </trkpt>
      <trkpt lat="45.91831" lon="6.49958">
        <ele>1852.12</ele>
        <time>2019-04-25T08:43:44Z</time>
      </trkpt>
      <trkpt lat="45.91829" lon="6.49956">
        <ele>1852.6</ele>
        <time>2019-04-25T08:43:46Z</time>
      </trkpt>
      <trkpt lat="45.91823" lon="6.49944">
        <ele>1855.96</ele>
        <time>2019-04-25T08:44:00Z</time>
      </trkpt>
      <trkpt lat="45.91821" lon="6.49941">
        <ele>1856.44</ele>
        <time>2019-04-25T08:44:03Z</time>
      </trkpt>
      <trkpt lat="45.91815" lon="6.49932">
        <ele>1858.85</ele>
        <time>2019-04-25T08:44:18Z</time>
      </trkpt>
      <trkpt lat="45.91802" lon="6.49935">
        <ele>1862.21</ele>
        <time>2019-04-25T08:44:39Z</time>
      </trkpt>
      <trkpt lat="45.91791" lon="6.49941">
        <ele>1865.09</ele>
        <time>2019-04-25T08:44:57Z</time>
      </trkpt>
      <trkpt lat="45.9178" lon="6.49945">
        <ele>1868.46</ele>
        <time>2019-04-25T08:45:14Z</time>
      </trkpt>
      <trkpt lat="45.91771" lon="6.49947">
        <ele>1871.34</ele>
        <time>2019-04-25T08:45:27Z</time>
      </trkpt>
      <trkpt lat="45.91767" lon="6.49947">
        <ele>1872.3</ele>
        <time>2019-04-25T08:45:32Z</time>
      </trkpt>
      <trkpt lat="45.91765" lon="6.49947">
        <ele>1872.79</ele>
        <time>2019-04-25T08:45:34Z</time>
      </trkpt>
      <trkpt lat="45.91761" lon="6.49947">
        <ele>1873.75</ele>
        <time>2019-04-25T08:45:39Z</time>
      </trkpt>
      <trkpt lat="45.91759" lon="6.49948">
        <ele>1874.71</ele>
        <time>2019-04-25T08:45:42Z</time>
      </trkpt>
      <trkpt lat="45.91745" lon="6.49948">
        <ele>1877.59</ele>
        <time>2019-04-25T08:46:00Z</time>
      </trkpt>
      <trkpt lat="45.91734" lon="6.49942">
        <ele>1880.48</ele>
        <time>2019-04-25T08:46:16Z</time>
      </trkpt>
      <trkpt lat="45.91726" lon="6.49938">
        <ele>1882.88</ele>
        <time>2019-04-25T08:46:28Z</time>
      </trkpt>
      <trkpt lat="45.91725" lon="6.49938">
        <ele>1882.88</ele>
        <time>2019-04-25T08:46:29Z</time>
      </trkpt>
      <trkpt lat="45.91724" lon="6.49937">
        <ele>1883.36</ele>
        <time>2019-04-25T08:46:30Z</time>
      </trkpt>
      <trkpt lat="45.91721" lon="6.49937">
        <ele>1883.36</ele>
        <time>2019-04-25T08:46:34Z</time>
      </trkpt>
      <trkpt lat="45.91716" lon="6.49935">
        <ele>1884.8</ele>
        <time>2019-04-25T08:46:41Z</time>
      </trkpt>
      <trkpt lat="45.91708" lon="6.49932">
        <ele>1887.69</ele>
        <time>2019-04-25T08:46:53Z</time>
      </trkpt>
      <trkpt lat="45.91705" lon="6.49931">
        <ele>1888.17</ele>
        <time>2019-04-25T08:46:57Z</time>
      </trkpt>
      <trkpt lat="45.91696" lon="6.49929">
        <ele>1890.57</ele>
        <time>2019-04-25T08:47:10Z</time>
      </trkpt>
      <trkpt lat="45.91689" lon="6.49922">
        <ele>1893.93</ele>
        <time>2019-04-25T08:47:23Z</time>
      </trkpt>
      <trkpt lat="45.91683" lon="6.49915">
        <ele>1896.82</ele>
        <time>2019-04-25T08:47:35Z</time>
      </trkpt>
      <trkpt lat="45.91679" lon="6.49913">
        <ele>1898.26</ele>
        <time>2019-04-25T08:47:41Z</time>
      </trkpt>
      <trkpt lat="45.91678" lon="6.49913">
        <ele>1898.26</ele>
        <time>2019-04-25T08:47:42Z</time>
      </trkpt>
      <trkpt lat="45.91669" lon="6.49923">
        <ele>1901.63</ele>
        <time>2019-04-25T08:47:57Z</time>
      </trkpt>
      <trkpt lat="45.91658" lon="6.49932">
        <ele>1904.51</ele>
        <time>2019-04-25T08:48:14Z</time>
      </trkpt>
      <trkpt lat="45.91648" lon="6.49937">
        <ele>1907.39</ele>
        <time>2019-04-25T08:48:30Z</time>
      </trkpt>
      <trkpt lat="45.91636" lon="6.49943">
        <ele>1910.28</ele>
        <time>2019-04-25T08:48:47Z</time>
      </trkpt>
      <trkpt lat="45.91639" lon="6.4995">
        <ele>1913.64</ele>
        <time>2019-04-25T08:48:57Z</time>
      </trkpt>
      <trkpt lat="45.9164" lon="6.49952">
        <ele>1913.64</ele>
        <time>2019-04-25T08:48:58Z</time>
      </trkpt>
      <trkpt lat="45.9164" lon="6.49953">
        <ele>1914.12</ele>
        <time>2019-04-25T08:48:59Z</time>
      </trkpt>
      <trkpt lat="45.91641" lon="6.49954">
        <ele>1914.12</ele>
        <time>2019-04-25T08:49:00Z</time>
      </trkpt>
      <trkpt lat="45.91643" lon="6.49957">
        <ele>1915.08</ele>
        <time>2019-04-25T08:49:04Z</time>
      </trkpt>
      <trkpt lat="45.91644" lon="6.49958">
        <ele>1915.56</ele>
        <time>2019-04-25T08:49:05Z</time>
      </trkpt>
      <trkpt lat="45.91644" lon="6.49959">
        <ele>1915.56</ele>
        <time>2019-04-25T08:49:06Z</time>
      </trkpt>
      <trkpt lat="45.91645" lon="6.4996">
        <ele>1916.04</ele>
        <time>2019-04-25T08:49:07Z</time>
      </trkpt>
      <trkpt lat="45.91651" lon="6.49972">
        <ele>1918.93</ele>
        <time>2019-04-25T08:49:20Z</time>
      </trkpt>
      <trkpt lat="45.91653" lon="6.49974">
        <ele>1919.41</ele>
        <time>2019-04-25T08:49:22Z</time>
      </trkpt>
      <trkpt lat="45.91653" lon="6.49975">
        <ele>1919.41</ele>
        <time>2019-04-25T08:49:23Z</time>
      </trkpt>
      <trkpt lat="45.91654" lon="6.49992">
        <ele>1922.77</ele>
        <time>2019-04-25T08:49:39Z</time>
      </trkpt>
      <trkpt lat="45.91654" lon="6.49994">
        <ele>1923.25</ele>
        <time>2019-04-25T08:49:41Z</time>
      </trkpt>
      <trkpt lat="45.91654" lon="6.49995">
        <ele>1923.25</ele>
        <time>2019-04-25T08:49:42Z</time>
      </trkpt>
      <trkpt lat="45.91657" lon="6.50013">
        <ele>1926.62</ele>
        <time>2019-04-25T08:49:57Z</time>
      </trkpt>
      <trkpt lat="45.91661" lon="6.50024">
        <ele>1929.5</ele>
        <time>2019-04-25T08:50:10Z</time>
      </trkpt>
      <trkpt lat="45.91656" lon="6.5003">
        <ele>1932.39</ele>
        <time>2019-04-25T08:50:26Z</time>
      </trkpt>
      <trkpt lat="45.91648" lon="6.50029">
        <ele>1935.27</ele>
        <time>2019-04-25T08:50:39Z</time>
      </trkpt>
      <trkpt lat="45.91645" lon="6.50029">
        <ele>1936.71</ele>
        <time>2019-04-25T08:50:44Z</time>
      </trkpt>
      <trkpt lat="45.91639" lon="6.50027">
        <ele>1939.12</ele>
        <time>2019-04-25T08:50:54Z</time>
      </trkpt>
      <trkpt lat="45.91628" lon="6.50023">
        <ele>1942</ele>
        <time>2019-04-25T08:51:10Z</time>
      </trkpt>
      <trkpt lat="45.91619" lon="6.50022">
        <ele>1944.88</ele>
        <time>2019-04-25T08:51:24Z</time>
      </trkpt>
      <trkpt lat="45.91613" lon="6.50019">
        <ele>1946.33</ele>
        <time>2019-04-25T08:51:32Z</time>
      </trkpt>
      <trkpt lat="45.91612" lon="6.50019">
        <ele>1946.81</ele>
        <time>2019-04-25T08:51:34Z</time>
      </trkpt>
      <trkpt lat="45.91612" lon="6.50025">
        <ele>1950.17</ele>
        <time>2019-04-25T08:51:54Z</time>
      </trkpt>
      <trkpt lat="45.91612" lon="6.50026">
        <ele>1950.17</ele>
        <time>2019-04-25T08:51:55Z</time>
      </trkpt>
      <trkpt lat="45.91612" lon="6.50027">
        <ele>1950.17</ele>
        <time>2019-04-25T08:51:56Z</time>
      </trkpt>
      <trkpt lat="45.91613" lon="6.50028">
        <ele>1950.65</ele>
        <time>2019-04-25T08:51:57Z</time>
      </trkpt>
      <trkpt lat="45.9162" lon="6.50042">
        <ele>1954.02</ele>
        <time>2019-04-25T08:52:13Z</time>
      </trkpt>
      <trkpt lat="45.91627" lon="6.50053">
        <ele>1956.42</ele>
        <time>2019-04-25T08:52:25Z</time>
      </trkpt>
      <trkpt lat="45.91627" lon="6.50055">
        <ele>1957.38</ele>
        <time>2019-04-25T08:52:30Z</time>
      </trkpt>
      <trkpt lat="45.91632" lon="6.50068">
        <ele>1960.27</ele>
        <time>2019-04-25T08:52:44Z</time>
      </trkpt>
      <trkpt lat="45.91634" lon="6.50069">
        <ele>1960.75</ele>
        <time>2019-04-25T08:52:46Z</time>
      </trkpt>
      <trkpt lat="45.91637" lon="6.50076">
        <ele>1962.67</ele>
        <time>2019-04-25T08:52:55Z</time>
      </trkpt>
      <trkpt lat="45.91638" lon="6.50086">
        <ele>1964.59</ele>
        <time>2019-04-25T08:53:04Z</time>
      </trkpt>
      <trkpt lat="45.91639" lon="6.50098">
        <ele>1966.03</ele>
        <time>2019-04-25T08:53:15Z</time>
      </trkpt>
      <trkpt lat="45.91639" lon="6.50105">
        <ele>1966.99</ele>
        <time>2019-04-25T08:53:22Z</time>
      </trkpt>
      <trkpt lat="45.9164" lon="6.50108">
        <ele>1967.48</ele>
        <time>2019-04-25T08:53:24Z</time>
      </trkpt>
      <trkpt lat="45.91644" lon="6.50117">
        <ele>1970.84</ele>
        <time>2019-04-25T08:53:35Z</time>
      </trkpt>
      <trkpt lat="45.91645" lon="6.50119">
        <ele>1970.84</ele>
        <time>2019-04-25T08:53:37Z</time>
      </trkpt>
      <trkpt lat="45.91646" lon="6.50121">
        <ele>1971.8</ele>
        <time>2019-04-25T08:53:39Z</time>
      </trkpt>
      <trkpt lat="45.91652" lon="6.50131">
        <ele>1975.17</ele>
        <time>2019-04-25T08:53:53Z</time>
      </trkpt>
      <trkpt lat="45.91655" lon="6.50135">
        <ele>1976.61</ele>
        <time>2019-04-25T08:53:59Z</time>
      </trkpt>
      <trkpt lat="45.9166" lon="6.50141">
        <ele>1979.49</ele>
        <time>2019-04-25T08:54:11Z</time>
      </trkpt>
      <trkpt lat="45.91661" lon="6.50142">
        <ele>1979.97</ele>
        <time>2019-04-25T08:54:12Z</time>
      </trkpt>
      <trkpt lat="45.91668" lon="6.50156">
        <ele>1982.38</ele>
        <time>2019-04-25T08:54:30Z</time>
      </trkpt>
      <trkpt lat="45.91669" lon="6.50158">
        <ele>1982.38</ele>
        <time>2019-04-25T08:54:32Z</time>
      </trkpt>
      <trkpt lat="45.91669" lon="6.5016">
        <ele>1982.86</ele>
        <time>2019-04-25T08:54:34Z</time>
      </trkpt>
      <trkpt lat="45.9167" lon="6.50162">
        <ele>1983.34</ele>
        <time>2019-04-25T08:54:36Z</time>
      </trkpt>
      <trkpt lat="45.9167" lon="6.50163">
        <ele>1983.82</ele>
        <time>2019-04-25T08:54:37Z</time>
      </trkpt>
      <trkpt lat="45.91672" lon="6.50182">
        <ele>1986.7</ele>
        <time>2019-04-25T08:54:53Z</time>
      </trkpt>
      <trkpt lat="45.91672" lon="6.50186">
        <ele>1987.18</ele>
        <time>2019-04-25T08:54:56Z</time>
      </trkpt>
      <trkpt lat="45.91674" lon="6.50196">
        <ele>1989.1</ele>
        <time>2019-04-25T08:55:07Z</time>
      </trkpt>
      <trkpt lat="45.91675" lon="6.50201">
        <ele>1989.59</ele>
        <time>2019-04-25T08:55:11Z</time>
      </trkpt>
      <trkpt lat="45.91676" lon="6.50203">
        <ele>1990.07</ele>
        <time>2019-04-25T08:55:13Z</time>
      </trkpt>
      <trkpt lat="45.91673" lon="6.50209">
        <ele>1992.47</ele>
        <time>2019-04-25T08:55:29Z</time>
      </trkpt>
      <trkpt lat="45.91661" lon="6.50207">
        <ele>1995.83</ele>
        <time>2019-04-25T08:55:44Z</time>
      </trkpt>
      <trkpt lat="45.91658" lon="6.50205">
        <ele>1996.8</ele>
        <time>2019-04-25T08:55:49Z</time>
      </trkpt>
      <trkpt lat="45.91656" lon="6.50205">
        <ele>1997.76</ele>
        <time>2019-04-25T08:55:51Z</time>
      </trkpt>
      <trkpt lat="45.91652" lon="6.50203">
        <ele>1999.2</ele>
        <time>2019-04-25T08:55:56Z</time>
      </trkpt>
      <trkpt lat="45.91645" lon="6.50197">
        <ele>2002.08</ele>
        <time>2019-04-25T08:56:09Z</time>
      </trkpt>
      <trkpt lat="45.91636" lon="6.50194">
        <ele>2004.97</ele>
        <time>2019-04-25T08:56:21Z</time>
      </trkpt>
      <trkpt lat="45.9163" lon="6.50192">
        <ele>2008.33</ele>
        <time>2019-04-25T08:56:33Z</time>
      </trkpt>
      <trkpt lat="45.91632" lon="6.50195">
        <ele>2008.81</ele>
        <time>2019-04-25T08:56:37Z</time>
      </trkpt>
      <trkpt lat="45.91633" lon="6.50199">
        <ele>2009.77</ele>
        <time>2019-04-25T08:56:41Z</time>
      </trkpt>
      <trkpt lat="45.91639" lon="6.50219">
        <ele>2013.14</ele>
        <time>2019-04-25T08:57:01Z</time>
      </trkpt>
      <trkpt lat="45.91639" lon="6.50221">
        <ele>2013.62</ele>
        <time>2019-04-25T08:57:03Z</time>
      </trkpt>
      <trkpt lat="45.9164" lon="6.50228">
        <ele>2016.02</ele>
        <time>2019-04-25T08:57:10Z</time>
      </trkpt>
      <trkpt lat="45.91642" lon="6.50242">
        <ele>2019.39</ele>
        <time>2019-04-25T08:57:23Z</time>
      </trkpt>
      <trkpt lat="45.91644" lon="6.50248">
        <ele>2021.79</ele>
        <time>2019-04-25T08:57:30Z</time>
      </trkpt>
      <trkpt lat="45.91645" lon="6.5025">
        <ele>2022.27</ele>
        <time>2019-04-25T08:57:32Z</time>
      </trkpt>
      <trkpt lat="45.91645" lon="6.50252">
        <ele>2022.75</ele>
        <time>2019-04-25T08:57:34Z</time>
      </trkpt>
      <trkpt lat="45.91645" lon="6.50254">
        <ele>2023.23</ele>
        <time>2019-04-25T08:57:36Z</time>
      </trkpt>
      <trkpt lat="45.91645" lon="6.50255">
        <ele>2023.23</ele>
        <time>2019-04-25T08:57:37Z</time>
      </trkpt>
      <trkpt lat="45.91648" lon="6.50266">
        <ele>2026.6</ele>
        <time>2019-04-25T08:57:49Z</time>
      </trkpt>
      <trkpt lat="45.91651" lon="6.50276">
        <ele>2029.48</ele>
        <time>2019-04-25T08:57:59Z</time>
      </trkpt>
      <trkpt lat="45.91653" lon="6.50293">
        <ele>2031.4</ele>
        <time>2019-04-25T08:58:15Z</time>
      </trkpt>
      <trkpt lat="45.91655" lon="6.50299">
        <ele>2032.36</ele>
        <time>2019-04-25T08:58:22Z</time>
      </trkpt>
      <trkpt lat="45.91657" lon="6.50303">
        <ele>2033.33</ele>
        <time>2019-04-25T08:58:27Z</time>
      </trkpt>
      <trkpt lat="45.91658" lon="6.50307">
        <ele>2034.29</ele>
        <time>2019-04-25T08:58:31Z</time>
      </trkpt>
      <trkpt lat="45.91659" lon="6.5031">
        <ele>2034.77</ele>
        <time>2019-04-25T08:58:34Z</time>
      </trkpt>
      <trkpt lat="45.9166" lon="6.50317">
        <ele>2035.73</ele>
        <time>2019-04-25T08:58:42Z</time>
      </trkpt>
      <trkpt lat="45.91662" lon="6.50322">
        <ele>2036.69</ele>
        <time>2019-04-25T08:58:47Z</time>
      </trkpt>
      <trkpt lat="45.91662" lon="6.50327">
        <ele>2037.65</ele>
        <time>2019-04-25T08:58:51Z</time>
      </trkpt>
      <trkpt lat="45.9166" lon="6.50331">
        <ele>2038.61</ele>
        <time>2019-04-25T08:58:56Z</time>
      </trkpt>
      <trkpt lat="45.91656" lon="6.50333">
        <ele>2040.05</ele>
        <time>2019-04-25T08:59:01Z</time>
      </trkpt>
      <trkpt lat="45.91651" lon="6.50337">
        <ele>2041.98</ele>
        <time>2019-04-25T08:59:08Z</time>
      </trkpt>
      <trkpt lat="45.91645" lon="6.50341">
        <ele>2045.34</ele>
        <time>2019-04-25T08:59:18Z</time>
      </trkpt>
      <trkpt lat="45.91644" lon="6.50342">
        <ele>2045.82</ele>
        <time>2019-04-25T08:59:19Z</time>
      </trkpt>
      <trkpt lat="45.91641" lon="6.50344">
        <ele>2047.26</ele>
        <time>2019-04-25T08:59:24Z</time>
      </trkpt>
      <trkpt lat="45.9164" lon="6.50345">
        <ele>2047.75</ele>
        <time>2019-04-25T08:59:25Z</time>
      </trkpt>
      <trkpt lat="45.91639" lon="6.50345">
        <ele>2047.75</ele>
        <time>2019-04-25T08:59:26Z</time>
      </trkpt>
      <trkpt lat="45.91635" lon="6.5035">
        <ele>2051.11</ele>
        <time>2019-04-25T08:59:38Z</time>
      </trkpt>
      <trkpt lat="45.91633" lon="6.50353">
        <ele>2051.11</ele>
        <time>2019-04-25T08:59:41Z</time>
      </trkpt>
      <trkpt lat="45.91633" lon="6.50354">
        <ele>2051.11</ele>
        <time>2019-04-25T08:59:42Z</time>
      </trkpt>
      <trkpt lat="45.91631" lon="6.5036">
        <ele>2053.51</ele>
        <time>2019-04-25T08:59:48Z</time>
      </trkpt>
      <trkpt lat="45.91631" lon="6.50362">
        <ele>2053.99</ele>
        <time>2019-04-25T08:59:50Z</time>
      </trkpt>
      <trkpt lat="45.91631" lon="6.50368">
        <ele>2054.47</ele>
        <time>2019-04-25T08:59:55Z</time>
      </trkpt>
      <trkpt lat="45.91632" lon="6.50371">
        <ele>2054.96</ele>
        <time>2019-04-25T08:59:57Z</time>
      </trkpt>
      <trkpt lat="45.91632" lon="6.50372">
        <ele>2054.96</ele>
        <time>2019-04-25T08:59:58Z</time>
      </trkpt>
      <trkpt lat="45.91631" lon="6.50385">
        <ele>2058.32</ele>
        <time>2019-04-25T09:00:11Z</time>
      </trkpt>
      <trkpt lat="45.91631" lon="6.5039">
        <ele>2058.8</ele>
        <time>2019-04-25T09:00:16Z</time>
      </trkpt>
      <trkpt lat="45.9163" lon="6.50396">
        <ele>2059.76</ele>
        <time>2019-04-25T09:00:22Z</time>
      </trkpt>
      <trkpt lat="45.9163" lon="6.50403">
        <ele>2061.2</ele>
        <time>2019-04-25T09:00:29Z</time>
      </trkpt>
      <trkpt lat="45.91631" lon="6.50408">
        <ele>2062.17</ele>
        <time>2019-04-25T09:00:34Z</time>
      </trkpt>
      <trkpt lat="45.91631" lon="6.50411">
        <ele>2062.65</ele>
        <time>2019-04-25T09:00:36Z</time>
      </trkpt>
      <trkpt lat="45.91631" lon="6.50412">
        <ele>2062.65</ele>
        <time>2019-04-25T09:00:37Z</time>
      </trkpt>
      <trkpt lat="45.91632" lon="6.50414">
        <ele>2063.13</ele>
        <time>2019-04-25T09:00:39Z</time>
      </trkpt>
      <trkpt lat="45.91632" lon="6.50416">
        <ele>2063.61</ele>
        <time>2019-04-25T09:00:41Z</time>
      </trkpt>
      <trkpt lat="45.91632" lon="6.50418">
        <ele>2063.61</ele>
        <time>2019-04-25T09:00:43Z</time>
      </trkpt>
      <trkpt lat="45.91633" lon="6.50419">
        <ele>2064.09</ele>
        <time>2019-04-25T09:00:44Z</time>
      </trkpt>
      <trkpt lat="45.91634" lon="6.50427">
        <ele>2065.53</ele>
        <time>2019-04-25T09:00:51Z</time>
      </trkpt>
      <trkpt lat="45.91634" lon="6.50428">
        <ele>2065.53</ele>
        <time>2019-04-25T09:00:52Z</time>
      </trkpt>
      <trkpt lat="45.91635" lon="6.50429">
        <ele>2066.01</ele>
        <time>2019-04-25T09:00:53Z</time>
      </trkpt>
      <trkpt lat="45.91639" lon="6.50438">
        <ele>2068.89</ele>
        <time>2019-04-25T09:01:04Z</time>
      </trkpt>
      <trkpt lat="45.91642" lon="6.50453">
        <ele>2071.78</ele>
        <time>2019-04-25T09:01:18Z</time>
      </trkpt>
      <trkpt lat="45.91639" lon="6.50464">
        <ele>2074.18</ele>
        <time>2019-04-25T09:01:28Z</time>
      </trkpt>
      <trkpt lat="45.91639" lon="6.50466">
        <ele>2074.18</ele>
        <time>2019-04-25T09:01:29Z</time>
      </trkpt>
      <trkpt lat="45.91636" lon="6.5048">
        <ele>2077.55</ele>
        <time>2019-04-25T09:01:43Z</time>
      </trkpt>
      <trkpt lat="45.91632" lon="6.50484">
        <ele>2079.47</ele>
        <time>2019-04-25T09:01:50Z</time>
      </trkpt>
      <trkpt lat="45.91631" lon="6.50485">
        <ele>2079.95</ele>
        <time>2019-04-25T09:01:51Z</time>
      </trkpt>
      <trkpt lat="45.91631" lon="6.50485">
        <ele>2080.43</ele>
        <time>2019-04-25T09:01:52Z</time>
      </trkpt>
      <trkpt lat="45.9163" lon="6.50485">
        <ele>2080.43</ele>
        <time>2019-04-25T09:01:53Z</time>
      </trkpt>
      <trkpt lat="45.91628" lon="6.50487">
        <ele>2080.91</ele>
        <time>2019-04-25T09:01:55Z</time>
      </trkpt>
      <trkpt lat="45.91615" lon="6.50504">
        <ele>2083.79</ele>
        <time>2019-04-25T09:02:17Z</time>
      </trkpt>
      <trkpt lat="45.91613" lon="6.50517">
        <ele>2086.2</ele>
        <time>2019-04-25T09:02:31Z</time>
      </trkpt>
      <trkpt lat="45.91613" lon="6.50518">
        <ele>2086.2</ele>
        <time>2019-04-25T09:02:32Z</time>
      </trkpt>
      <trkpt lat="45.91614" lon="6.50519">
        <ele>2086.68</ele>
        <time>2019-04-25T09:02:33Z</time>
      </trkpt>
      <trkpt lat="45.91621" lon="6.50529">
        <ele>2089.56</ele>
        <time>2019-04-25T09:02:46Z</time>
      </trkpt>
      <trkpt lat="45.91623" lon="6.50531">
        <ele>2090.52</ele>
        <time>2019-04-25T09:02:50Z</time>
      </trkpt>
      <trkpt lat="45.91624" lon="6.50533">
        <ele>2091</ele>
        <time>2019-04-25T09:02:52Z</time>
      </trkpt>
      <trkpt lat="45.91632" lon="6.50542">
        <ele>2093.41</ele>
        <time>2019-04-25T09:03:06Z</time>
      </trkpt>
      <trkpt lat="45.91633" lon="6.50543">
        <ele>2093.41</ele>
        <time>2019-04-25T09:03:08Z</time>
      </trkpt>
      <trkpt lat="45.91643" lon="6.50551">
        <ele>2096.77</ele>
        <time>2019-04-25T09:03:23Z</time>
      </trkpt>
      <trkpt lat="45.91647" lon="6.50555">
        <ele>2097.73</ele>
        <time>2019-04-25T09:03:29Z</time>
      </trkpt>
      <trkpt lat="45.91648" lon="6.50556">
        <ele>2098.21</ele>
        <time>2019-04-25T09:03:31Z</time>
      </trkpt>
      <trkpt lat="45.91652" lon="6.5056">
        <ele>2099.18</ele>
        <time>2019-04-25T09:03:38Z</time>
      </trkpt>
      <trkpt lat="45.91653" lon="6.50561">
        <ele>2099.66</ele>
        <time>2019-04-25T09:03:40Z</time>
      </trkpt>
      <trkpt lat="45.91663" lon="6.50574">
        <ele>2103.02</ele>
        <time>2019-04-25T09:03:57Z</time>
      </trkpt>
      <trkpt lat="45.9167" lon="6.50585">
        <ele>2105.91</ele>
        <time>2019-04-25T09:04:11Z</time>
      </trkpt>
      <trkpt lat="45.91662" lon="6.50587">
        <ele>2108.79</ele>
        <time>2019-04-25T09:04:28Z</time>
      </trkpt>
      <trkpt lat="45.91658" lon="6.50588">
        <ele>2110.23</ele>
        <time>2019-04-25T09:04:33Z</time>
      </trkpt>
      <trkpt lat="45.91648" lon="6.50593">
        <ele>2113.6</ele>
        <time>2019-04-25T09:04:47Z</time>
      </trkpt>
      <trkpt lat="45.91647" lon="6.50594">
        <ele>2114.08</ele>
        <time>2019-04-25T09:04:49Z</time>
      </trkpt>
      <trkpt lat="45.91642" lon="6.50598">
        <ele>2115.04</ele>
        <time>2019-04-25T09:04:57Z</time>
      </trkpt>
      <trkpt lat="45.91638" lon="6.50601">
        <ele>2116</ele>
        <time>2019-04-25T09:05:02Z</time>
      </trkpt>
      <trkpt lat="45.91637" lon="6.50602">
        <ele>2116.48</ele>
        <time>2019-04-25T09:05:04Z</time>
      </trkpt>
      <trkpt lat="45.91628" lon="6.5061">
        <ele>2119.36</ele>
        <time>2019-04-25T09:05:19Z</time>
      </trkpt>
      <trkpt lat="45.9162" lon="6.50617">
        <ele>2122.73</ele>
        <time>2019-04-25T09:05:32Z</time>
      </trkpt>
      <trkpt lat="45.91614" lon="6.50623">
        <ele>2126.57</ele>
        <time>2019-04-25T09:05:41Z</time>
      </trkpt>
      <trkpt lat="45.91613" lon="6.50624">
        <ele>2128.02</ele>
        <time>2019-04-25T09:05:44Z</time>
      </trkpt>
      <trkpt lat="45.91615" lon="6.5063">
        <ele>2127.53</ele>
        <time>2019-04-25T09:05:58Z</time>
      </trkpt>
      <trkpt lat="45.9162" lon="6.50635">
        <ele>2129.94</ele>
        <time>2019-04-25T09:06:07Z</time>
      </trkpt>
      <trkpt lat="45.91621" lon="6.50636">
        <ele>2130.42</ele>
        <time>2019-04-25T09:06:09Z</time>
      </trkpt>
      <trkpt lat="45.91625" lon="6.50639">
        <ele>2131.38</ele>
        <time>2019-04-25T09:06:16Z</time>
      </trkpt>
      <trkpt lat="45.91627" lon="6.5064">
        <ele>2131.38</ele>
        <time>2019-04-25T09:06:18Z</time>
      </trkpt>
      <trkpt lat="45.91635" lon="6.5065">
        <ele>2133.78</ele>
        <time>2019-04-25T09:06:34Z</time>
      </trkpt>
      <trkpt lat="45.91643" lon="6.5066">
        <ele>2137.15</ele>
        <time>2019-04-25T09:06:50Z</time>
      </trkpt>
      <trkpt lat="45.91651" lon="6.5067">
        <ele>2140.03</ele>
        <time>2019-04-25T09:07:06Z</time>
      </trkpt>
      <trkpt lat="45.91649" lon="6.50676">
        <ele>2142.44</ele>
        <time>2019-04-25T09:07:19Z</time>
      </trkpt>
      <trkpt lat="45.91641" lon="6.50682">
        <ele>2145.32</ele>
        <time>2019-04-25T09:07:33Z</time>
      </trkpt>
      <trkpt lat="45.91636" lon="6.50685">
        <ele>2146.76</ele>
        <time>2019-04-25T09:07:41Z</time>
      </trkpt>
      <trkpt lat="45.91627" lon="6.50689">
        <ele>2149.65</ele>
        <time>2019-04-25T09:07:53Z</time>
      </trkpt>
      <trkpt lat="45.91617" lon="6.50692">
        <ele>2152.05</ele>
        <time>2019-04-25T09:08:02Z</time>
      </trkpt>
      <trkpt lat="45.91617" lon="6.50692">
        <ele>2152.05</ele>
        <time>2019-04-25T09:08:03Z</time>
      </trkpt>
      <trkpt lat="45.91616" lon="6.50693">
        <ele>2152.53</ele>
        <time>2019-04-25T09:08:04Z</time>
      </trkpt>
      <trkpt lat="45.91614" lon="6.50694">
        <ele>2153.01</ele>
        <time>2019-04-25T09:08:06Z</time>
      </trkpt>
      <trkpt lat="45.91613" lon="6.50695">
        <ele>2153.49</ele>
        <time>2019-04-25T09:08:07Z</time>
      </trkpt>
      <trkpt lat="45.91607" lon="6.50702">
        <ele>2156.37</ele>
        <time>2019-04-25T09:08:21Z</time>
      </trkpt>
      <trkpt lat="45.91599" lon="6.50709">
        <ele>2159.74</ele>
        <time>2019-04-25T09:08:33Z</time>
      </trkpt>
      <trkpt lat="45.91594" lon="6.50712">
        <ele>2162.62</ele>
        <time>2019-04-25T09:08:43Z</time>
      </trkpt>
      <trkpt lat="45.91597" lon="6.50716">
        <ele>2163.58</ele>
        <time>2019-04-25T09:08:48Z</time>
      </trkpt>
      <trkpt lat="45.91598" lon="6.50717">
        <ele>2163.58</ele>
        <time>2019-04-25T09:08:49Z</time>
      </trkpt>
      <trkpt lat="45.91611" lon="6.5073">
        <ele>2166.95</ele>
        <time>2019-04-25T09:09:12Z</time>
      </trkpt>
      <trkpt lat="45.91619" lon="6.50738">
        <ele>2169.83</ele>
        <time>2019-04-25T09:09:24Z</time>
      </trkpt>
      <trkpt lat="45.91627" lon="6.50744">
        <ele>2172.72</ele>
        <time>2019-04-25T09:09:35Z</time>
      </trkpt>
      <trkpt lat="45.91636" lon="6.5075">
        <ele>2175.6</ele>
        <time>2019-04-25T09:09:48Z</time>
      </trkpt>
      <trkpt lat="45.91648" lon="6.50755">
        <ele>2178.48</ele>
        <time>2019-04-25T09:10:05Z</time>
      </trkpt>
      <trkpt lat="45.91658" lon="6.5076">
        <ele>2181.85</ele>
        <time>2019-04-25T09:10:21Z</time>
      </trkpt>
      <trkpt lat="45.91669" lon="6.50765">
        <ele>2185.21</ele>
        <time>2019-04-25T09:10:35Z</time>
      </trkpt>
      <trkpt lat="45.91672" lon="6.50766">
        <ele>2186.66</ele>
        <time>2019-04-25T09:10:40Z</time>
      </trkpt>
      <trkpt lat="45.91681" lon="6.50768">
        <ele>2189.54</ele>
        <time>2019-04-25T09:10:53Z</time>
      </trkpt>
      <trkpt lat="45.91683" lon="6.50769">
        <ele>2190.02</ele>
        <time>2019-04-25T09:10:55Z</time>
      </trkpt>
      <trkpt lat="45.91687" lon="6.50773">
        <ele>2193.39</ele>
        <time>2019-04-25T09:11:07Z</time>
      </trkpt>
      <trkpt lat="45.9168" lon="6.5078">
        <ele>2196.27</ele>
        <time>2019-04-25T09:11:19Z</time>
      </trkpt>
      <trkpt lat="45.91673" lon="6.50787">
        <ele>2199.63</ele>
        <time>2019-04-25T09:11:33Z</time>
      </trkpt>
      <trkpt lat="45.91666" lon="6.50794">
        <ele>2202.04</ele>
        <time>2019-04-25T09:11:45Z</time>
      </trkpt>
      <trkpt lat="45.91657" lon="6.50803">
        <ele>2205.4</ele>
        <time>2019-04-25T09:12:00Z</time>
      </trkpt>
      <trkpt lat="45.91648" lon="6.50813">
        <ele>2208.29</ele>
        <time>2019-04-25T09:12:15Z</time>
      </trkpt>
      <trkpt lat="45.91644" lon="6.50817">
        <ele>2210.69</ele>
        <time>2019-04-25T09:12:22Z</time>
      </trkpt>
      <trkpt lat="45.91638" lon="6.50822">
        <ele>2213.57</ele>
        <time>2019-04-25T09:12:31Z</time>
      </trkpt>
      <trkpt lat="45.91634" lon="6.50825">
        <ele>2216.94</ele>
        <time>2019-04-25T09:12:39Z</time>
      </trkpt>
      <trkpt lat="45.91642" lon="6.50829">
        <ele>2218.38</ele>
        <time>2019-04-25T09:12:53Z</time>
      </trkpt>
      <trkpt lat="45.91652" lon="6.50833">
        <ele>2221.74</ele>
        <time>2019-04-25T09:13:06Z</time>
      </trkpt>
      <trkpt lat="45.91656" lon="6.50833">
        <ele>2225.11</ele>
        <time>2019-04-25T09:13:13Z</time>
      </trkpt>
      <trkpt lat="45.91657" lon="6.50833">
        <ele>2225.11</ele>
        <time>2019-04-25T09:13:14Z</time>
      </trkpt>
      <trkpt lat="45.91666" lon="6.50834">
        <ele>2227.99</ele>
        <time>2019-04-25T09:13:26Z</time>
      </trkpt>
      <trkpt lat="45.9167" lon="6.50835">
        <ele>2229.92</ele>
        <time>2019-04-25T09:13:31Z</time>
      </trkpt>
      <trkpt lat="45.91673" lon="6.50835">
        <ele>2230.88</ele>
        <time>2019-04-25T09:13:34Z</time>
      </trkpt>
      <trkpt lat="45.91682" lon="6.50837">
        <ele>2234.24</ele>
        <time>2019-04-25T09:13:47Z</time>
      </trkpt>
      <trkpt lat="45.91688" lon="6.50844">
        <ele>2237.61</ele>
        <time>2019-04-25T09:14:05Z</time>
      </trkpt>
      <trkpt lat="45.9168" lon="6.50854">
        <ele>2238.57</ele>
        <time>2019-04-25T09:14:20Z</time>
      </trkpt>
      <trkpt lat="45.91673" lon="6.50865">
        <ele>2241.45</ele>
        <time>2019-04-25T09:14:35Z</time>
      </trkpt>
      <trkpt lat="45.9167" lon="6.50871">
        <ele>2244.82</ele>
        <time>2019-04-25T09:14:46Z</time>
      </trkpt>
      <trkpt lat="45.91673" lon="6.5087">
        <ele>2244.82</ele>
        <time>2019-04-25T09:14:49Z</time>
      </trkpt>
      <trkpt lat="45.91674" lon="6.50871">
        <ele>2244.82</ele>
        <time>2019-04-25T09:14:50Z</time>
      </trkpt>
      <trkpt lat="45.91684" lon="6.5087">
        <ele>2248.18</ele>
        <time>2019-04-25T09:15:05Z</time>
      </trkpt>
      <trkpt lat="45.91685" lon="6.50872">
        <ele>2248.66</ele>
        <time>2019-04-25T09:15:11Z</time>
      </trkpt>
      <trkpt lat="45.9168" lon="6.50877">
        <ele>2249.14</ele>
        <time>2019-04-25T09:15:20Z</time>
      </trkpt>
      <trkpt lat="45.91671" lon="6.50888">
        <ele>2252.03</ele>
        <time>2019-04-25T09:15:36Z</time>
      </trkpt>
      <trkpt lat="45.91662" lon="6.50895">
        <ele>2255.39</ele>
        <time>2019-04-25T09:15:49Z</time>
      </trkpt>
      <trkpt lat="45.91655" lon="6.50901">
        <ele>2258.27</ele>
        <time>2019-04-25T09:16:04Z</time>
      </trkpt>
      <trkpt lat="45.91661" lon="6.50904">
        <ele>2259.24</ele>
        <time>2019-04-25T09:17:01Z</time>
      </trkpt>
      <trkpt lat="45.91661" lon="6.50904">
        <ele>2256.35</ele>
        <time>2019-04-25T09:18:42Z</time>
      </trkpt>
      <trkpt lat="45.9166" lon="6.50904">
        <ele>2259.24</ele>
        <time>2019-04-25T09:19:58Z</time>
      </trkpt>
      <trkpt lat="45.91661" lon="6.50903">
        <ele>2256.35</ele>
        <time>2019-04-25T09:20:02Z</time>
      </trkpt>
      <trkpt lat="45.91661" lon="6.50903">
        <ele>2259.24</ele>
        <time>2019-04-25T09:20:04Z</time>
      </trkpt>
      <trkpt lat="45.91661" lon="6.50903">
        <ele>2260.2</ele>
        <time>2019-04-25T09:20:06Z</time>
      </trkpt>
      <trkpt lat="45.91661" lon="6.50903">
        <ele>2256.83</ele>
        <time>2019-04-25T09:20:10Z</time>
      </trkpt>
      <trkpt lat="45.91661" lon="6.50903">
        <ele>2256.83</ele>
        <time>2019-04-25T09:20:11Z</time>
      </trkpt>
      <trkpt lat="45.91658" lon="6.50901">
        <ele>2257.79</ele>
        <time>2019-04-25T09:20:25Z</time>
      </trkpt>
      <trkpt lat="45.91657" lon="6.50902">
        <ele>2260.2</ele>
        <time>2019-04-25T09:20:37Z</time>
      </trkpt>
      <trkpt lat="45.91658" lon="6.50903">
        <ele>2256.83</ele>
        <time>2019-04-25T09:20:52Z</time>
      </trkpt>
      <trkpt lat="45.91659" lon="6.50903">
        <ele>2258.75</ele>
        <time>2019-04-25T09:20:55Z</time>
      </trkpt>
      <trkpt lat="45.9166" lon="6.50905">
        <ele>2256.83</ele>
        <time>2019-04-25T09:21:13Z</time>
      </trkpt>
      <trkpt lat="45.9166" lon="6.50904">
        <ele>2259.24</ele>
        <time>2019-04-25T09:21:19Z</time>
      </trkpt>
      <trkpt lat="45.91663" lon="6.50907">
        <ele>2256.83</ele>
        <time>2019-04-25T09:21:59Z</time>
      </trkpt>
      <trkpt lat="45.91663" lon="6.50907">
        <ele>2257.79</ele>
        <time>2019-04-25T09:22:01Z</time>
      </trkpt>
      <trkpt lat="45.91662" lon="6.50906">
        <ele>2256.35</ele>
        <time>2019-04-25T09:22:36Z</time>
      </trkpt>
      <trkpt lat="45.91655" lon="6.50911">
        <ele>2256.83</ele>
        <time>2019-04-25T09:23:32Z</time>
      </trkpt>
      <trkpt lat="45.91653" lon="6.50914">
        <ele>2258.75</ele>
        <time>2019-04-25T09:23:46Z</time>
      </trkpt>
      <trkpt lat="45.91653" lon="6.50917">
        <ele>2261.16</ele>
        <time>2019-04-25T09:23:59Z</time>
      </trkpt>
      <trkpt lat="45.91656" lon="6.50922">
        <ele>2264.52</ele>
        <time>2019-04-25T09:24:12Z</time>
      </trkpt>
      <trkpt lat="45.91657" lon="6.50928">
        <ele>2267.41</ele>
        <time>2019-04-25T09:24:30Z</time>
      </trkpt>
      <trkpt lat="45.91656" lon="6.50935">
        <ele>2270.77</ele>
        <time>2019-04-25T09:24:47Z</time>
      </trkpt>
      <trkpt lat="45.91654" lon="6.50941">
        <ele>2274.14</ele>
        <time>2019-04-25T09:25:03Z</time>
      </trkpt>
      <trkpt lat="45.91651" lon="6.50945">
        <ele>2277.02</ele>
        <time>2019-04-25T09:25:14Z</time>
      </trkpt>
      <trkpt lat="45.9165" lon="6.50949">
        <ele>2280.38</ele>
        <time>2019-04-25T09:25:30Z</time>
      </trkpt>
      <trkpt lat="45.91653" lon="6.50957">
        <ele>2283.27</ele>
        <time>2019-04-25T09:25:43Z</time>
      </trkpt>
      <trkpt lat="45.91656" lon="6.50963">
        <ele>2285.19</ele>
        <time>2019-04-25T09:25:55Z</time>
      </trkpt>
      <trkpt lat="45.91657" lon="6.50968">
        <ele>2288.56</ele>
        <time>2019-04-25T09:26:08Z</time>
      </trkpt>
      <trkpt lat="45.91659" lon="6.50975">
        <ele>2291.92</ele>
        <time>2019-04-25T09:26:28Z</time>
      </trkpt>
      <trkpt lat="45.91663" lon="6.50978">
        <ele>2294.8</ele>
        <time>2019-04-25T09:26:42Z</time>
      </trkpt>
      <trkpt lat="45.91664" lon="6.50983">
        <ele>2298.17</ele>
        <time>2019-04-25T09:26:55Z</time>
      </trkpt>
      <trkpt lat="45.91664" lon="6.50989">
        <ele>2301.53</ele>
        <time>2019-04-25T09:27:09Z</time>
      </trkpt>
      <trkpt lat="45.91665" lon="6.50995">
        <ele>2304.42</ele>
        <time>2019-04-25T09:27:24Z</time>
      </trkpt>
      <trkpt lat="45.91668" lon="6.51001">
        <ele>2307.3</ele>
        <time>2019-04-25T09:27:54Z</time>
      </trkpt>
      <trkpt lat="45.9167" lon="6.51003">
        <ele>2310.67</ele>
        <time>2019-04-25T09:28:03Z</time>
      </trkpt>
      <trkpt lat="45.91672" lon="6.51008">
        <ele>2314.03</ele>
        <time>2019-04-25T09:28:17Z</time>
      </trkpt>
      <trkpt lat="45.91671" lon="6.51012">
        <ele>2316.91</ele>
        <time>2019-04-25T09:28:33Z</time>
      </trkpt>
      <trkpt lat="45.91673" lon="6.51017">
        <ele>2319.8</ele>
        <time>2019-04-25T09:29:04Z</time>
      </trkpt>
      <trkpt lat="45.91673" lon="6.51022">
        <ele>2323.16</ele>
        <time>2019-04-25T09:29:27Z</time>
      </trkpt>
      <trkpt lat="45.91675" lon="6.51026">
        <ele>2326.05</ele>
        <time>2019-04-25T09:29:46Z</time>
      </trkpt>
      <trkpt lat="45.91675" lon="6.51029">
        <ele>2329.41</ele>
        <time>2019-04-25T09:30:02Z</time>
      </trkpt>
      <trkpt lat="45.91675" lon="6.51033">
        <ele>2332.78</ele>
        <time>2019-04-25T09:30:18Z</time>
      </trkpt>
      <trkpt lat="45.91675" lon="6.51044">
        <ele>2335.66</ele>
        <time>2019-04-25T09:30:41Z</time>
      </trkpt>
      <trkpt lat="45.91674" lon="6.51047">
        <ele>2339.02</ele>
        <time>2019-04-25T09:31:04Z</time>
      </trkpt>
      <trkpt lat="45.91676" lon="6.51057">
        <ele>2341.91</ele>
        <time>2019-04-25T09:31:23Z</time>
      </trkpt>
      <trkpt lat="45.91677" lon="6.51062">
        <ele>2344.79</ele>
        <time>2019-04-25T09:31:43Z</time>
      </trkpt>
      <trkpt lat="45.91677" lon="6.51065">
        <ele>2348.16</ele>
        <time>2019-04-25T09:31:54Z</time>
      </trkpt>
      <trkpt lat="45.91676" lon="6.51065">
        <ele>2351.52</ele>
        <time>2019-04-25T09:32:05Z</time>
      </trkpt>
      <trkpt lat="45.91676" lon="6.5107">
        <ele>2353.93</ele>
        <time>2019-04-25T09:32:25Z</time>
      </trkpt>
      <trkpt lat="45.91676" lon="6.51078">
        <ele>2357.29</ele>
        <time>2019-04-25T09:32:46Z</time>
      </trkpt>
      <trkpt lat="45.91676" lon="6.51081">
        <ele>2359.21</ele>
        <time>2019-04-25T09:33:06Z</time>
      </trkpt>
      <trkpt lat="45.91676" lon="6.51083">
        <ele>2360.17</ele>
        <time>2019-04-25T09:33:11Z</time>
      </trkpt>
      <trkpt lat="45.91675" lon="6.51083">
        <ele>2363.06</ele>
        <time>2019-04-25T09:33:44Z</time>
      </trkpt>
      <trkpt lat="45.91676" lon="6.51088">
        <ele>2366.42</ele>
        <time>2019-04-25T09:34:05Z</time>
      </trkpt>
      <trkpt lat="45.91679" lon="6.51092">
        <ele>2369.31</ele>
        <time>2019-04-25T09:34:27Z</time>
      </trkpt>
      <trkpt lat="45.91683" lon="6.51096">
        <ele>2372.19</ele>
        <time>2019-04-25T09:34:55Z</time>
      </trkpt>
      <trkpt lat="45.91685" lon="6.51103">
        <ele>2375.55</ele>
        <time>2019-04-25T09:35:13Z</time>
      </trkpt>
      <trkpt lat="45.91688" lon="6.51105">
        <ele>2377.48</ele>
        <time>2019-04-25T09:35:21Z</time>
      </trkpt>
      <trkpt lat="45.91692" lon="6.51105">
        <ele>2380.84</ele>
        <time>2019-04-25T09:35:48Z</time>
      </trkpt>
      <trkpt lat="45.91694" lon="6.51109">
        <ele>2383.73</ele>
        <time>2019-04-25T09:36:11Z</time>
      </trkpt>
      <trkpt lat="45.91695" lon="6.51112">
        <ele>2387.09</ele>
        <time>2019-04-25T09:36:30Z</time>
      </trkpt>
      <trkpt lat="45.91696" lon="6.51117">
        <ele>2389.97</ele>
        <time>2019-04-25T09:36:47Z</time>
      </trkpt>
      <trkpt lat="45.91697" lon="6.51124">
        <ele>2392.38</ele>
        <time>2019-04-25T09:37:05Z</time>
      </trkpt>
      <trkpt lat="45.91693" lon="6.51129">
        <ele>2395.26</ele>
        <time>2019-04-25T09:37:24Z</time>
      </trkpt>
      <trkpt lat="45.91692" lon="6.5113">
        <ele>2398.15</ele>
        <time>2019-04-25T09:37:36Z</time>
      </trkpt>
      <trkpt lat="45.91692" lon="6.51132">
        <ele>2401.51</ele>
        <time>2019-04-25T09:37:45Z</time>
      </trkpt>
      <trkpt lat="45.91691" lon="6.51134">
        <ele>2404.39</ele>
        <time>2019-04-25T09:37:54Z</time>
      </trkpt>
      <trkpt lat="45.91688" lon="6.51135">
        <ele>2407.76</ele>
        <time>2019-04-25T09:38:06Z</time>
      </trkpt>
      <trkpt lat="45.91686" lon="6.51135">
        <ele>2411.12</ele>
        <time>2019-04-25T09:38:14Z</time>
      </trkpt>
      <trkpt lat="45.91683" lon="6.51139">
        <ele>2414.49</ele>
        <time>2019-04-25T09:38:34Z</time>
      </trkpt>
      <trkpt lat="45.91683" lon="6.51139">
        <ele>2414.97</ele>
        <time>2019-04-25T09:38:35Z</time>
      </trkpt>
      <trkpt lat="45.91683" lon="6.5114">
        <ele>2418.81</ele>
        <time>2019-04-25T09:38:38Z</time>
      </trkpt>
      <trkpt lat="45.91683" lon="6.51141">
        <ele>2420.26</ele>
        <time>2019-04-25T09:38:41Z</time>
      </trkpt>
      <trkpt lat="45.91678" lon="6.51148">
        <ele>2417.37</ele>
        <time>2019-04-25T09:39:05Z</time>
      </trkpt>
      <trkpt lat="45.9167" lon="6.51159">
        <ele>2420.74</ele>
        <time>2019-04-25T09:39:58Z</time>
      </trkpt>
      <trkpt lat="45.91671" lon="6.51162">
        <ele>2423.62</ele>
        <time>2019-04-25T09:40:09Z</time>
      </trkpt>
      <trkpt lat="45.91669" lon="6.51158">
        <ele>2426.99</ele>
        <time>2019-04-25T09:40:55Z</time>
      </trkpt>
      <trkpt lat="45.91669" lon="6.51173">
        <ele>2429.87</ele>
        <time>2019-04-25T09:41:32Z</time>
      </trkpt>
      <trkpt lat="45.91667" lon="6.5117">
        <ele>2427.47</ele>
        <time>2019-04-25T09:42:53Z</time>
      </trkpt>
      <trkpt lat="45.91669" lon="6.5117">
        <ele>2430.83</ele>
        <time>2019-04-25T09:44:20Z</time>
      </trkpt>
      <trkpt lat="45.91668" lon="6.51172">
        <ele>2431.31</ele>
        <time>2019-04-25T09:45:02Z</time>
      </trkpt>
      <trkpt lat="45.91669" lon="6.51174">
        <ele>2431.79</ele>
        <time>2019-04-25T09:45:30Z</time>
      </trkpt>
      <trkpt lat="45.91674" lon="6.51181">
        <ele>2431.31</ele>
        <time>2019-04-25T09:46:23Z</time>
      </trkpt>
      <trkpt lat="45.91675" lon="6.51182">
        <ele>2431.79</ele>
        <time>2019-04-25T09:46:24Z</time>
      </trkpt>
      <trkpt lat="45.91677" lon="6.51184">
        <ele>2431.79</ele>
        <time>2019-04-25T09:46:27Z</time>
      </trkpt>
      <trkpt lat="45.91678" lon="6.51185">
        <ele>2431.79</ele>
        <time>2019-04-25T09:46:28Z</time>
      </trkpt>
      <trkpt lat="45.91672" lon="6.51175">
        <ele>2429.39</ele>
        <time>2019-04-25T09:47:30Z</time>
      </trkpt>
      <trkpt lat="45.9167" lon="6.5117">
        <ele>2428.43</ele>
        <time>2019-04-25T09:47:50Z</time>
      </trkpt>
      <trkpt lat="45.91672" lon="6.51171">
        <ele>2428.91</ele>
        <time>2019-04-25T09:48:12Z</time>
      </trkpt>
      <trkpt lat="45.91668" lon="6.51169">
        <ele>2428.91</ele>
        <time>2019-04-25T09:50:18Z</time>
      </trkpt>
      <trkpt lat="45.91668" lon="6.51171">
        <ele>2426.99</ele>
        <time>2019-04-25T09:51:52Z</time>
      </trkpt>
      <trkpt lat="45.91666" lon="6.5117">
        <ele>2430.35</ele>
        <time>2019-04-25T09:53:02Z</time>
      </trkpt>
      <trkpt lat="45.91668" lon="6.5117">
        <ele>2427.47</ele>
        <time>2019-04-25T09:54:18Z</time>
      </trkpt>
      <trkpt lat="45.91669" lon="6.51169">
        <ele>2426.99</ele>
        <time>2019-04-25T09:57:32Z</time>
      </trkpt>
      <trkpt lat="45.91666" lon="6.51171">
        <ele>2429.39</ele>
        <time>2019-04-25T09:58:11Z</time>
      </trkpt>
      <trkpt lat="45.91668" lon="6.5117">
        <ele>2432.75</ele>
        <time>2019-04-25T09:58:42Z</time>
      </trkpt>
      <trkpt lat="45.91667" lon="6.51171">
        <ele>2429.39</ele>
        <time>2019-04-25T10:00:02Z</time>
      </trkpt>
      <trkpt lat="45.91665" lon="6.51168">
        <ele>2428.91</ele>
        <time>2019-04-25T10:00:34Z</time>
      </trkpt>
      <trkpt lat="45.91665" lon="6.51165">
        <ele>2428.43</ele>
        <time>2019-04-25T10:00:35Z</time>
      </trkpt>
      <trkpt lat="45.91665" lon="6.51163">
        <ele>2427.47</ele>
        <time>2019-04-25T10:00:36Z</time>
      </trkpt>
      <trkpt lat="45.91665" lon="6.51161">
        <ele>2426.5</ele>
        <time>2019-04-25T10:00:37Z</time>
      </trkpt>
      <trkpt lat="45.91665" lon="6.51159">
        <ele>2426.02</ele>
        <time>2019-04-25T10:00:38Z</time>
      </trkpt>
      <trkpt lat="45.91664" lon="6.51157">
        <ele>2425.06</ele>
        <time>2019-04-25T10:00:39Z</time>
      </trkpt>
      <trkpt lat="45.91664" lon="6.51154">
        <ele>2424.1</ele>
        <time>2019-04-25T10:00:40Z</time>
      </trkpt>
      <trkpt lat="45.91666" lon="6.51146">
        <ele>2420.74</ele>
        <time>2019-04-25T10:00:44Z</time>
      </trkpt>
      <trkpt lat="45.91668" lon="6.51139">
        <ele>2417.37</ele>
        <time>2019-04-25T10:00:48Z</time>
      </trkpt>
      <trkpt lat="45.91668" lon="6.51136">
        <ele>2416.41</ele>
        <time>2019-04-25T10:00:49Z</time>
      </trkpt>
      <trkpt lat="45.9167" lon="6.51135">
        <ele>2415.45</ele>
        <time>2019-04-25T10:00:50Z</time>
      </trkpt>
      <trkpt lat="45.91671" lon="6.51134">
        <ele>2414.01</ele>
        <time>2019-04-25T10:00:51Z</time>
      </trkpt>
      <trkpt lat="45.91671" lon="6.51134">
        <ele>2413.53</ele>
        <time>2019-04-25T10:00:52Z</time>
      </trkpt>
      <trkpt lat="45.91671" lon="6.51131">
        <ele>2412.57</ele>
        <time>2019-04-25T10:00:57Z</time>
      </trkpt>
      <trkpt lat="45.91671" lon="6.5113">
        <ele>2412.09</ele>
        <time>2019-04-25T10:00:58Z</time>
      </trkpt>
      <trkpt lat="45.91671" lon="6.51127">
        <ele>2411.6</ele>
        <time>2019-04-25T10:00:59Z</time>
      </trkpt>
      <trkpt lat="45.91672" lon="6.51126">
        <ele>2410.16</ele>
        <time>2019-04-25T10:01:00Z</time>
      </trkpt>
      <trkpt lat="45.91674" lon="6.51126">
        <ele>2409.68</ele>
        <time>2019-04-25T10:01:01Z</time>
      </trkpt>
      <trkpt lat="45.91675" lon="6.51126">
        <ele>2409.2</ele>
        <time>2019-04-25T10:01:02Z</time>
      </trkpt>
      <trkpt lat="45.91675" lon="6.51122">
        <ele>2408.24</ele>
        <time>2019-04-25T10:01:07Z</time>
      </trkpt>
      <trkpt lat="45.91675" lon="6.51118">
        <ele>2406.8</ele>
        <time>2019-04-25T10:01:09Z</time>
      </trkpt>
      <trkpt lat="45.91677" lon="6.51116">
        <ele>2405.84</ele>
        <time>2019-04-25T10:01:10Z</time>
      </trkpt>
      <trkpt lat="45.91678" lon="6.51115">
        <ele>2404.88</ele>
        <time>2019-04-25T10:01:11Z</time>
      </trkpt>
      <trkpt lat="45.91681" lon="6.51115">
        <ele>2403.43</ele>
        <time>2019-04-25T10:01:14Z</time>
      </trkpt>
      <trkpt lat="45.91682" lon="6.51114">
        <ele>2402.95</ele>
        <time>2019-04-25T10:01:16Z</time>
      </trkpt>
      <trkpt lat="45.91682" lon="6.51112">
        <ele>2401.99</ele>
        <time>2019-04-25T10:01:17Z</time>
      </trkpt>
      <trkpt lat="45.91681" lon="6.51111">
        <ele>2401.51</ele>
        <time>2019-04-25T10:01:18Z</time>
      </trkpt>
      <trkpt lat="45.91683" lon="6.51105">
        <ele>2401.03</ele>
        <time>2019-04-25T10:01:21Z</time>
      </trkpt>
      <trkpt lat="45.91684" lon="6.51103">
        <ele>2397.67</ele>
        <time>2019-04-25T10:01:24Z</time>
      </trkpt>
      <trkpt lat="45.91683" lon="6.51101">
        <ele>2397.18</ele>
        <time>2019-04-25T10:01:25Z</time>
      </trkpt>
      <trkpt lat="45.91683" lon="6.511">
        <ele>2395.74</ele>
        <time>2019-04-25T10:01:26Z</time>
      </trkpt>
      <trkpt lat="45.91682" lon="6.51097">
        <ele>2394.78</ele>
        <time>2019-04-25T10:01:27Z</time>
      </trkpt>
      <trkpt lat="45.91683" lon="6.51096">
        <ele>2393.82</ele>
        <time>2019-04-25T10:01:28Z</time>
      </trkpt>
      <trkpt lat="45.91685" lon="6.51096">
        <ele>2390.46</ele>
        <time>2019-04-25T10:01:34Z</time>
      </trkpt>
      <trkpt lat="45.91684" lon="6.51093">
        <ele>2389.97</ele>
        <time>2019-04-25T10:01:37Z</time>
      </trkpt>
      <trkpt lat="45.91685" lon="6.51089">
        <ele>2388.53</ele>
        <time>2019-04-25T10:01:40Z</time>
      </trkpt>
      <trkpt lat="45.91687" lon="6.51084">
        <ele>2385.17</ele>
        <time>2019-04-25T10:01:48Z</time>
      </trkpt>
      <trkpt lat="45.91685" lon="6.51083">
        <ele>2384.69</ele>
        <time>2019-04-25T10:01:49Z</time>
      </trkpt>
      <trkpt lat="45.91684" lon="6.51079">
        <ele>2382.28</ele>
        <time>2019-04-25T10:01:52Z</time>
      </trkpt>
      <trkpt lat="45.91684" lon="6.51077">
        <ele>2381.8</ele>
        <time>2019-04-25T10:01:53Z</time>
      </trkpt>
      <trkpt lat="45.91683" lon="6.51074">
        <ele>2380.36</ele>
        <time>2019-04-25T10:01:55Z</time>
      </trkpt>
      <trkpt lat="45.91681" lon="6.51073">
        <ele>2378.92</ele>
        <time>2019-04-25T10:01:56Z</time>
      </trkpt>
      <trkpt lat="45.9168" lon="6.51071">
        <ele>2377.48</ele>
        <time>2019-04-25T10:01:58Z</time>
      </trkpt>
      <trkpt lat="45.9168" lon="6.51069">
        <ele>2376.52</ele>
        <time>2019-04-25T10:01:59Z</time>
      </trkpt>
      <trkpt lat="45.91679" lon="6.51067">
        <ele>2375.55</ele>
        <time>2019-04-25T10:02:00Z</time>
      </trkpt>
      <trkpt lat="45.91679" lon="6.51067">
        <ele>2374.59</ele>
        <time>2019-04-25T10:02:01Z</time>
      </trkpt>
      <trkpt lat="45.91677" lon="6.51068">
        <ele>2372.67</ele>
        <time>2019-04-25T10:02:04Z</time>
      </trkpt>
      <trkpt lat="45.91676" lon="6.51069">
        <ele>2369.79</ele>
        <time>2019-04-25T10:02:18Z</time>
      </trkpt>
      <trkpt lat="45.91677" lon="6.51064">
        <ele>2367.38</ele>
        <time>2019-04-25T10:02:26Z</time>
      </trkpt>
      <trkpt lat="45.9168" lon="6.51061">
        <ele>2366.42</ele>
        <time>2019-04-25T10:02:36Z</time>
      </trkpt>
      <trkpt lat="45.91681" lon="6.51059">
        <ele>2366.42</ele>
        <time>2019-04-25T10:02:38Z</time>
      </trkpt>
      <trkpt lat="45.91683" lon="6.51053">
        <ele>2364.5</ele>
        <time>2019-04-25T10:02:47Z</time>
      </trkpt>
      <trkpt lat="45.91683" lon="6.51051">
        <ele>2363.54</ele>
        <time>2019-04-25T10:02:54Z</time>
      </trkpt>
      <trkpt lat="45.91682" lon="6.5105">
        <ele>2363.06</ele>
        <time>2019-04-25T10:02:59Z</time>
      </trkpt>
      <trkpt lat="45.91678" lon="6.51044">
        <ele>2360.17</ele>
        <time>2019-04-25T10:03:19Z</time>
      </trkpt>
      <trkpt lat="45.91679" lon="6.51041">
        <ele>2358.25</ele>
        <time>2019-04-25T10:03:25Z</time>
      </trkpt>
      <trkpt lat="45.91678" lon="6.51036">
        <ele>2356.33</ele>
        <time>2019-04-25T10:03:35Z</time>
      </trkpt>
      <trkpt lat="45.91673" lon="6.51031">
        <ele>2353.44</ele>
        <time>2019-04-25T10:03:41Z</time>
      </trkpt>
      <trkpt lat="45.91672" lon="6.51031">
        <ele>2352.96</ele>
        <time>2019-04-25T10:03:42Z</time>
      </trkpt>
      <trkpt lat="45.9167" lon="6.5103">
        <ele>2352</ele>
        <time>2019-04-25T10:03:43Z</time>
      </trkpt>
      <trkpt lat="45.91669" lon="6.5103">
        <ele>2351.52</ele>
        <time>2019-04-25T10:03:44Z</time>
      </trkpt>
      <trkpt lat="45.91667" lon="6.5103">
        <ele>2351.52</ele>
        <time>2019-04-25T10:03:45Z</time>
      </trkpt>
      <trkpt lat="45.91666" lon="6.51029">
        <ele>2351.04</ele>
        <time>2019-04-25T10:03:46Z</time>
      </trkpt>
      <trkpt lat="45.91664" lon="6.51029">
        <ele>2350.56</ele>
        <time>2019-04-25T10:03:47Z</time>
      </trkpt>
      <trkpt lat="45.91663" lon="6.51029">
        <ele>2350.08</ele>
        <time>2019-04-25T10:03:48Z</time>
      </trkpt>
      <trkpt lat="45.91661" lon="6.5103">
        <ele>2349.6</ele>
        <time>2019-04-25T10:03:49Z</time>
      </trkpt>
      <trkpt lat="45.91659" lon="6.5103">
        <ele>2349.12</ele>
        <time>2019-04-25T10:03:50Z</time>
      </trkpt>
      <trkpt lat="45.91658" lon="6.51031">
        <ele>2348.64</ele>
        <time>2019-04-25T10:03:51Z</time>
      </trkpt>
      <trkpt lat="45.91659" lon="6.5103">
        <ele>2348.64</ele>
        <time>2019-04-25T10:03:52Z</time>
      </trkpt>
      <trkpt lat="45.9166" lon="6.51028">
        <ele>2348.16</ele>
        <time>2019-04-25T10:03:53Z</time>
      </trkpt>
      <trkpt lat="45.91662" lon="6.51026">
        <ele>2347.2</ele>
        <time>2019-04-25T10:03:54Z</time>
      </trkpt>
      <trkpt lat="45.91663" lon="6.51025">
        <ele>2346.72</ele>
        <time>2019-04-25T10:03:55Z</time>
      </trkpt>
      <trkpt lat="45.91663" lon="6.51022">
        <ele>2345.75</ele>
        <time>2019-04-25T10:03:56Z</time>
      </trkpt>
      <trkpt lat="45.91662" lon="6.5102">
        <ele>2344.79</ele>
        <time>2019-04-25T10:03:57Z</time>
      </trkpt>
      <trkpt lat="45.91662" lon="6.51018">
        <ele>2343.83</ele>
        <time>2019-04-25T10:03:58Z</time>
      </trkpt>
      <trkpt lat="45.91663" lon="6.51015">
        <ele>2342.39</ele>
        <time>2019-04-25T10:03:59Z</time>
      </trkpt>
      <trkpt lat="45.91665" lon="6.51013">
        <ele>2341.43</ele>
        <time>2019-04-25T10:04:00Z</time>
      </trkpt>
      <trkpt lat="45.91665" lon="6.51011">
        <ele>2339.51</ele>
        <time>2019-04-25T10:04:03Z</time>
      </trkpt>
      <trkpt lat="45.91665" lon="6.5101">
        <ele>2339.02</ele>
        <time>2019-04-25T10:04:04Z</time>
      </trkpt>
      <trkpt lat="45.91665" lon="6.51007">
        <ele>2338.54</ele>
        <time>2019-04-25T10:04:05Z</time>
      </trkpt>
      <trkpt lat="45.91667" lon="6.51006">
        <ele>2337.58</ele>
        <time>2019-04-25T10:04:06Z</time>
      </trkpt>
      <trkpt lat="45.91668" lon="6.51006">
        <ele>2336.62</ele>
        <time>2019-04-25T10:04:07Z</time>
      </trkpt>
      <trkpt lat="45.91668" lon="6.51009">
        <ele>2334.7</ele>
        <time>2019-04-25T10:04:10Z</time>
      </trkpt>
      <trkpt lat="45.91668" lon="6.51011">
        <ele>2334.22</ele>
        <time>2019-04-25T10:04:21Z</time>
      </trkpt>
      <trkpt lat="45.91667" lon="6.5101">
        <ele>2333.74</ele>
        <time>2019-04-25T10:04:22Z</time>
      </trkpt>
      <trkpt lat="45.91667" lon="6.51008">
        <ele>2333.26</ele>
        <time>2019-04-25T10:04:23Z</time>
      </trkpt>
      <trkpt lat="45.91669" lon="6.51006">
        <ele>2332.3</ele>
        <time>2019-04-25T10:04:24Z</time>
      </trkpt>
      <trkpt lat="45.9167" lon="6.51006">
        <ele>2331.33</ele>
        <time>2019-04-25T10:04:25Z</time>
      </trkpt>
      <trkpt lat="45.91671" lon="6.51005">
        <ele>2330.37</ele>
        <time>2019-04-25T10:04:27Z</time>
      </trkpt>
      <trkpt lat="45.91673" lon="6.51004">
        <ele>2330.37</ele>
        <time>2019-04-25T10:04:28Z</time>
      </trkpt>
      <trkpt lat="45.91673" lon="6.51003">
        <ele>2330.37</ele>
        <time>2019-04-25T10:04:29Z</time>
      </trkpt>
      <trkpt lat="45.91673" lon="6.51002">
        <ele>2327.01</ele>
        <time>2019-04-25T10:04:44Z</time>
      </trkpt>
      <trkpt lat="45.91672" lon="6.50998">
        <ele>2324.12</ele>
        <time>2019-04-25T10:04:50Z</time>
      </trkpt>
      <trkpt lat="45.91667" lon="6.50996">
        <ele>2321.24</ele>
        <time>2019-04-25T10:05:00Z</time>
      </trkpt>
      <trkpt lat="45.91666" lon="6.50996">
        <ele>2320.76</ele>
        <time>2019-04-25T10:05:03Z</time>
      </trkpt>
      <trkpt lat="45.91665" lon="6.50996">
        <ele>2318.84</ele>
        <time>2019-04-25T10:05:12Z</time>
      </trkpt>
      <trkpt lat="45.91663" lon="6.50996">
        <ele>2318.84</ele>
        <time>2019-04-25T10:05:13Z</time>
      </trkpt>
      <trkpt lat="45.91661" lon="6.50995">
        <ele>2318.84</ele>
        <time>2019-04-25T10:05:14Z</time>
      </trkpt>
      <trkpt lat="45.91651" lon="6.50993">
        <ele>2316.43</ele>
        <time>2019-04-25T10:05:18Z</time>
      </trkpt>
      <trkpt lat="45.91651" lon="6.50991">
        <ele>2316.43</ele>
        <time>2019-04-25T10:05:19Z</time>
      </trkpt>
      <trkpt lat="45.91652" lon="6.50988">
        <ele>2315.95</ele>
        <time>2019-04-25T10:05:20Z</time>
      </trkpt>
      <trkpt lat="45.91653" lon="6.50987">
        <ele>2314.99</ele>
        <time>2019-04-25T10:05:21Z</time>
      </trkpt>
      <trkpt lat="45.91654" lon="6.50985">
        <ele>2314.03</ele>
        <time>2019-04-25T10:05:22Z</time>
      </trkpt>
      <trkpt lat="45.91655" lon="6.50983">
        <ele>2313.55</ele>
        <time>2019-04-25T10:05:23Z</time>
      </trkpt>
      <trkpt lat="45.91657" lon="6.50981">
        <ele>2312.11</ele>
        <time>2019-04-25T10:05:24Z</time>
      </trkpt>
      <trkpt lat="45.91658" lon="6.5098">
        <ele>2310.67</ele>
        <time>2019-04-25T10:05:25Z</time>
      </trkpt>
      <trkpt lat="45.91659" lon="6.50979">
        <ele>2309.22</ele>
        <time>2019-04-25T10:05:26Z</time>
      </trkpt>
      <trkpt lat="45.9166" lon="6.50977">
        <ele>2308.26</ele>
        <time>2019-04-25T10:05:27Z</time>
      </trkpt>
      <trkpt lat="45.9166" lon="6.50974">
        <ele>2306.82</ele>
        <time>2019-04-25T10:05:28Z</time>
      </trkpt>
      <trkpt lat="45.91662" lon="6.50974">
        <ele>2303.94</ele>
        <time>2019-04-25T10:05:31Z</time>
      </trkpt>
      <trkpt lat="45.91662" lon="6.50973">
        <ele>2303.46</ele>
        <time>2019-04-25T10:05:32Z</time>
      </trkpt>
      <trkpt lat="45.91664" lon="6.50973">
        <ele>2303.46</ele>
        <time>2019-04-25T10:05:34Z</time>
      </trkpt>
      <trkpt lat="45.91665" lon="6.50972">
        <ele>2302.98</ele>
        <time>2019-04-25T10:05:35Z</time>
      </trkpt>
      <trkpt lat="45.91666" lon="6.50967">
        <ele>2302.01</ele>
        <time>2019-04-25T10:05:38Z</time>
      </trkpt>
      <trkpt lat="45.91665" lon="6.50965">
        <ele>2301.05</ele>
        <time>2019-04-25T10:05:40Z</time>
      </trkpt>
      <trkpt lat="45.91665" lon="6.50963">
        <ele>2299.61</ele>
        <time>2019-04-25T10:05:41Z</time>
      </trkpt>
      <trkpt lat="45.9166" lon="6.50958">
        <ele>2297.69</ele>
        <time>2019-04-25T10:06:02Z</time>
      </trkpt>
      <trkpt lat="45.91659" lon="6.50958">
        <ele>2297.21</ele>
        <time>2019-04-25T10:06:03Z</time>
      </trkpt>
      <trkpt lat="45.91657" lon="6.50957">
        <ele>2295.77</ele>
        <time>2019-04-25T10:06:06Z</time>
      </trkpt>
      <trkpt lat="45.91658" lon="6.50954">
        <ele>2295.77</ele>
        <time>2019-04-25T10:06:07Z</time>
      </trkpt>
      <trkpt lat="45.91658" lon="6.50954">
        <ele>2295.28</ele>
        <time>2019-04-25T10:06:08Z</time>
      </trkpt>
      <trkpt lat="45.91656" lon="6.50951">
        <ele>2294.8</ele>
        <time>2019-04-25T10:06:09Z</time>
      </trkpt>
      <trkpt lat="45.91656" lon="6.50949">
        <ele>2293.36</ele>
        <time>2019-04-25T10:06:10Z</time>
      </trkpt>
      <trkpt lat="45.91655" lon="6.50948">
        <ele>2292.4</ele>
        <time>2019-04-25T10:06:11Z</time>
      </trkpt>
      <trkpt lat="45.91653" lon="6.50943">
        <ele>2291.44</ele>
        <time>2019-04-25T10:06:13Z</time>
      </trkpt>
      <trkpt lat="45.91652" lon="6.50941">
        <ele>2290.48</ele>
        <time>2019-04-25T10:06:14Z</time>
      </trkpt>
      <trkpt lat="45.91651" lon="6.50939">
        <ele>2289.52</ele>
        <time>2019-04-25T10:06:15Z</time>
      </trkpt>
      <trkpt lat="45.9165" lon="6.50935">
        <ele>2288.08</ele>
        <time>2019-04-25T10:06:16Z</time>
      </trkpt>
      <trkpt lat="45.9165" lon="6.50933">
        <ele>2286.63</ele>
        <time>2019-04-25T10:06:17Z</time>
      </trkpt>
      <trkpt lat="45.91648" lon="6.5093">
        <ele>2284.71</ele>
        <time>2019-04-25T10:06:19Z</time>
      </trkpt>
      <trkpt lat="45.91647" lon="6.50927">
        <ele>2283.27</ele>
        <time>2019-04-25T10:06:21Z</time>
      </trkpt>
      <trkpt lat="45.91648" lon="6.50926">
        <ele>2281.83</ele>
        <time>2019-04-25T10:06:22Z</time>
      </trkpt>
      <trkpt lat="45.9165" lon="6.50921">
        <ele>2278.94</ele>
        <time>2019-04-25T10:06:25Z</time>
      </trkpt>
      <trkpt lat="45.9165" lon="6.50917">
        <ele>2277.5</ele>
        <time>2019-04-25T10:06:26Z</time>
      </trkpt>
      <trkpt lat="45.91652" lon="6.50912">
        <ele>2275.1</ele>
        <time>2019-04-25T10:06:28Z</time>
      </trkpt>
      <trkpt lat="45.91653" lon="6.50911">
        <ele>2273.66</ele>
        <time>2019-04-25T10:06:29Z</time>
      </trkpt>
      <trkpt lat="45.91654" lon="6.5091">
        <ele>2273.17</ele>
        <time>2019-04-25T10:06:30Z</time>
      </trkpt>
      <trkpt lat="45.91654" lon="6.50908">
        <ele>2272.69</ele>
        <time>2019-04-25T10:06:31Z</time>
      </trkpt>
      <trkpt lat="45.91653" lon="6.50905">
        <ele>2272.21</ele>
        <time>2019-04-25T10:06:32Z</time>
      </trkpt>
      <trkpt lat="45.91653" lon="6.50902">
        <ele>2270.77</ele>
        <time>2019-04-25T10:06:33Z</time>
      </trkpt>
      <trkpt lat="45.91653" lon="6.509">
        <ele>2268.37</ele>
        <time>2019-04-25T10:06:34Z</time>
      </trkpt>
      <trkpt lat="45.91653" lon="6.50899">
        <ele>2267.41</ele>
        <time>2019-04-25T10:06:35Z</time>
      </trkpt>
      <trkpt lat="45.91653" lon="6.50898">
        <ele>2266.45</ele>
        <time>2019-04-25T10:06:36Z</time>
      </trkpt>
      <trkpt lat="45.91653" lon="6.50898">
        <ele>2265.48</ele>
        <time>2019-04-25T10:06:37Z</time>
      </trkpt>
      <trkpt lat="45.9165" lon="6.509">
        <ele>2264.04</ele>
        <time>2019-04-25T10:06:40Z</time>
      </trkpt>
      <trkpt lat="45.91648" lon="6.509">
        <ele>2264.04</ele>
        <time>2019-04-25T10:06:41Z</time>
      </trkpt>
      <trkpt lat="45.91646" lon="6.509">
        <ele>2264.04</ele>
        <time>2019-04-25T10:06:42Z</time>
      </trkpt>
      <trkpt lat="45.91645" lon="6.50901">
        <ele>2263.56</ele>
        <time>2019-04-25T10:06:43Z</time>
      </trkpt>
      <trkpt lat="45.91643" lon="6.50902">
        <ele>2263.08</ele>
        <time>2019-04-25T10:06:44Z</time>
      </trkpt>
      <trkpt lat="45.91641" lon="6.50903">
        <ele>2263.08</ele>
        <time>2019-04-25T10:06:45Z</time>
      </trkpt>
      <trkpt lat="45.91638" lon="6.50906">
        <ele>2262.12</ele>
        <time>2019-04-25T10:06:47Z</time>
      </trkpt>
      <trkpt lat="45.9164" lon="6.5091">
        <ele>2260.2</ele>
        <time>2019-04-25T10:08:15Z</time>
      </trkpt>
      <trkpt lat="45.9164" lon="6.50911">
        <ele>2261.64</ele>
        <time>2019-04-25T10:08:39Z</time>
      </trkpt>
      <trkpt lat="45.91634" lon="6.50916">
        <ele>2261.64</ele>
        <time>2019-04-25T10:09:03Z</time>
      </trkpt>
      <trkpt lat="45.91632" lon="6.50915">
        <ele>2261.16</ele>
        <time>2019-04-25T10:09:04Z</time>
      </trkpt>
      <trkpt lat="45.91631" lon="6.50911">
        <ele>2259.24</ele>
        <time>2019-04-25T10:09:05Z</time>
      </trkpt>
      <trkpt lat="45.9163" lon="6.50905">
        <ele>2257.79</ele>
        <time>2019-04-25T10:09:06Z</time>
      </trkpt>
      <trkpt lat="45.91626" lon="6.50901">
        <ele>2255.87</ele>
        <time>2019-04-25T10:09:07Z</time>
      </trkpt>
      <trkpt lat="45.91623" lon="6.50896">
        <ele>2254.43</ele>
        <time>2019-04-25T10:09:08Z</time>
      </trkpt>
      <trkpt lat="45.91621" lon="6.5089">
        <ele>2252.03</ele>
        <time>2019-04-25T10:09:09Z</time>
      </trkpt>
      <trkpt lat="45.91619" lon="6.50883">
        <ele>2249.14</ele>
        <time>2019-04-25T10:09:10Z</time>
      </trkpt>
      <trkpt lat="45.91617" lon="6.50878">
        <ele>2246.74</ele>
        <time>2019-04-25T10:09:11Z</time>
      </trkpt>
      <trkpt lat="45.91617" lon="6.50873">
        <ele>2245.3</ele>
        <time>2019-04-25T10:09:12Z</time>
      </trkpt>
      <trkpt lat="45.91616" lon="6.50866">
        <ele>2240.97</ele>
        <time>2019-04-25T10:09:13Z</time>
      </trkpt>
      <trkpt lat="45.91614" lon="6.50859">
        <ele>2237.61</ele>
        <time>2019-04-25T10:09:14Z</time>
      </trkpt>
      <trkpt lat="45.91612" lon="6.50851">
        <ele>2235.2</ele>
        <time>2019-04-25T10:09:15Z</time>
      </trkpt>
      <trkpt lat="45.91612" lon="6.50844">
        <ele>2230.88</ele>
        <time>2019-04-25T10:09:16Z</time>
      </trkpt>
      <trkpt lat="45.91611" lon="6.50837">
        <ele>2227.99</ele>
        <time>2019-04-25T10:09:17Z</time>
      </trkpt>
      <trkpt lat="45.9161" lon="6.5083">
        <ele>2226.55</ele>
        <time>2019-04-25T10:09:18Z</time>
      </trkpt>
      <trkpt lat="45.91607" lon="6.50825">
        <ele>2223.67</ele>
        <time>2019-04-25T10:09:19Z</time>
      </trkpt>
      <trkpt lat="45.91604" lon="6.50818">
        <ele>2219.34</ele>
        <time>2019-04-25T10:09:20Z</time>
      </trkpt>
      <trkpt lat="45.91602" lon="6.50811">
        <ele>2215.5</ele>
        <time>2019-04-25T10:09:21Z</time>
      </trkpt>
      <trkpt lat="45.91599" lon="6.50804">
        <ele>2211.17</ele>
        <time>2019-04-25T10:09:22Z</time>
      </trkpt>
      <trkpt lat="45.91597" lon="6.50796">
        <ele>2207.32</ele>
        <time>2019-04-25T10:09:23Z</time>
      </trkpt>
      <trkpt lat="45.91595" lon="6.50789">
        <ele>2203.96</ele>
        <time>2019-04-25T10:09:24Z</time>
      </trkpt>
      <trkpt lat="45.91592" lon="6.50781">
        <ele>2201.08</ele>
        <time>2019-04-25T10:09:25Z</time>
      </trkpt>
      <trkpt lat="45.91587" lon="6.50767">
        <ele>2194.35</ele>
        <time>2019-04-25T10:09:27Z</time>
      </trkpt>
      <trkpt lat="45.91583" lon="6.50756">
        <ele>2190.98</ele>
        <time>2019-04-25T10:09:28Z</time>
      </trkpt>
      <trkpt lat="45.9158" lon="6.50748">
        <ele>2188.1</ele>
        <time>2019-04-25T10:09:29Z</time>
      </trkpt>
      <trkpt lat="45.91576" lon="6.50745">
        <ele>2186.18</ele>
        <time>2019-04-25T10:09:30Z</time>
      </trkpt>
      <trkpt lat="45.91568" lon="6.50748">
        <ele>2182.81</ele>
        <time>2019-04-25T10:09:31Z</time>
      </trkpt>
      <trkpt lat="45.91562" lon="6.50752">
        <ele>2180.41</ele>
        <time>2019-04-25T10:09:32Z</time>
      </trkpt>
      <trkpt lat="45.91548" lon="6.50755">
        <ele>2178</ele>
        <time>2019-04-25T10:09:34Z</time>
      </trkpt>
      <trkpt lat="45.91533" lon="6.50753">
        <ele>2176.56</ele>
        <time>2019-04-25T10:09:36Z</time>
      </trkpt>
      <trkpt lat="45.91527" lon="6.50743">
        <ele>2172.72</ele>
        <time>2019-04-25T10:09:38Z</time>
      </trkpt>
      <trkpt lat="45.91525" lon="6.50735">
        <ele>2171.76</ele>
        <time>2019-04-25T10:09:39Z</time>
      </trkpt>
      <trkpt lat="45.91522" lon="6.50726">
        <ele>2169.35</ele>
        <time>2019-04-25T10:09:40Z</time>
      </trkpt>
      <trkpt lat="45.91521" lon="6.50713">
        <ele>2165.03</ele>
        <time>2019-04-25T10:09:41Z</time>
      </trkpt>
      <trkpt lat="45.91521" lon="6.50703">
        <ele>2162.14</ele>
        <time>2019-04-25T10:09:42Z</time>
      </trkpt>
      <trkpt lat="45.91519" lon="6.50691">
        <ele>2158.78</ele>
        <time>2019-04-25T10:09:43Z</time>
      </trkpt>
      <trkpt lat="45.91518" lon="6.50677">
        <ele>2153.97</ele>
        <time>2019-04-25T10:09:44Z</time>
      </trkpt>
      <trkpt lat="45.91519" lon="6.50664">
        <ele>2146.76</ele>
        <time>2019-04-25T10:09:45Z</time>
      </trkpt>
      <trkpt lat="45.91524" lon="6.50648">
        <ele>2142.44</ele>
        <time>2019-04-25T10:09:46Z</time>
      </trkpt>
      <trkpt lat="45.91526" lon="6.50634">
        <ele>2140.51</ele>
        <time>2019-04-25T10:09:47Z</time>
      </trkpt>
      <trkpt lat="45.91523" lon="6.50623">
        <ele>2137.15</ele>
        <time>2019-04-25T10:09:48Z</time>
      </trkpt>
      <trkpt lat="45.9152" lon="6.50611">
        <ele>2132.82</ele>
        <time>2019-04-25T10:09:49Z</time>
      </trkpt>
      <trkpt lat="45.91522" lon="6.50597">
        <ele>2129.46</ele>
        <time>2019-04-25T10:09:50Z</time>
      </trkpt>
      <trkpt lat="45.91525" lon="6.50582">
        <ele>2125.13</ele>
        <time>2019-04-25T10:09:51Z</time>
      </trkpt>
      <trkpt lat="45.91529" lon="6.50567">
        <ele>2124.65</ele>
        <time>2019-04-25T10:09:52Z</time>
      </trkpt>
      <trkpt lat="45.9153" lon="6.5055">
        <ele>2124.17</ele>
        <time>2019-04-25T10:09:53Z</time>
      </trkpt>
      <trkpt lat="45.91528" lon="6.50536">
        <ele>2123.21</ele>
        <time>2019-04-25T10:09:54Z</time>
      </trkpt>
      <trkpt lat="45.91526" lon="6.50525">
        <ele>2123.21</ele>
        <time>2019-04-25T10:09:55Z</time>
      </trkpt>
      <trkpt lat="45.91524" lon="6.50516">
        <ele>2123.21</ele>
        <time>2019-04-25T10:09:56Z</time>
      </trkpt>
      <trkpt lat="45.91518" lon="6.50493">
        <ele>2122.73</ele>
        <time>2019-04-25T10:09:59Z</time>
      </trkpt>
      <trkpt lat="45.91508" lon="6.50471">
        <ele>2118.88</ele>
        <time>2019-04-25T10:10:02Z</time>
      </trkpt>
      <trkpt lat="45.91505" lon="6.50465">
        <ele>2118.4</ele>
        <time>2019-04-25T10:10:03Z</time>
      </trkpt>
      <trkpt lat="45.91502" lon="6.50461">
        <ele>2118.88</ele>
        <time>2019-04-25T10:10:04Z</time>
      </trkpt>
      <trkpt lat="45.915" lon="6.50458">
        <ele>2118.88</ele>
        <time>2019-04-25T10:10:05Z</time>
      </trkpt>
      <trkpt lat="45.9149" lon="6.50451">
        <ele>2116</ele>
        <time>2019-04-25T10:10:09Z</time>
      </trkpt>
      <trkpt lat="45.9149" lon="6.50446">
        <ele>2114.56</ele>
        <time>2019-04-25T10:10:10Z</time>
      </trkpt>
      <trkpt lat="45.91493" lon="6.50442">
        <ele>2112.63</ele>
        <time>2019-04-25T10:10:11Z</time>
      </trkpt>
      <trkpt lat="45.91498" lon="6.50434">
        <ele>2107.83</ele>
        <time>2019-04-25T10:10:13Z</time>
      </trkpt>
      <trkpt lat="45.91497" lon="6.50428">
        <ele>2104.94</ele>
        <time>2019-04-25T10:10:14Z</time>
      </trkpt>
      <trkpt lat="45.91497" lon="6.50421">
        <ele>2101.58</ele>
        <time>2019-04-25T10:10:15Z</time>
      </trkpt>
      <trkpt lat="45.91501" lon="6.50416">
        <ele>2099.18</ele>
        <time>2019-04-25T10:10:16Z</time>
      </trkpt>
      <trkpt lat="45.91506" lon="6.50411">
        <ele>2096.29</ele>
        <time>2019-04-25T10:10:17Z</time>
      </trkpt>
      <trkpt lat="45.91509" lon="6.50407">
        <ele>2093.89</ele>
        <time>2019-04-25T10:10:18Z</time>
      </trkpt>
      <trkpt lat="45.91509" lon="6.504">
        <ele>2090.52</ele>
        <time>2019-04-25T10:10:19Z</time>
      </trkpt>
      <trkpt lat="45.9151" lon="6.50392">
        <ele>2086.68</ele>
        <time>2019-04-25T10:10:20Z</time>
      </trkpt>
      <trkpt lat="45.91514" lon="6.50388">
        <ele>2083.79</ele>
        <time>2019-04-25T10:10:21Z</time>
      </trkpt>
      <trkpt lat="45.9152" lon="6.50386">
        <ele>2081.39</ele>
        <time>2019-04-25T10:10:22Z</time>
      </trkpt>
      <trkpt lat="45.91525" lon="6.50384">
        <ele>2080.43</ele>
        <time>2019-04-25T10:10:23Z</time>
      </trkpt>
      <trkpt lat="45.91529" lon="6.50382">
        <ele>2078.03</ele>
        <time>2019-04-25T10:10:24Z</time>
      </trkpt>
      <trkpt lat="45.91529" lon="6.50376">
        <ele>2076.59</ele>
        <time>2019-04-25T10:10:25Z</time>
      </trkpt>
      <trkpt lat="45.91532" lon="6.50367">
        <ele>2074.18</ele>
        <time>2019-04-25T10:10:26Z</time>
      </trkpt>
      <trkpt lat="45.91536" lon="6.50359">
        <ele>2071.78</ele>
        <time>2019-04-25T10:10:27Z</time>
      </trkpt>
      <trkpt lat="45.9154" lon="6.50348">
        <ele>2069.38</ele>
        <time>2019-04-25T10:10:28Z</time>
      </trkpt>
      <trkpt lat="45.91537" lon="6.50337">
        <ele>2066.97</ele>
        <time>2019-04-25T10:10:29Z</time>
      </trkpt>
      <trkpt lat="45.91536" lon="6.50324">
        <ele>2063.61</ele>
        <time>2019-04-25T10:10:30Z</time>
      </trkpt>
      <trkpt lat="45.91538" lon="6.50312">
        <ele>2058.8</ele>
        <time>2019-04-25T10:10:31Z</time>
      </trkpt>
      <trkpt lat="45.91541" lon="6.50301">
        <ele>2055.92</ele>
        <time>2019-04-25T10:10:32Z</time>
      </trkpt>
      <trkpt lat="45.9154" lon="6.50291">
        <ele>2053.99</ele>
        <time>2019-04-25T10:10:33Z</time>
      </trkpt>
      <trkpt lat="45.91536" lon="6.50281">
        <ele>2052.55</ele>
        <time>2019-04-25T10:10:34Z</time>
      </trkpt>
      <trkpt lat="45.91534" lon="6.50273">
        <ele>2050.15</ele>
        <time>2019-04-25T10:10:35Z</time>
      </trkpt>
      <trkpt lat="45.91533" lon="6.50265">
        <ele>2047.75</ele>
        <time>2019-04-25T10:10:36Z</time>
      </trkpt>
      <trkpt lat="45.91532" lon="6.50256">
        <ele>2044.86</ele>
        <time>2019-04-25T10:10:37Z</time>
      </trkpt>
      <trkpt lat="45.91533" lon="6.50245">
        <ele>2041.5</ele>
        <time>2019-04-25T10:10:38Z</time>
      </trkpt>
      <trkpt lat="45.91534" lon="6.5023">
        <ele>2040.05</ele>
        <time>2019-04-25T10:10:39Z</time>
      </trkpt>
      <trkpt lat="45.91534" lon="6.50215">
        <ele>2033.33</ele>
        <time>2019-04-25T10:10:40Z</time>
      </trkpt>
      <trkpt lat="45.91537" lon="6.50202">
        <ele>2029.48</ele>
        <time>2019-04-25T10:10:41Z</time>
      </trkpt>
      <trkpt lat="45.91537" lon="6.50191">
        <ele>2029</ele>
        <time>2019-04-25T10:10:42Z</time>
      </trkpt>
      <trkpt lat="45.91538" lon="6.5018">
        <ele>2028.04</ele>
        <time>2019-04-25T10:10:43Z</time>
      </trkpt>
      <trkpt lat="45.91537" lon="6.50169">
        <ele>2026.6</ele>
        <time>2019-04-25T10:10:44Z</time>
      </trkpt>
      <trkpt lat="45.91537" lon="6.50157">
        <ele>2024.19</ele>
        <time>2019-04-25T10:10:45Z</time>
      </trkpt>
      <trkpt lat="45.91539" lon="6.50146">
        <ele>2021.31</ele>
        <time>2019-04-25T10:10:46Z</time>
      </trkpt>
      <trkpt lat="45.9154" lon="6.50134">
        <ele>2019.87</ele>
        <time>2019-04-25T10:10:47Z</time>
      </trkpt>
      <trkpt lat="45.91542" lon="6.50122">
        <ele>2017.46</ele>
        <time>2019-04-25T10:10:48Z</time>
      </trkpt>
      <trkpt lat="45.91543" lon="6.5011">
        <ele>2014.58</ele>
        <time>2019-04-25T10:10:49Z</time>
      </trkpt>
      <trkpt lat="45.91548" lon="6.50086">
        <ele>2009.29</ele>
        <time>2019-04-25T10:10:51Z</time>
      </trkpt>
      <trkpt lat="45.91545" lon="6.50075">
        <ele>2006.89</ele>
        <time>2019-04-25T10:10:52Z</time>
      </trkpt>
      <trkpt lat="45.91544" lon="6.50064">
        <ele>2002.08</ele>
        <time>2019-04-25T10:10:53Z</time>
      </trkpt>
      <trkpt lat="45.91548" lon="6.50055">
        <ele>1996.8</ele>
        <time>2019-04-25T10:10:54Z</time>
      </trkpt>
      <trkpt lat="45.91553" lon="6.50045">
        <ele>1994.39</ele>
        <time>2019-04-25T10:10:55Z</time>
      </trkpt>
      <trkpt lat="45.91555" lon="6.50034">
        <ele>1994.87</ele>
        <time>2019-04-25T10:10:56Z</time>
      </trkpt>
      <trkpt lat="45.91555" lon="6.50023">
        <ele>1996.32</ele>
        <time>2019-04-25T10:10:57Z</time>
      </trkpt>
      <trkpt lat="45.91554" lon="6.50011">
        <ele>1994.39</ele>
        <time>2019-04-25T10:10:58Z</time>
      </trkpt>
      <trkpt lat="45.91556" lon="6.50004">
        <ele>1991.03</ele>
        <time>2019-04-25T10:10:59Z</time>
      </trkpt>
      <trkpt lat="45.9156" lon="6.50004">
        <ele>1988.62</ele>
        <time>2019-04-25T10:11:00Z</time>
      </trkpt>
      <trkpt lat="45.91563" lon="6.50002">
        <ele>1987.18</ele>
        <time>2019-04-25T10:11:01Z</time>
      </trkpt>
      <trkpt lat="45.91565" lon="6.5">
        <ele>1987.18</ele>
        <time>2019-04-25T10:11:02Z</time>
      </trkpt>
      <trkpt lat="45.91566" lon="6.5">
        <ele>1987.18</ele>
        <time>2019-04-25T10:11:03Z</time>
      </trkpt>
      <trkpt lat="45.91567" lon="6.5">
        <ele>1987.18</ele>
        <time>2019-04-25T10:11:04Z</time>
      </trkpt>
      <trkpt lat="45.91567" lon="6.50006">
        <ele>1988.62</ele>
        <time>2019-04-25T10:11:08Z</time>
      </trkpt>
      <trkpt lat="45.91568" lon="6.50005">
        <ele>1989.1</ele>
        <time>2019-04-25T10:11:10Z</time>
      </trkpt>
      <trkpt lat="45.91567" lon="6.50002">
        <ele>1988.62</ele>
        <time>2019-04-25T10:11:11Z</time>
      </trkpt>
      <trkpt lat="45.91566" lon="6.49997">
        <ele>1988.62</ele>
        <time>2019-04-25T10:11:12Z</time>
      </trkpt>
      <trkpt lat="45.91569" lon="6.49994">
        <ele>1985.74</ele>
        <time>2019-04-25T10:11:13Z</time>
      </trkpt>
      <trkpt lat="45.91574" lon="6.49989">
        <ele>1982.38</ele>
        <time>2019-04-25T10:11:14Z</time>
      </trkpt>
      <trkpt lat="45.91579" lon="6.49984">
        <ele>1980.45</ele>
        <time>2019-04-25T10:11:15Z</time>
      </trkpt>
      <trkpt lat="45.91589" lon="6.49975">
        <ele>1977.57</ele>
        <time>2019-04-25T10:11:17Z</time>
      </trkpt>
      <trkpt lat="45.91592" lon="6.49969">
        <ele>1975.17</ele>
        <time>2019-04-25T10:11:18Z</time>
      </trkpt>
      <trkpt lat="45.91596" lon="6.49963">
        <ele>1972.76</ele>
        <time>2019-04-25T10:11:19Z</time>
      </trkpt>
      <trkpt lat="45.91602" lon="6.49959">
        <ele>1968.92</ele>
        <time>2019-04-25T10:11:20Z</time>
      </trkpt>
      <trkpt lat="45.91606" lon="6.49953">
        <ele>1964.59</ele>
        <time>2019-04-25T10:11:21Z</time>
      </trkpt>
      <trkpt lat="45.91611" lon="6.49947">
        <ele>1961.23</ele>
        <time>2019-04-25T10:11:22Z</time>
      </trkpt>
      <trkpt lat="45.91617" lon="6.49942">
        <ele>1959.78</ele>
        <time>2019-04-25T10:11:23Z</time>
      </trkpt>
      <trkpt lat="45.91621" lon="6.49936">
        <ele>1956.9</ele>
        <time>2019-04-25T10:11:24Z</time>
      </trkpt>
      <trkpt lat="45.91626" lon="6.49933">
        <ele>1953.54</ele>
        <time>2019-04-25T10:11:25Z</time>
      </trkpt>
      <trkpt lat="45.9163" lon="6.49929">
        <ele>1950.65</ele>
        <time>2019-04-25T10:11:26Z</time>
      </trkpt>
      <trkpt lat="45.91633" lon="6.49924">
        <ele>1948.73</ele>
        <time>2019-04-25T10:11:27Z</time>
      </trkpt>
      <trkpt lat="45.91636" lon="6.4992">
        <ele>1945.85</ele>
        <time>2019-04-25T10:11:28Z</time>
      </trkpt>
      <trkpt lat="45.9164" lon="6.49917">
        <ele>1943.92</ele>
        <time>2019-04-25T10:11:29Z</time>
      </trkpt>
      <trkpt lat="45.91642" lon="6.49912">
        <ele>1942.48</ele>
        <time>2019-04-25T10:11:30Z</time>
      </trkpt>
      <trkpt lat="45.91645" lon="6.49908">
        <ele>1939.6</ele>
        <time>2019-04-25T10:11:31Z</time>
      </trkpt>
      <trkpt lat="45.91651" lon="6.49908">
        <ele>1937.19</ele>
        <time>2019-04-25T10:11:32Z</time>
      </trkpt>
      <trkpt lat="45.91656" lon="6.49907">
        <ele>1935.27</ele>
        <time>2019-04-25T10:11:33Z</time>
      </trkpt>
      <trkpt lat="45.91659" lon="6.49903">
        <ele>1933.83</ele>
        <time>2019-04-25T10:11:34Z</time>
      </trkpt>
      <trkpt lat="45.91668" lon="6.49897">
        <ele>1928.06</ele>
        <time>2019-04-25T10:11:36Z</time>
      </trkpt>
      <trkpt lat="45.91673" lon="6.49896">
        <ele>1927.1</ele>
        <time>2019-04-25T10:11:37Z</time>
      </trkpt>
      <trkpt lat="45.91676" lon="6.49891">
        <ele>1925.66</ele>
        <time>2019-04-25T10:11:38Z</time>
      </trkpt>
      <trkpt lat="45.91684" lon="6.49891">
        <ele>1923.25</ele>
        <time>2019-04-25T10:11:39Z</time>
      </trkpt>
      <trkpt lat="45.9169" lon="6.4989">
        <ele>1920.85</ele>
        <time>2019-04-25T10:11:40Z</time>
      </trkpt>
      <trkpt lat="45.91695" lon="6.49886">
        <ele>1918.45</ele>
        <time>2019-04-25T10:11:41Z</time>
      </trkpt>
      <trkpt lat="45.917" lon="6.49882">
        <ele>1916.04</ele>
        <time>2019-04-25T10:11:42Z</time>
      </trkpt>
      <trkpt lat="45.91706" lon="6.49877">
        <ele>1914.12</ele>
        <time>2019-04-25T10:11:43Z</time>
      </trkpt>
      <trkpt lat="45.91711" lon="6.49871">
        <ele>1911.72</ele>
        <time>2019-04-25T10:11:44Z</time>
      </trkpt>
      <trkpt lat="45.91715" lon="6.49862">
        <ele>1908.83</ele>
        <time>2019-04-25T10:11:45Z</time>
      </trkpt>
      <trkpt lat="45.91722" lon="6.49858">
        <ele>1905.95</ele>
        <time>2019-04-25T10:11:46Z</time>
      </trkpt>
      <trkpt lat="45.91728" lon="6.49852">
        <ele>1903.55</ele>
        <time>2019-04-25T10:11:47Z</time>
      </trkpt>
      <trkpt lat="45.91734" lon="6.49847">
        <ele>1902.59</ele>
        <time>2019-04-25T10:11:48Z</time>
      </trkpt>
      <trkpt lat="45.91742" lon="6.49843">
        <ele>1899.7</ele>
        <time>2019-04-25T10:11:49Z</time>
      </trkpt>
      <trkpt lat="45.91748" lon="6.49839">
        <ele>1896.82</ele>
        <time>2019-04-25T10:11:50Z</time>
      </trkpt>
      <trkpt lat="45.91762" lon="6.49818">
        <ele>1893.93</ele>
        <time>2019-04-25T10:11:53Z</time>
      </trkpt>
      <trkpt lat="45.91755" lon="6.49806">
        <ele>1891.53</ele>
        <time>2019-04-25T10:11:54Z</time>
      </trkpt>
      <trkpt lat="45.91749" lon="6.49795">
        <ele>1886.24</ele>
        <time>2019-04-25T10:11:55Z</time>
      </trkpt>
      <trkpt lat="45.91743" lon="6.49788">
        <ele>1882.88</ele>
        <time>2019-04-25T10:11:56Z</time>
      </trkpt>
      <trkpt lat="45.91737" lon="6.49779">
        <ele>1878.55</ele>
        <time>2019-04-25T10:11:57Z</time>
      </trkpt>
      <trkpt lat="45.91732" lon="6.49772">
        <ele>1876.15</ele>
        <time>2019-04-25T10:11:58Z</time>
      </trkpt>
      <trkpt lat="45.91732" lon="6.4977">
        <ele>1873.27</ele>
        <time>2019-04-25T10:11:59Z</time>
      </trkpt>
      <trkpt lat="45.91731" lon="6.49768">
        <ele>1870.86</ele>
        <time>2019-04-25T10:12:00Z</time>
      </trkpt>
      <trkpt lat="45.91731" lon="6.49766">
        <ele>1869.42</ele>
        <time>2019-04-25T10:12:01Z</time>
      </trkpt>
      <trkpt lat="45.9173" lon="6.49761">
        <ele>1867.98</ele>
        <time>2019-04-25T10:12:02Z</time>
      </trkpt>
      <trkpt lat="45.91729" lon="6.49757">
        <ele>1865.58</ele>
        <time>2019-04-25T10:12:03Z</time>
      </trkpt>
      <trkpt lat="45.91731" lon="6.49754">
        <ele>1863.17</ele>
        <time>2019-04-25T10:12:04Z</time>
      </trkpt>
      <trkpt lat="45.91733" lon="6.49751">
        <ele>1861.73</ele>
        <time>2019-04-25T10:12:05Z</time>
      </trkpt>
      <trkpt lat="45.91736" lon="6.49745">
        <ele>1859.33</ele>
        <time>2019-04-25T10:12:06Z</time>
      </trkpt>
      <trkpt lat="45.91737" lon="6.49742">
        <ele>1856.92</ele>
        <time>2019-04-25T10:12:07Z</time>
      </trkpt>
      <trkpt lat="45.91739" lon="6.4974">
        <ele>1854.04</ele>
        <time>2019-04-25T10:12:08Z</time>
      </trkpt>
      <trkpt lat="45.91741" lon="6.49738">
        <ele>1851.64</ele>
        <time>2019-04-25T10:12:09Z</time>
      </trkpt>
      <trkpt lat="45.91744" lon="6.49736">
        <ele>1849.71</ele>
        <time>2019-04-25T10:12:10Z</time>
      </trkpt>
      <trkpt lat="45.91746" lon="6.49728">
        <ele>1848.75</ele>
        <time>2019-04-25T10:12:11Z</time>
      </trkpt>
      <trkpt lat="45.91747" lon="6.49726">
        <ele>1844.43</ele>
        <time>2019-04-25T10:12:12Z</time>
      </trkpt>
      <trkpt lat="45.9175" lon="6.49726">
        <ele>1840.1</ele>
        <time>2019-04-25T10:12:13Z</time>
      </trkpt>
      <trkpt lat="45.91751" lon="6.49727">
        <ele>1838.18</ele>
        <time>2019-04-25T10:12:14Z</time>
      </trkpt>
      <trkpt lat="45.9175" lon="6.49728">
        <ele>1838.18</ele>
        <time>2019-04-25T10:12:15Z</time>
      </trkpt>
      <trkpt lat="45.91751" lon="6.49725">
        <ele>1838.18</ele>
        <time>2019-04-25T10:12:18Z</time>
      </trkpt>
      <trkpt lat="45.9175" lon="6.49725">
        <ele>1838.18</ele>
        <time>2019-04-25T10:12:19Z</time>
      </trkpt>
      <trkpt lat="45.91749" lon="6.49726">
        <ele>1838.66</ele>
        <time>2019-04-25T10:12:23Z</time>
      </trkpt>
      <trkpt lat="45.91751" lon="6.49726">
        <ele>1838.18</ele>
        <time>2019-04-25T10:12:24Z</time>
      </trkpt>
      <trkpt lat="45.91754" lon="6.49725">
        <ele>1837.7</ele>
        <time>2019-04-25T10:12:25Z</time>
      </trkpt>
      <trkpt lat="45.91758" lon="6.49721">
        <ele>1837.7</ele>
        <time>2019-04-25T10:12:26Z</time>
      </trkpt>
      <trkpt lat="45.91763" lon="6.49716">
        <ele>1835.29</ele>
        <time>2019-04-25T10:12:27Z</time>
      </trkpt>
      <trkpt lat="45.91768" lon="6.49713">
        <ele>1832.41</ele>
        <time>2019-04-25T10:12:28Z</time>
      </trkpt>
      <trkpt lat="45.91773" lon="6.4971">
        <ele>1829.05</ele>
        <time>2019-04-25T10:12:29Z</time>
      </trkpt>
      <trkpt lat="45.91776" lon="6.49706">
        <ele>1826.64</ele>
        <time>2019-04-25T10:12:30Z</time>
      </trkpt>
      <trkpt lat="45.9178" lon="6.49704">
        <ele>1824.24</ele>
        <time>2019-04-25T10:12:31Z</time>
      </trkpt>
      <trkpt lat="45.91784" lon="6.49703">
        <ele>1822.32</ele>
        <time>2019-04-25T10:12:32Z</time>
      </trkpt>
      <trkpt lat="45.91786" lon="6.49699">
        <ele>1820.87</ele>
        <time>2019-04-25T10:12:33Z</time>
      </trkpt>
      <trkpt lat="45.91789" lon="6.49696">
        <ele>1817.03</ele>
        <time>2019-04-25T10:12:34Z</time>
      </trkpt>
      <trkpt lat="45.91793" lon="6.49695">
        <ele>1814.63</ele>
        <time>2019-04-25T10:12:35Z</time>
      </trkpt>
      <trkpt lat="45.91796" lon="6.49692">
        <ele>1813.18</ele>
        <time>2019-04-25T10:12:36Z</time>
      </trkpt>
      <trkpt lat="45.91799" lon="6.49689">
        <ele>1811.26</ele>
        <time>2019-04-25T10:12:37Z</time>
      </trkpt>
      <trkpt lat="45.91804" lon="6.49687">
        <ele>1808.86</ele>
        <time>2019-04-25T10:12:38Z</time>
      </trkpt>
      <trkpt lat="45.91807" lon="6.49686">
        <ele>1804.05</ele>
        <time>2019-04-25T10:12:39Z</time>
      </trkpt>
      <trkpt lat="45.91809" lon="6.49682">
        <ele>1801.65</ele>
        <time>2019-04-25T10:12:40Z</time>
      </trkpt>
      <trkpt lat="45.91812" lon="6.4968">
        <ele>1799.73</ele>
        <time>2019-04-25T10:12:41Z</time>
      </trkpt>
      <trkpt lat="45.91815" lon="6.49679">
        <ele>1797.32</ele>
        <time>2019-04-25T10:12:42Z</time>
      </trkpt>
      <trkpt lat="45.91817" lon="6.49678">
        <ele>1795.4</ele>
        <time>2019-04-25T10:12:43Z</time>
      </trkpt>
      <trkpt lat="45.91821" lon="6.49677">
        <ele>1792.52</ele>
        <time>2019-04-25T10:12:44Z</time>
      </trkpt>
      <trkpt lat="45.91824" lon="6.49676">
        <ele>1790.59</ele>
        <time>2019-04-25T10:12:45Z</time>
      </trkpt>
      <trkpt lat="45.91824" lon="6.49673">
        <ele>1788.19</ele>
        <time>2019-04-25T10:12:46Z</time>
      </trkpt>
      <trkpt lat="45.91828" lon="6.4967">
        <ele>1786.27</ele>
        <time>2019-04-25T10:12:47Z</time>
      </trkpt>
      <trkpt lat="45.91829" lon="6.49669">
        <ele>1785.79</ele>
        <time>2019-04-25T10:12:48Z</time>
      </trkpt>
      <trkpt lat="45.91829" lon="6.49667">
        <ele>1784.82</ele>
        <time>2019-04-25T10:12:49Z</time>
      </trkpt>
      <trkpt lat="45.91831" lon="6.49665">
        <ele>1783.86</ele>
        <time>2019-04-25T10:12:50Z</time>
      </trkpt>
      <trkpt lat="45.91831" lon="6.49664">
        <ele>1782.42</ele>
        <time>2019-04-25T10:12:51Z</time>
      </trkpt>
      <trkpt lat="45.91832" lon="6.49663">
        <ele>1781.94</ele>
        <time>2019-04-25T10:12:52Z</time>
      </trkpt>
      <trkpt lat="45.91832" lon="6.49661">
        <ele>1780.98</ele>
        <time>2019-04-25T10:12:53Z</time>
      </trkpt>
      <trkpt lat="45.91834" lon="6.49658">
        <ele>1780.5</ele>
        <time>2019-04-25T10:12:54Z</time>
      </trkpt>
      <trkpt lat="45.91835" lon="6.49658">
        <ele>1779.54</ele>
        <time>2019-04-25T10:12:55Z</time>
      </trkpt>
      <trkpt lat="45.91834" lon="6.49659">
        <ele>1776.17</ele>
        <time>2019-04-25T10:13:05Z</time>
      </trkpt>
      <trkpt lat="45.91837" lon="6.49658">
        <ele>1774.73</ele>
        <time>2019-04-25T10:13:07Z</time>
      </trkpt>
      <trkpt lat="45.91837" lon="6.49655">
        <ele>1774.25</ele>
        <time>2019-04-25T10:13:08Z</time>
      </trkpt>
      <trkpt lat="45.91836" lon="6.49652">
        <ele>1773.77</ele>
        <time>2019-04-25T10:13:09Z</time>
      </trkpt>
      <trkpt lat="45.91835" lon="6.49635">
        <ele>1770.41</ele>
        <time>2019-04-25T10:13:15Z</time>
      </trkpt>
      <trkpt lat="45.91836" lon="6.49629">
        <ele>1769.44</ele>
        <time>2019-04-25T10:13:16Z</time>
      </trkpt>
      <trkpt lat="45.91837" lon="6.49624">
        <ele>1768.48</ele>
        <time>2019-04-25T10:13:17Z</time>
      </trkpt>
      <trkpt lat="45.9184" lon="6.49622">
        <ele>1764.64</ele>
        <time>2019-04-25T10:13:18Z</time>
      </trkpt>
      <trkpt lat="45.91843" lon="6.49623">
        <ele>1762.71</ele>
        <time>2019-04-25T10:13:19Z</time>
      </trkpt>
      <trkpt lat="45.91844" lon="6.49625">
        <ele>1761.27</ele>
        <time>2019-04-25T10:13:20Z</time>
      </trkpt>
      <trkpt lat="45.91847" lon="6.49624">
        <ele>1759.83</ele>
        <time>2019-04-25T10:13:21Z</time>
      </trkpt>
      <trkpt lat="45.91849" lon="6.49621">
        <ele>1757.43</ele>
        <time>2019-04-25T10:13:22Z</time>
      </trkpt>
      <trkpt lat="45.91852" lon="6.4962">
        <ele>1755.99</ele>
        <time>2019-04-25T10:13:23Z</time>
      </trkpt>
      <trkpt lat="45.91855" lon="6.4962">
        <ele>1755.02</ele>
        <time>2019-04-25T10:13:24Z</time>
      </trkpt>
      <trkpt lat="45.91858" lon="6.49619">
        <ele>1753.58</ele>
        <time>2019-04-25T10:13:25Z</time>
      </trkpt>
      <trkpt lat="45.91861" lon="6.49613">
        <ele>1749.26</ele>
        <time>2019-04-25T10:13:26Z</time>
      </trkpt>
      <trkpt lat="45.91864" lon="6.49611">
        <ele>1746.37</ele>
        <time>2019-04-25T10:13:27Z</time>
      </trkpt>
      <trkpt lat="45.91868" lon="6.49611">
        <ele>1745.41</ele>
        <time>2019-04-25T10:13:28Z</time>
      </trkpt>
      <trkpt lat="45.91873" lon="6.4961">
        <ele>1745.89</ele>
        <time>2019-04-25T10:13:29Z</time>
      </trkpt>
      <trkpt lat="45.91876" lon="6.49607">
        <ele>1743.01</ele>
        <time>2019-04-25T10:13:30Z</time>
      </trkpt>
      <trkpt lat="45.91881" lon="6.49605">
        <ele>1739.16</ele>
        <time>2019-04-25T10:13:31Z</time>
      </trkpt>
      <trkpt lat="45.91884" lon="6.49603">
        <ele>1736.76</ele>
        <time>2019-04-25T10:13:32Z</time>
      </trkpt>
      <trkpt lat="45.91889" lon="6.49599">
        <ele>1734.84</ele>
        <time>2019-04-25T10:13:33Z</time>
      </trkpt>
      <trkpt lat="45.91896" lon="6.49595">
        <ele>1731.95</ele>
        <time>2019-04-25T10:13:34Z</time>
      </trkpt>
      <trkpt lat="45.919" lon="6.49593">
        <ele>1730.03</ele>
        <time>2019-04-25T10:13:35Z</time>
      </trkpt>
      <trkpt lat="45.91901" lon="6.49589">
        <ele>1726.67</ele>
        <time>2019-04-25T10:13:36Z</time>
      </trkpt>
      <trkpt lat="45.91906" lon="6.49583">
        <ele>1724.74</ele>
        <time>2019-04-25T10:13:37Z</time>
      </trkpt>
      <trkpt lat="45.9191" lon="6.49578">
        <ele>1721.86</ele>
        <time>2019-04-25T10:13:38Z</time>
      </trkpt>
      <trkpt lat="45.91912" lon="6.49573">
        <ele>1718.01</ele>
        <time>2019-04-25T10:13:39Z</time>
      </trkpt>
      <trkpt lat="45.91916" lon="6.4957">
        <ele>1714.17</ele>
        <time>2019-04-25T10:13:40Z</time>
      </trkpt>
      <trkpt lat="45.9192" lon="6.4957">
        <ele>1711.28</ele>
        <time>2019-04-25T10:13:41Z</time>
      </trkpt>
      <trkpt lat="45.91924" lon="6.49569">
        <ele>1708.4</ele>
        <time>2019-04-25T10:13:42Z</time>
      </trkpt>
      <trkpt lat="45.91928" lon="6.49564">
        <ele>1705.04</ele>
        <time>2019-04-25T10:13:43Z</time>
      </trkpt>
      <trkpt lat="45.91931" lon="6.4956">
        <ele>1704.07</ele>
        <time>2019-04-25T10:13:44Z</time>
      </trkpt>
      <trkpt lat="45.91935" lon="6.49558">
        <ele>1704.55</ele>
        <time>2019-04-25T10:13:45Z</time>
      </trkpt>
      <trkpt lat="45.9194" lon="6.49556">
        <ele>1701.19</ele>
        <time>2019-04-25T10:13:46Z</time>
      </trkpt>
      <trkpt lat="45.91943" lon="6.4955">
        <ele>1696.86</ele>
        <time>2019-04-25T10:13:47Z</time>
      </trkpt>
      <trkpt lat="45.91946" lon="6.49545">
        <ele>1694.94</ele>
        <time>2019-04-25T10:13:48Z</time>
      </trkpt>
      <trkpt lat="45.91948" lon="6.4954">
        <ele>1693.02</ele>
        <time>2019-04-25T10:13:49Z</time>
      </trkpt>
      <trkpt lat="45.91948" lon="6.49534">
        <ele>1689.65</ele>
        <time>2019-04-25T10:13:50Z</time>
      </trkpt>
      <trkpt lat="45.91952" lon="6.4953">
        <ele>1687.73</ele>
        <time>2019-04-25T10:13:51Z</time>
      </trkpt>
      <trkpt lat="45.91958" lon="6.49526">
        <ele>1685.81</ele>
        <time>2019-04-25T10:13:52Z</time>
      </trkpt>
      <trkpt lat="45.9196" lon="6.49519">
        <ele>1683.89</ele>
        <time>2019-04-25T10:13:53Z</time>
      </trkpt>
      <trkpt lat="45.91964" lon="6.49515">
        <ele>1681.48</ele>
        <time>2019-04-25T10:13:54Z</time>
      </trkpt>
      <trkpt lat="45.91968" lon="6.49512">
        <ele>1678.6</ele>
        <time>2019-04-25T10:13:55Z</time>
      </trkpt>
      <trkpt lat="45.91975" lon="6.49508">
        <ele>1677.64</ele>
        <time>2019-04-25T10:13:56Z</time>
      </trkpt>
      <trkpt lat="45.91976" lon="6.49503">
        <ele>1674.75</ele>
        <time>2019-04-25T10:13:57Z</time>
      </trkpt>
      <trkpt lat="45.9198" lon="6.495">
        <ele>1671.87</ele>
        <time>2019-04-25T10:13:58Z</time>
      </trkpt>
      <trkpt lat="45.91984" lon="6.49498">
        <ele>1669.47</ele>
        <time>2019-04-25T10:13:59Z</time>
      </trkpt>
      <trkpt lat="45.91987" lon="6.49497">
        <ele>1667.54</ele>
        <time>2019-04-25T10:14:00Z</time>
      </trkpt>
      <trkpt lat="45.91987" lon="6.49492">
        <ele>1664.18</ele>
        <time>2019-04-25T10:14:01Z</time>
      </trkpt>
      <trkpt lat="45.91987" lon="6.49489">
        <ele>1662.74</ele>
        <time>2019-04-25T10:14:02Z</time>
      </trkpt>
      <trkpt lat="45.91986" lon="6.49486">
        <ele>1661.78</ele>
        <time>2019-04-25T10:14:03Z</time>
      </trkpt>
      <trkpt lat="45.91987" lon="6.49482">
        <ele>1660.81</ele>
        <time>2019-04-25T10:14:04Z</time>
      </trkpt>
      <trkpt lat="45.91988" lon="6.49482">
        <ele>1659.85</ele>
        <time>2019-04-25T10:14:05Z</time>
      </trkpt>
      <trkpt lat="45.9199" lon="6.49482">
        <ele>1658.89</ele>
        <time>2019-04-25T10:14:06Z</time>
      </trkpt>
      <trkpt lat="45.91992" lon="6.49481">
        <ele>1658.41</ele>
        <time>2019-04-25T10:14:07Z</time>
      </trkpt>
      <trkpt lat="45.91993" lon="6.49479">
        <ele>1656.97</ele>
        <time>2019-04-25T10:14:08Z</time>
      </trkpt>
      <trkpt lat="45.91994" lon="6.49473">
        <ele>1656.01</ele>
        <time>2019-04-25T10:14:09Z</time>
      </trkpt>
      <trkpt lat="45.91994" lon="6.49467">
        <ele>1654.09</ele>
        <time>2019-04-25T10:14:10Z</time>
      </trkpt>
      <trkpt lat="45.91994" lon="6.49461">
        <ele>1652.16</ele>
        <time>2019-04-25T10:14:11Z</time>
      </trkpt>
      <trkpt lat="45.91997" lon="6.49456">
        <ele>1650.24</ele>
        <time>2019-04-25T10:14:12Z</time>
      </trkpt>
      <trkpt lat="45.92" lon="6.49452">
        <ele>1648.8</ele>
        <time>2019-04-25T10:14:13Z</time>
      </trkpt>
      <trkpt lat="45.92005" lon="6.49447">
        <ele>1646.4</ele>
        <time>2019-04-25T10:14:14Z</time>
      </trkpt>
      <trkpt lat="45.92009" lon="6.49446">
        <ele>1645.43</ele>
        <time>2019-04-25T10:14:15Z</time>
      </trkpt>
      <trkpt lat="45.92013" lon="6.49445">
        <ele>1644.47</ele>
        <time>2019-04-25T10:14:16Z</time>
      </trkpt>
      <trkpt lat="45.92017" lon="6.49442">
        <ele>1642.07</ele>
        <time>2019-04-25T10:14:17Z</time>
      </trkpt>
      <trkpt lat="45.92022" lon="6.4944">
        <ele>1638.7</ele>
        <time>2019-04-25T10:14:18Z</time>
      </trkpt>
      <trkpt lat="45.92027" lon="6.49439">
        <ele>1636.3</ele>
        <time>2019-04-25T10:14:19Z</time>
      </trkpt>
      <trkpt lat="45.92032" lon="6.49436">
        <ele>1633.42</ele>
        <time>2019-04-25T10:14:20Z</time>
      </trkpt>
      <trkpt lat="45.92035" lon="6.49436">
        <ele>1631.49</ele>
        <time>2019-04-25T10:14:21Z</time>
      </trkpt>
      <trkpt lat="45.92039" lon="6.49435">
        <ele>1630.05</ele>
        <time>2019-04-25T10:14:22Z</time>
      </trkpt>
      <trkpt lat="45.92041" lon="6.49432">
        <ele>1627.65</ele>
        <time>2019-04-25T10:14:23Z</time>
      </trkpt>
      <trkpt lat="45.92045" lon="6.49431">
        <ele>1626.21</ele>
        <time>2019-04-25T10:14:24Z</time>
      </trkpt>
      <trkpt lat="45.92048" lon="6.49433">
        <ele>1625.25</ele>
        <time>2019-04-25T10:14:25Z</time>
      </trkpt>
      <trkpt lat="45.92052" lon="6.49434">
        <ele>1624.28</ele>
        <time>2019-04-25T10:14:26Z</time>
      </trkpt>
      <trkpt lat="45.92053" lon="6.49433">
        <ele>1622.36</ele>
        <time>2019-04-25T10:14:27Z</time>
      </trkpt>
      <trkpt lat="45.92055" lon="6.49431">
        <ele>1619.48</ele>
        <time>2019-04-25T10:14:28Z</time>
      </trkpt>
      <trkpt lat="45.92058" lon="6.49431">
        <ele>1616.59</ele>
        <time>2019-04-25T10:14:29Z</time>
      </trkpt>
      <trkpt lat="45.92061" lon="6.49431">
        <ele>1615.15</ele>
        <time>2019-04-25T10:14:30Z</time>
      </trkpt>
      <trkpt lat="45.92064" lon="6.49429">
        <ele>1613.23</ele>
        <time>2019-04-25T10:14:31Z</time>
      </trkpt>
      <trkpt lat="45.92065" lon="6.4943">
        <ele>1611.79</ele>
        <time>2019-04-25T10:14:32Z</time>
      </trkpt>
      <trkpt lat="45.9206" lon="6.49436">
        <ele>1610.35</ele>
        <time>2019-04-25T10:14:35Z</time>
      </trkpt>
      <trkpt lat="45.92061" lon="6.49437">
        <ele>1609.86</ele>
        <time>2019-04-25T10:14:36Z</time>
      </trkpt>
      <trkpt lat="45.92065" lon="6.49439">
        <ele>1606.02</ele>
        <time>2019-04-25T10:14:40Z</time>
      </trkpt>
      <trkpt lat="45.92066" lon="6.49441">
        <ele>1603.62</ele>
        <time>2019-04-25T10:14:43Z</time>
      </trkpt>
      <trkpt lat="45.92067" lon="6.49441">
        <ele>1603.14</ele>
        <time>2019-04-25T10:14:45Z</time>
      </trkpt>
      <trkpt lat="45.92069" lon="6.49439">
        <ele>1602.17</ele>
        <time>2019-04-25T10:14:47Z</time>
      </trkpt>
      <trkpt lat="45.92069" lon="6.49436">
        <ele>1601.21</ele>
        <time>2019-04-25T10:14:52Z</time>
      </trkpt>
      <trkpt lat="45.92069" lon="6.49434">
        <ele>1601.21</ele>
        <time>2019-04-25T10:14:53Z</time>
      </trkpt>
      <trkpt lat="45.92069" lon="6.49432">
        <ele>1601.21</ele>
        <time>2019-04-25T10:14:54Z</time>
      </trkpt>
      <trkpt lat="45.9207" lon="6.49429">
        <ele>1600.73</ele>
        <time>2019-04-25T10:14:55Z</time>
      </trkpt>
      <trkpt lat="45.92071" lon="6.49429">
        <ele>1600.25</ele>
        <time>2019-04-25T10:14:56Z</time>
      </trkpt>
      <trkpt lat="45.92072" lon="6.49429">
        <ele>1599.77</ele>
        <time>2019-04-25T10:14:57Z</time>
      </trkpt>
      <trkpt lat="45.92072" lon="6.49431">
        <ele>1598.81</ele>
        <time>2019-04-25T10:14:58Z</time>
      </trkpt>
      <trkpt lat="45.92073" lon="6.49432">
        <ele>1598.33</ele>
        <time>2019-04-25T10:14:59Z</time>
      </trkpt>
      <trkpt lat="45.92073" lon="6.49433">
        <ele>1597.85</ele>
        <time>2019-04-25T10:15:00Z</time>
      </trkpt>
      <trkpt lat="45.92074" lon="6.49435">
        <ele>1597.37</ele>
        <time>2019-04-25T10:15:01Z</time>
      </trkpt>
      <trkpt lat="45.92076" lon="6.49437">
        <ele>1596.41</ele>
        <time>2019-04-25T10:15:04Z</time>
      </trkpt>
      <trkpt lat="45.92082" lon="6.49434">
        <ele>1594.48</ele>
        <time>2019-04-25T10:15:07Z</time>
      </trkpt>
      <trkpt lat="45.92083" lon="6.49434">
        <ele>1592.56</ele>
        <time>2019-04-25T10:15:08Z</time>
      </trkpt>
      <trkpt lat="45.92084" lon="6.49436">
        <ele>1590.64</ele>
        <time>2019-04-25T10:15:09Z</time>
      </trkpt>
      <trkpt lat="45.92086" lon="6.49436">
        <ele>1590.16</ele>
        <time>2019-04-25T10:15:10Z</time>
      </trkpt>
      <trkpt lat="45.92086" lon="6.49437">
        <ele>1589.68</ele>
        <time>2019-04-25T10:15:11Z</time>
      </trkpt>
      <trkpt lat="45.92087" lon="6.49436">
        <ele>1590.64</ele>
        <time>2019-04-25T10:15:12Z</time>
      </trkpt>
      <trkpt lat="45.92089" lon="6.49433">
        <ele>1590.16</ele>
        <time>2019-04-25T10:15:15Z</time>
      </trkpt>
      <trkpt lat="45.9209" lon="6.49431">
        <ele>1589.68</ele>
        <time>2019-04-25T10:15:16Z</time>
      </trkpt>
      <trkpt lat="45.92091" lon="6.49429">
        <ele>1588.72</ele>
        <time>2019-04-25T10:15:17Z</time>
      </trkpt>
      <trkpt lat="45.92091" lon="6.49428">
        <ele>1587.75</ele>
        <time>2019-04-25T10:15:18Z</time>
      </trkpt>
      <trkpt lat="45.92091" lon="6.49427">
        <ele>1586.79</ele>
        <time>2019-04-25T10:15:19Z</time>
      </trkpt>
      <trkpt lat="45.92092" lon="6.49427">
        <ele>1585.83</ele>
        <time>2019-04-25T10:15:20Z</time>
      </trkpt>
      <trkpt lat="45.92093" lon="6.49426">
        <ele>1584.87</ele>
        <time>2019-04-25T10:15:21Z</time>
      </trkpt>
      <trkpt lat="45.92095" lon="6.49423">
        <ele>1584.39</ele>
        <time>2019-04-25T10:15:22Z</time>
      </trkpt>
      <trkpt lat="45.92096" lon="6.4942">
        <ele>1583.43</ele>
        <time>2019-04-25T10:15:23Z</time>
      </trkpt>
      <trkpt lat="45.92097" lon="6.49417">
        <ele>1581.51</ele>
        <time>2019-04-25T10:15:24Z</time>
      </trkpt>
      <trkpt lat="45.92098" lon="6.49414">
        <ele>1580.54</ele>
        <time>2019-04-25T10:15:25Z</time>
      </trkpt>
      <trkpt lat="45.921" lon="6.49412">
        <ele>1578.62</ele>
        <time>2019-04-25T10:15:26Z</time>
      </trkpt>
      <trkpt lat="45.92102" lon="6.49413">
        <ele>1576.7</ele>
        <time>2019-04-25T10:15:27Z</time>
      </trkpt>
      <trkpt lat="45.92104" lon="6.49413">
        <ele>1576.22</ele>
        <time>2019-04-25T10:15:28Z</time>
      </trkpt>
      <trkpt lat="45.92105" lon="6.49413">
        <ele>1575.26</ele>
        <time>2019-04-25T10:15:29Z</time>
      </trkpt>
      <trkpt lat="45.92105" lon="6.49412">
        <ele>1574.78</ele>
        <time>2019-04-25T10:15:30Z</time>
      </trkpt>
      <trkpt lat="45.92105" lon="6.4941">
        <ele>1574.78</ele>
        <time>2019-04-25T10:15:31Z</time>
      </trkpt>
      <trkpt lat="45.92105" lon="6.49408">
        <ele>1574.78</ele>
        <time>2019-04-25T10:15:32Z</time>
      </trkpt>
      <trkpt lat="45.92105" lon="6.49405">
        <ele>1575.26</ele>
        <time>2019-04-25T10:15:33Z</time>
      </trkpt>
      <trkpt lat="45.92106" lon="6.49402">
        <ele>1576.22</ele>
        <time>2019-04-25T10:15:34Z</time>
      </trkpt>
      <trkpt lat="45.92108" lon="6.494">
        <ele>1574.78</ele>
        <time>2019-04-25T10:15:35Z</time>
      </trkpt>
      <trkpt lat="45.92111" lon="6.49399">
        <ele>1569.97</ele>
        <time>2019-04-25T10:15:36Z</time>
      </trkpt>
      <trkpt lat="45.92114" lon="6.49398">
        <ele>1566.61</ele>
        <time>2019-04-25T10:15:37Z</time>
      </trkpt>
      <trkpt lat="45.92116" lon="6.494">
        <ele>1565.16</ele>
        <time>2019-04-25T10:15:38Z</time>
      </trkpt>
      <trkpt lat="45.92117" lon="6.49401">
        <ele>1564.68</ele>
        <time>2019-04-25T10:15:39Z</time>
      </trkpt>
      <trkpt lat="45.92117" lon="6.49401">
        <ele>1564.2</ele>
        <time>2019-04-25T10:15:40Z</time>
      </trkpt>
      <trkpt lat="45.92118" lon="6.494">
        <ele>1562.76</ele>
        <time>2019-04-25T10:15:41Z</time>
      </trkpt>
      <trkpt lat="45.92118" lon="6.49398">
        <ele>1562.28</ele>
        <time>2019-04-25T10:15:42Z</time>
      </trkpt>
      <trkpt lat="45.92119" lon="6.49395">
        <ele>1562.28</ele>
        <time>2019-04-25T10:15:43Z</time>
      </trkpt>
      <trkpt lat="45.92121" lon="6.49394">
        <ele>1560.84</ele>
        <time>2019-04-25T10:15:44Z</time>
      </trkpt>
      <trkpt lat="45.92123" lon="6.49396">
        <ele>1559.4</ele>
        <time>2019-04-25T10:15:45Z</time>
      </trkpt>
      <trkpt lat="45.92125" lon="6.49398">
        <ele>1558.43</ele>
        <time>2019-04-25T10:15:46Z</time>
      </trkpt>
      <trkpt lat="45.92127" lon="6.49397">
        <ele>1556.99</ele>
        <time>2019-04-25T10:15:47Z</time>
      </trkpt>
      <trkpt lat="45.9213" lon="6.49395">
        <ele>1554.59</ele>
        <time>2019-04-25T10:15:48Z</time>
      </trkpt>
      <trkpt lat="45.92132" lon="6.49395">
        <ele>1554.11</ele>
        <time>2019-04-25T10:15:49Z</time>
      </trkpt>
      <trkpt lat="45.92136" lon="6.49394">
        <ele>1553.63</ele>
        <time>2019-04-25T10:15:50Z</time>
      </trkpt>
      <trkpt lat="45.92139" lon="6.49394">
        <ele>1552.19</ele>
        <time>2019-04-25T10:15:51Z</time>
      </trkpt>
      <trkpt lat="45.92142" lon="6.49394">
        <ele>1551.71</ele>
        <time>2019-04-25T10:15:52Z</time>
      </trkpt>
      <trkpt lat="45.92144" lon="6.49393">
        <ele>1551.22</ele>
        <time>2019-04-25T10:15:53Z</time>
      </trkpt>
      <trkpt lat="45.92144" lon="6.49391">
        <ele>1550.74</ele>
        <time>2019-04-25T10:15:54Z</time>
      </trkpt>
      <trkpt lat="45.92145" lon="6.49388">
        <ele>1549.3</ele>
        <time>2019-04-25T10:15:55Z</time>
      </trkpt>
      <trkpt lat="45.92147" lon="6.49387">
        <ele>1548.34</ele>
        <time>2019-04-25T10:15:56Z</time>
      </trkpt>
      <trkpt lat="45.92149" lon="6.49387">
        <ele>1546.9</ele>
        <time>2019-04-25T10:15:57Z</time>
      </trkpt>
      <trkpt lat="45.92151" lon="6.49385">
        <ele>1545.46</ele>
        <time>2019-04-25T10:15:58Z</time>
      </trkpt>
      <trkpt lat="45.92153" lon="6.49384">
        <ele>1544.01</ele>
        <time>2019-04-25T10:15:59Z</time>
      </trkpt>
      <trkpt lat="45.92154" lon="6.49382">
        <ele>1544.01</ele>
        <time>2019-04-25T10:16:00Z</time>
      </trkpt>
      <trkpt lat="45.92154" lon="6.49379">
        <ele>1542.57</ele>
        <time>2019-04-25T10:16:01Z</time>
      </trkpt>
      <trkpt lat="45.92154" lon="6.49376">
        <ele>1541.13</ele>
        <time>2019-04-25T10:16:02Z</time>
      </trkpt>
      <trkpt lat="45.92155" lon="6.49373">
        <ele>1540.65</ele>
        <time>2019-04-25T10:16:03Z</time>
      </trkpt>
      <trkpt lat="45.92157" lon="6.49371">
        <ele>1541.13</ele>
        <time>2019-04-25T10:16:04Z</time>
      </trkpt>
      <trkpt lat="45.92158" lon="6.49371">
        <ele>1541.13</ele>
        <time>2019-04-25T10:16:05Z</time>
      </trkpt>
      <trkpt lat="45.9216" lon="6.4937">
        <ele>1541.13</ele>
        <time>2019-04-25T10:16:06Z</time>
      </trkpt>
      <trkpt lat="45.92162" lon="6.49367">
        <ele>1540.65</ele>
        <time>2019-04-25T10:16:07Z</time>
      </trkpt>
      <trkpt lat="45.92163" lon="6.49362">
        <ele>1539.21</ele>
        <time>2019-04-25T10:16:08Z</time>
      </trkpt>
      <trkpt lat="45.92164" lon="6.49357">
        <ele>1537.77</ele>
        <time>2019-04-25T10:16:09Z</time>
      </trkpt>
      <trkpt lat="45.92166" lon="6.49354">
        <ele>1537.29</ele>
        <time>2019-04-25T10:16:10Z</time>
      </trkpt>
      <trkpt lat="45.92169" lon="6.4935">
        <ele>1534.88</ele>
        <time>2019-04-25T10:16:11Z</time>
      </trkpt>
      <trkpt lat="45.92171" lon="6.49347">
        <ele>1533.44</ele>
        <time>2019-04-25T10:16:12Z</time>
      </trkpt>
      <trkpt lat="45.92173" lon="6.49344">
        <ele>1532.96</ele>
        <time>2019-04-25T10:16:13Z</time>
      </trkpt>
      <trkpt lat="45.92176" lon="6.49341">
        <ele>1534.4</ele>
        <time>2019-04-25T10:16:14Z</time>
      </trkpt>
      <trkpt lat="45.92178" lon="6.49337">
        <ele>1532</ele>
        <time>2019-04-25T10:16:15Z</time>
      </trkpt>
      <trkpt lat="45.92179" lon="6.49332">
        <ele>1529.11</ele>
        <time>2019-04-25T10:16:16Z</time>
      </trkpt>
      <trkpt lat="45.9218" lon="6.49328">
        <ele>1529.11</ele>
        <time>2019-04-25T10:16:17Z</time>
      </trkpt>
      <trkpt lat="45.92181" lon="6.49326">
        <ele>1529.11</ele>
        <time>2019-04-25T10:16:18Z</time>
      </trkpt>
      <trkpt lat="45.92181" lon="6.49325">
        <ele>1529.11</ele>
        <time>2019-04-25T10:16:19Z</time>
      </trkpt>
      <trkpt lat="45.92181" lon="6.49322">
        <ele>1529.11</ele>
        <time>2019-04-25T10:16:20Z</time>
      </trkpt>
      <trkpt lat="45.92182" lon="6.49318">
        <ele>1528.63</ele>
        <time>2019-04-25T10:16:21Z</time>
      </trkpt>
      <trkpt lat="45.92182" lon="6.49313">
        <ele>1525.27</ele>
        <time>2019-04-25T10:16:27Z</time>
      </trkpt>
      <trkpt lat="45.92181" lon="6.49312">
        <ele>1524.79</ele>
        <time>2019-04-25T10:16:28Z</time>
      </trkpt>
      <trkpt lat="45.92179" lon="6.49311">
        <ele>1524.31</ele>
        <time>2019-04-25T10:16:29Z</time>
      </trkpt>
      <trkpt lat="45.92178" lon="6.4931">
        <ele>1524.79</ele>
        <time>2019-04-25T10:16:30Z</time>
      </trkpt>
      <trkpt lat="45.92174" lon="6.49305">
        <ele>1524.79</ele>
        <time>2019-04-25T10:16:32Z</time>
      </trkpt>
      <trkpt lat="45.92172" lon="6.49301">
        <ele>1523.35</ele>
        <time>2019-04-25T10:16:33Z</time>
      </trkpt>
      <trkpt lat="45.9217" lon="6.49298">
        <ele>1522.39</ele>
        <time>2019-04-25T10:16:34Z</time>
      </trkpt>
      <trkpt lat="45.92168" lon="6.49295">
        <ele>1521.9</ele>
        <time>2019-04-25T10:16:35Z</time>
      </trkpt>
      <trkpt lat="45.92166" lon="6.49291">
        <ele>1521.42</ele>
        <time>2019-04-25T10:16:36Z</time>
      </trkpt>
      <trkpt lat="45.92164" lon="6.49288">
        <ele>1520.94</ele>
        <time>2019-04-25T10:16:37Z</time>
      </trkpt>
      <trkpt lat="45.92161" lon="6.49275">
        <ele>1517.1</ele>
        <time>2019-04-25T10:16:40Z</time>
      </trkpt>
      <trkpt lat="45.92163" lon="6.49273">
        <ele>1516.62</ele>
        <time>2019-04-25T10:16:41Z</time>
      </trkpt>
      <trkpt lat="45.92164" lon="6.49273">
        <ele>1515.66</ele>
        <time>2019-04-25T10:16:42Z</time>
      </trkpt>
      <trkpt lat="45.92165" lon="6.4927">
        <ele>1514.69</ele>
        <time>2019-04-25T10:16:43Z</time>
      </trkpt>
      <trkpt lat="45.92167" lon="6.49267">
        <ele>1513.73</ele>
        <time>2019-04-25T10:16:44Z</time>
      </trkpt>
      <trkpt lat="45.92168" lon="6.49265">
        <ele>1512.77</ele>
        <time>2019-04-25T10:16:45Z</time>
      </trkpt>
      <trkpt lat="45.92169" lon="6.49263">
        <ele>1512.29</ele>
        <time>2019-04-25T10:16:46Z</time>
      </trkpt>
      <trkpt lat="45.9217" lon="6.49262">
        <ele>1511.81</ele>
        <time>2019-04-25T10:16:47Z</time>
      </trkpt>
      <trkpt lat="45.9217" lon="6.49261">
        <ele>1511.33</ele>
        <time>2019-04-25T10:16:48Z</time>
      </trkpt>
      <trkpt lat="45.92169" lon="6.49259">
        <ele>1510.85</ele>
        <time>2019-04-25T10:16:49Z</time>
      </trkpt>
      <trkpt lat="45.9217" lon="6.49257">
        <ele>1510.37</ele>
        <time>2019-04-25T10:16:50Z</time>
      </trkpt>
      <trkpt lat="45.92174" lon="6.4925">
        <ele>1508.45</ele>
        <time>2019-04-25T10:16:53Z</time>
      </trkpt>
      <trkpt lat="45.92171" lon="6.49248">
        <ele>1507</ele>
        <time>2019-04-25T10:16:56Z</time>
      </trkpt>
      <trkpt lat="45.9217" lon="6.49247">
        <ele>1506.52</ele>
        <time>2019-04-25T10:16:57Z</time>
      </trkpt>
      <trkpt lat="45.92169" lon="6.49241">
        <ele>1504.6</ele>
        <time>2019-04-25T10:17:05Z</time>
      </trkpt>
      <trkpt lat="45.92168" lon="6.49239">
        <ele>1504.6</ele>
        <time>2019-04-25T10:17:06Z</time>
      </trkpt>
      <trkpt lat="45.92168" lon="6.49236">
        <ele>1504.6</ele>
        <time>2019-04-25T10:17:07Z</time>
      </trkpt>
      <trkpt lat="45.92166" lon="6.49233">
        <ele>1504.6</ele>
        <time>2019-04-25T10:17:08Z</time>
      </trkpt>
      <trkpt lat="45.92164" lon="6.4923">
        <ele>1504.6</ele>
        <time>2019-04-25T10:17:09Z</time>
      </trkpt>
      <trkpt lat="45.92162" lon="6.49227">
        <ele>1504.12</ele>
        <time>2019-04-25T10:17:10Z</time>
      </trkpt>
      <trkpt lat="45.92159" lon="6.49223">
        <ele>1503.64</ele>
        <time>2019-04-25T10:17:11Z</time>
      </trkpt>
      <trkpt lat="45.92157" lon="6.49218">
        <ele>1502.68</ele>
        <time>2019-04-25T10:17:12Z</time>
      </trkpt>
      <trkpt lat="45.92153" lon="6.4921">
        <ele>1501.72</ele>
        <time>2019-04-25T10:17:14Z</time>
      </trkpt>
      <trkpt lat="45.92154" lon="6.49207">
        <ele>1500.76</ele>
        <time>2019-04-25T10:17:15Z</time>
      </trkpt>
      <trkpt lat="45.92155" lon="6.49206">
        <ele>1499.79</ele>
        <time>2019-04-25T10:17:16Z</time>
      </trkpt>
      <trkpt lat="45.92157" lon="6.49204">
        <ele>1499.79</ele>
        <time>2019-04-25T10:17:17Z</time>
      </trkpt>
      <trkpt lat="45.92157" lon="6.49202">
        <ele>1498.83</ele>
        <time>2019-04-25T10:17:18Z</time>
      </trkpt>
      <trkpt lat="45.92156" lon="6.492">
        <ele>1498.35</ele>
        <time>2019-04-25T10:17:19Z</time>
      </trkpt>
      <trkpt lat="45.92155" lon="6.49197">
        <ele>1497.39</ele>
        <time>2019-04-25T10:17:20Z</time>
      </trkpt>
      <trkpt lat="45.92155" lon="6.49194">
        <ele>1495.95</ele>
        <time>2019-04-25T10:17:21Z</time>
      </trkpt>
      <trkpt lat="45.92155" lon="6.49192">
        <ele>1494.99</ele>
        <time>2019-04-25T10:17:22Z</time>
      </trkpt>
      <trkpt lat="45.92155" lon="6.49191">
        <ele>1494.03</ele>
        <time>2019-04-25T10:17:23Z</time>
      </trkpt>
      <trkpt lat="45.92156" lon="6.49188">
        <ele>1493.55</ele>
        <time>2019-04-25T10:17:24Z</time>
      </trkpt>
      <trkpt lat="45.92156" lon="6.49186">
        <ele>1493.06</ele>
        <time>2019-04-25T10:17:25Z</time>
      </trkpt>
      <trkpt lat="45.92155" lon="6.49184">
        <ele>1492.58</ele>
        <time>2019-04-25T10:17:26Z</time>
      </trkpt>
      <trkpt lat="45.92154" lon="6.49181">
        <ele>1492.1</ele>
        <time>2019-04-25T10:17:27Z</time>
      </trkpt>
      <trkpt lat="45.92154" lon="6.49179">
        <ele>1491.62</ele>
        <time>2019-04-25T10:17:28Z</time>
      </trkpt>
      <trkpt lat="45.92151" lon="6.49178">
        <ele>1490.66</ele>
        <time>2019-04-25T10:17:32Z</time>
      </trkpt>
      <trkpt lat="45.92149" lon="6.49176">
        <ele>1490.18</ele>
        <time>2019-04-25T10:17:33Z</time>
      </trkpt>
      <trkpt lat="45.92143" lon="6.49166">
        <ele>1489.22</ele>
        <time>2019-04-25T10:17:36Z</time>
      </trkpt>
      <trkpt lat="45.92142" lon="6.4916">
        <ele>1488.74</ele>
        <time>2019-04-25T10:17:37Z</time>
      </trkpt>
      <trkpt lat="45.92141" lon="6.49153">
        <ele>1487.78</ele>
        <time>2019-04-25T10:17:38Z</time>
      </trkpt>
      <trkpt lat="45.92139" lon="6.49146">
        <ele>1487.3</ele>
        <time>2019-04-25T10:17:39Z</time>
      </trkpt>
      <trkpt lat="45.92137" lon="6.49139">
        <ele>1486.34</ele>
        <time>2019-04-25T10:17:40Z</time>
      </trkpt>
      <trkpt lat="45.92136" lon="6.49135">
        <ele>1485.37</ele>
        <time>2019-04-25T10:17:41Z</time>
      </trkpt>
      <trkpt lat="45.92135" lon="6.49133">
        <ele>1484.89</ele>
        <time>2019-04-25T10:17:42Z</time>
      </trkpt>
      <trkpt lat="45.92134" lon="6.49131">
        <ele>1484.89</ele>
        <time>2019-04-25T10:17:43Z</time>
      </trkpt>
      <trkpt lat="45.92132" lon="6.49126">
        <ele>1484.41</ele>
        <time>2019-04-25T10:17:45Z</time>
      </trkpt>
      <trkpt lat="45.92132" lon="6.49122">
        <ele>1483.93</ele>
        <time>2019-04-25T10:17:46Z</time>
      </trkpt>
      <trkpt lat="45.92132" lon="6.49109">
        <ele>1481.53</ele>
        <time>2019-04-25T10:17:48Z</time>
      </trkpt>
      <trkpt lat="45.9213" lon="6.49102">
        <ele>1479.61</ele>
        <time>2019-04-25T10:17:49Z</time>
      </trkpt>
      <trkpt lat="45.92127" lon="6.49095">
        <ele>1478.65</ele>
        <time>2019-04-25T10:17:50Z</time>
      </trkpt>
      <trkpt lat="45.92123" lon="6.49088">
        <ele>1476.72</ele>
        <time>2019-04-25T10:17:51Z</time>
      </trkpt>
      <trkpt lat="45.9212" lon="6.49081">
        <ele>1475.28</ele>
        <time>2019-04-25T10:17:52Z</time>
      </trkpt>
      <trkpt lat="45.92114" lon="6.49067">
        <ele>1472.4</ele>
        <time>2019-04-25T10:17:54Z</time>
      </trkpt>
      <trkpt lat="45.92113" lon="6.49061">
        <ele>1471.92</ele>
        <time>2019-04-25T10:17:55Z</time>
      </trkpt>
      <trkpt lat="45.92112" lon="6.49054">
        <ele>1471.44</ele>
        <time>2019-04-25T10:17:56Z</time>
      </trkpt>
      <trkpt lat="45.92111" lon="6.49048">
        <ele>1470.95</ele>
        <time>2019-04-25T10:17:57Z</time>
      </trkpt>
      <trkpt lat="45.92111" lon="6.49043">
        <ele>1470.47</ele>
        <time>2019-04-25T10:17:58Z</time>
      </trkpt>
      <trkpt lat="45.9211" lon="6.49027">
        <ele>1469.99</ele>
        <time>2019-04-25T10:18:01Z</time>
      </trkpt>
      <trkpt lat="45.92115" lon="6.48997">
        <ele>1466.15</ele>
        <time>2019-04-25T10:18:06Z</time>
      </trkpt>
      <trkpt lat="45.9212" lon="6.48975">
        <ele>1463.74</ele>
        <time>2019-04-25T10:18:10Z</time>
      </trkpt>
      <trkpt lat="45.92136" lon="6.48919">
        <ele>1460.38</ele>
        <time>2019-04-25T10:18:24Z</time>
      </trkpt>
      <trkpt lat="45.92136" lon="6.48897">
        <ele>1457.98</ele>
        <time>2019-04-25T10:18:27Z</time>
      </trkpt>
      <trkpt lat="45.92138" lon="6.4889">
        <ele>1457.5</ele>
        <time>2019-04-25T10:18:28Z</time>
      </trkpt>
      <trkpt lat="45.92156" lon="6.48843">
        <ele>1454.61</ele>
        <time>2019-04-25T10:18:40Z</time>
      </trkpt>
      <trkpt lat="45.92173" lon="6.48816">
        <ele>1457.5</ele>
        <time>2019-04-25T10:19:06Z</time>
      </trkpt>
      <trkpt lat="45.92178" lon="6.488">
        <ele>1458.94</ele>
        <time>2019-04-25T10:19:14Z</time>
      </trkpt>
      <trkpt lat="45.92177" lon="6.48798">
        <ele>1458.46</ele>
        <time>2019-04-25T10:19:15Z</time>
      </trkpt>
      <trkpt lat="45.92177" lon="6.48796">
        <ele>1457.98</ele>
        <time>2019-04-25T10:19:16Z</time>
      </trkpt>
      <trkpt lat="45.92177" lon="6.48795">
        <ele>1457.5</ele>
        <time>2019-04-25T10:19:17Z</time>
      </trkpt>
      <trkpt lat="45.92176" lon="6.48794">
        <ele>1457.02</ele>
        <time>2019-04-25T10:19:18Z</time>
      </trkpt>
      <trkpt lat="45.92175" lon="6.48792">
        <ele>1457.02</ele>
        <time>2019-04-25T10:19:19Z</time>
      </trkpt>
      <trkpt lat="45.92166" lon="6.4876">
        <ele>1459.9</ele>
        <time>2019-04-25T10:19:35Z</time>
      </trkpt>
      <trkpt lat="45.92165" lon="6.48758">
        <ele>1460.38</ele>
        <time>2019-04-25T10:19:36Z</time>
      </trkpt>
      <trkpt lat="45.92165" lon="6.48756">
        <ele>1460.38</ele>
        <time>2019-04-25T10:19:37Z</time>
      </trkpt>
      <trkpt lat="45.92158" lon="6.48731">
        <ele>1462.78</ele>
        <time>2019-04-25T10:19:51Z</time>
      </trkpt>
      <trkpt lat="45.92158" lon="6.48729">
        <ele>1462.78</ele>
        <time>2019-04-25T10:19:52Z</time>
      </trkpt>
      <trkpt lat="45.92157" lon="6.48727">
        <ele>1462.78</ele>
        <time>2019-04-25T10:19:53Z</time>
      </trkpt>
      <trkpt lat="45.92157" lon="6.48725">
        <ele>1463.26</ele>
        <time>2019-04-25T10:19:54Z</time>
      </trkpt>
      <trkpt lat="45.92156" lon="6.48717">
        <ele>1463.74</ele>
        <time>2019-04-25T10:19:59Z</time>
      </trkpt>
      <trkpt lat="45.92155" lon="6.48715">
        <ele>1463.74</ele>
        <time>2019-04-25T10:20:00Z</time>
      </trkpt>
      <trkpt lat="45.92155" lon="6.48714">
        <ele>1463.74</ele>
        <time>2019-04-25T10:20:01Z</time>
      </trkpt>
      <trkpt lat="45.92154" lon="6.48712">
        <ele>1463.74</ele>
        <time>2019-04-25T10:20:02Z</time>
      </trkpt>
      <trkpt lat="45.92154" lon="6.4871">
        <ele>1463.74</ele>
        <time>2019-04-25T10:20:03Z</time>
      </trkpt>
      <trkpt lat="45.92153" lon="6.48709">
        <ele>1464.23</ele>
        <time>2019-04-25T10:20:04Z</time>
      </trkpt>
      <trkpt lat="45.92152" lon="6.48707">
        <ele>1464.23</ele>
        <time>2019-04-25T10:20:05Z</time>
      </trkpt>
      <trkpt lat="45.92153" lon="6.48705">
        <ele>1464.23</ele>
        <time>2019-04-25T10:20:06Z</time>
      </trkpt>
      <trkpt lat="45.92152" lon="6.48703">
        <ele>1464.23</ele>
        <time>2019-04-25T10:20:07Z</time>
      </trkpt>
      <trkpt lat="45.92151" lon="6.48702">
        <ele>1464.23</ele>
        <time>2019-04-25T10:20:08Z</time>
      </trkpt>
      <trkpt lat="45.92151" lon="6.48701">
        <ele>1464.23</ele>
        <time>2019-04-25T10:20:09Z</time>
      </trkpt>
      <trkpt lat="45.92149" lon="6.487">
        <ele>1464.23</ele>
        <time>2019-04-25T10:20:10Z</time>
      </trkpt>
      <trkpt lat="45.92148" lon="6.48698">
        <ele>1464.23</ele>
        <time>2019-04-25T10:20:11Z</time>
      </trkpt>
      <trkpt lat="45.92146" lon="6.48696">
        <ele>1464.23</ele>
        <time>2019-04-25T10:20:12Z</time>
      </trkpt>
      <trkpt lat="45.92145" lon="6.48694">
        <ele>1464.23</ele>
        <time>2019-04-25T10:20:13Z</time>
      </trkpt>
      <trkpt lat="45.92137" lon="6.48679">
        <ele>1464.23</ele>
        <time>2019-04-25T10:20:22Z</time>
      </trkpt>
      <trkpt lat="45.92136" lon="6.48678">
        <ele>1464.23</ele>
        <time>2019-04-25T10:20:23Z</time>
      </trkpt>
      <trkpt lat="45.92135" lon="6.48677">
        <ele>1464.23</ele>
        <time>2019-04-25T10:20:24Z</time>
      </trkpt>
      <trkpt lat="45.92134" lon="6.48676">
        <ele>1464.71</ele>
        <time>2019-04-25T10:20:25Z</time>
      </trkpt>
      <trkpt lat="45.92134" lon="6.48674">
        <ele>1464.71</ele>
        <time>2019-04-25T10:20:26Z</time>
      </trkpt>
      <trkpt lat="45.92133" lon="6.48673">
        <ele>1464.71</ele>
        <time>2019-04-25T10:20:27Z</time>
      </trkpt>
      <trkpt lat="45.92133" lon="6.4867">
        <ele>1464.71</ele>
        <time>2019-04-25T10:20:28Z</time>
      </trkpt>
      <trkpt lat="45.92133" lon="6.48667">
        <ele>1464.71</ele>
        <time>2019-04-25T10:20:29Z</time>
      </trkpt>
      <trkpt lat="45.92143" lon="6.48617">
        <ele>1461.82</ele>
        <time>2019-04-25T10:20:42Z</time>
      </trkpt>
      <trkpt lat="45.92156" lon="6.48591">
        <ele>1458.46</ele>
        <time>2019-04-25T10:20:50Z</time>
      </trkpt>
      <trkpt lat="45.92173" lon="6.4855">
        <ele>1455.57</ele>
        <time>2019-04-25T10:21:00Z</time>
      </trkpt>
      <trkpt lat="45.92185" lon="6.48522">
        <ele>1451.73</ele>
        <time>2019-04-25T10:21:05Z</time>
      </trkpt>
      <trkpt lat="45.92195" lon="6.48499">
        <ele>1448.84</ele>
        <time>2019-04-25T10:21:09Z</time>
      </trkpt>
      <trkpt lat="45.92206" lon="6.48479">
        <ele>1446.92</ele>
        <time>2019-04-25T10:21:13Z</time>
      </trkpt>
      <trkpt lat="45.92209" lon="6.48475">
        <ele>1446.92</ele>
        <time>2019-04-25T10:21:14Z</time>
      </trkpt>
      <trkpt lat="45.92241" lon="6.4843">
        <ele>1445</ele>
        <time>2019-04-25T10:21:42Z</time>
      </trkpt>
      <trkpt lat="45.92242" lon="6.48425">
        <ele>1444.52</ele>
        <time>2019-04-25T10:22:01Z</time>
      </trkpt>
      <trkpt lat="45.92246" lon="6.48421">
        <ele>1445</ele>
        <time>2019-04-25T10:22:23Z</time>
      </trkpt>
    </trkseg>
  </trk>
</gpx>